<?xml version="1.0" encoding="UTF-8" standalone="no" ?>
<gpx xmlns="http://www.topografix.com/GPX/1/1" xmlns:xsi="http://www.w3.org/2001/XMLSchema-instance" xsi:schemaLocation="http://www.topografix.com/GPX/1/1 http://www.topografix.com/GPX/1/1/gpx.xsd" version="1.1" creator="VisuGPX - https://www.visugpx.com">
  <metadata>
    <name>Pic de la Gentiane depuis Goust - Vallée d Ossau (64)</name>
    <desc><![CDATA[Reconnaissance sortie raquettes]]></desc>
  </metadata>
  <wpt lat="42.96264" lon="-0.47826">
    <ele>1579.800293</ele>
    <name><![CDATA[001]]></name>
    <desc><![CDATA[11-AOU-11 12:47:03]]></desc>
  </wpt>
  <wpt lat="42.97" lon="-0.46191">
    <ele>1751.394287</ele>
    <name><![CDATA[002]]></name>
    <desc><![CDATA[11-AOU-11 14:03:27]]></desc>
  </wpt>
  <wpt lat="42.97034" lon="-0.45935">
    <ele>1717.267822</ele>
    <name><![CDATA[003]]></name>
    <desc><![CDATA[11-AOU-11 14:10:06]]></desc>
  </wpt>
  <wpt lat="42.9694" lon="-0.46931">
    <ele>1720.39209</ele>
    <name><![CDATA[004]]></name>
    <desc><![CDATA[11-AOU-11 14:39:27]]></desc>
  </wpt>
  <wpt lat="42.95738" lon="-0.46359">
    <ele>1480.064209</ele>
    <name><![CDATA[005]]></name>
    <desc><![CDATA[11-AOU-11 15:45:28]]></desc>
  </wpt>
  <trk>
    <name><![CDATA[ACTIVE LOG 001]]></name>
    <trkseg>
      <trkpt lat="42.95137" lon="-0.4483">
        <ele>857.152588</ele>
        <time>2011-08-11T08:39:51Z</time>
      </trkpt>
      <trkpt lat="42.95137" lon="-0.4483">
        <ele>857.152588</ele>
        <time>2011-08-11T08:39:52Z</time>
      </trkpt>
      <trkpt lat="42.95137" lon="-0.44831">
        <ele>857.633301</ele>
        <time>2011-08-11T08:39:54Z</time>
      </trkpt>
      <trkpt lat="42.95138" lon="-0.44829">
        <ele>860.998047</ele>
        <time>2011-08-11T08:40:08Z</time>
      </trkpt>
      <trkpt lat="42.95141" lon="-0.44826">
        <ele>864.362549</ele>
        <time>2011-08-11T08:40:39Z</time>
      </trkpt>
      <trkpt lat="42.95146" lon="-0.44837">
        <ele>867.727051</ele>
        <time>2011-08-11T08:41:22Z</time>
      </trkpt>
      <trkpt lat="42.95154" lon="-0.44861">
        <ele>870.130371</ele>
        <time>2011-08-11T08:41:45Z</time>
      </trkpt>
      <trkpt lat="42.95161" lon="-0.44876">
        <ele>873.495117</ele>
        <time>2011-08-11T08:42:00Z</time>
      </trkpt>
      <trkpt lat="42.95164" lon="-0.44891">
        <ele>876.37915</ele>
        <time>2011-08-11T08:42:17Z</time>
      </trkpt>
      <trkpt lat="42.9517" lon="-0.44908">
        <ele>879.262939</ele>
        <time>2011-08-11T08:42:37Z</time>
      </trkpt>
      <trkpt lat="42.95175" lon="-0.44927">
        <ele>882.146973</ele>
        <time>2011-08-11T08:42:57Z</time>
      </trkpt>
      <trkpt lat="42.95175" lon="-0.44929">
        <ele>883.588867</ele>
        <time>2011-08-11T08:43:00Z</time>
      </trkpt>
      <trkpt lat="42.9518" lon="-0.44949">
        <ele>885.511475</ele>
        <time>2011-08-11T08:43:21Z</time>
      </trkpt>
      <trkpt lat="42.9518" lon="-0.44951">
        <ele>886.953369</ele>
        <time>2011-08-11T08:43:24Z</time>
      </trkpt>
      <trkpt lat="42.95183" lon="-0.44964">
        <ele>889.837402</ele>
        <time>2011-08-11T08:43:37Z</time>
      </trkpt>
      <trkpt lat="42.95186" lon="-0.44979">
        <ele>892.240967</ele>
        <time>2011-08-11T08:43:54Z</time>
      </trkpt>
      <trkpt lat="42.95188" lon="-0.44988">
        <ele>895.605469</ele>
        <time>2011-08-11T08:44:04Z</time>
      </trkpt>
      <trkpt lat="42.95192" lon="-0.45005">
        <ele>898.489258</ele>
        <time>2011-08-11T08:44:23Z</time>
      </trkpt>
      <trkpt lat="42.95195" lon="-0.4502">
        <ele>900.892578</ele>
        <time>2011-08-11T08:44:41Z</time>
      </trkpt>
      <trkpt lat="42.95197" lon="-0.45031">
        <ele>903.776611</ele>
        <time>2011-08-11T08:44:54Z</time>
      </trkpt>
      <trkpt lat="42.95198" lon="-0.45037">
        <ele>905.218506</ele>
        <time>2011-08-11T08:45:01Z</time>
      </trkpt>
      <trkpt lat="42.95201" lon="-0.45047">
        <ele>908.583252</ele>
        <time>2011-08-11T08:45:15Z</time>
      </trkpt>
      <trkpt lat="42.95204" lon="-0.4506">
        <ele>911.467285</ele>
        <time>2011-08-11T08:45:32Z</time>
      </trkpt>
      <trkpt lat="42.95205" lon="-0.45075">
        <ele>913.870361</ele>
        <time>2011-08-11T08:45:50Z</time>
      </trkpt>
      <trkpt lat="42.95208" lon="-0.4509">
        <ele>916.273682</ele>
        <time>2011-08-11T08:46:07Z</time>
      </trkpt>
      <trkpt lat="42.95212" lon="-0.45104">
        <ele>919.638428</ele>
        <time>2011-08-11T08:46:24Z</time>
      </trkpt>
      <trkpt lat="42.95219" lon="-0.4511">
        <ele>923.00293</ele>
        <time>2011-08-11T08:46:37Z</time>
      </trkpt>
      <trkpt lat="42.9522" lon="-0.45122">
        <ele>925.886963</ele>
        <time>2011-08-11T08:46:52Z</time>
      </trkpt>
      <trkpt lat="42.95219" lon="-0.45121">
        <ele>925.886963</ele>
        <time>2011-08-11T08:47:07Z</time>
      </trkpt>
      <trkpt lat="42.95223" lon="-0.45123">
        <ele>927.80957</ele>
        <time>2011-08-11T08:47:27Z</time>
      </trkpt>
      <trkpt lat="42.95222" lon="-0.4514">
        <ele>931.174316</ele>
        <time>2011-08-11T08:47:40Z</time>
      </trkpt>
      <trkpt lat="42.95222" lon="-0.45141">
        <ele>931.174316</ele>
        <time>2011-08-11T08:47:41Z</time>
      </trkpt>
      <trkpt lat="42.95226" lon="-0.45147">
        <ele>933.09668</ele>
        <time>2011-08-11T08:47:52Z</time>
      </trkpt>
      <trkpt lat="42.95228" lon="-0.45158">
        <ele>936.941895</ele>
        <time>2011-08-11T08:48:06Z</time>
      </trkpt>
      <trkpt lat="42.95236" lon="-0.45165">
        <ele>938.384033</ele>
        <time>2011-08-11T08:48:18Z</time>
      </trkpt>
      <trkpt lat="42.95248" lon="-0.4518">
        <ele>940.306885</ele>
        <time>2011-08-11T08:48:37Z</time>
      </trkpt>
      <trkpt lat="42.95249" lon="-0.45191">
        <ele>941.748779</ele>
        <time>2011-08-11T08:48:46Z</time>
      </trkpt>
      <trkpt lat="42.95253" lon="-0.45203">
        <ele>945.113281</ele>
        <time>2011-08-11T08:49:00Z</time>
      </trkpt>
      <trkpt lat="42.95264" lon="-0.45205">
        <ele>947.035889</ele>
        <time>2011-08-11T08:49:13Z</time>
      </trkpt>
      <trkpt lat="42.95273" lon="-0.45208">
        <ele>947.516602</ele>
        <time>2011-08-11T08:49:24Z</time>
      </trkpt>
      <trkpt lat="42.95278" lon="-0.4522">
        <ele>950.400635</ele>
        <time>2011-08-11T08:49:38Z</time>
      </trkpt>
      <trkpt lat="42.95286" lon="-0.45232">
        <ele>952.322998</ele>
        <time>2011-08-11T08:49:56Z</time>
      </trkpt>
      <trkpt lat="42.95286" lon="-0.45243">
        <ele>955.687744</ele>
        <time>2011-08-11T08:50:07Z</time>
      </trkpt>
      <trkpt lat="42.95294" lon="-0.45238">
        <ele>958.571777</ele>
        <time>2011-08-11T08:50:22Z</time>
      </trkpt>
      <trkpt lat="42.95303" lon="-0.45223">
        <ele>960.975098</ele>
        <time>2011-08-11T08:50:36Z</time>
      </trkpt>
      <trkpt lat="42.95312" lon="-0.45223">
        <ele>962.897705</ele>
        <time>2011-08-11T08:50:48Z</time>
      </trkpt>
      <trkpt lat="42.95321" lon="-0.45225">
        <ele>964.3396</ele>
        <time>2011-08-11T08:51:03Z</time>
      </trkpt>
      <trkpt lat="42.95325" lon="-0.45229">
        <ele>967.704102</ele>
        <time>2011-08-11T08:51:15Z</time>
      </trkpt>
      <trkpt lat="42.95337" lon="-0.45226">
        <ele>969.626953</ele>
        <time>2011-08-11T08:51:27Z</time>
      </trkpt>
      <trkpt lat="42.95351" lon="-0.45219">
        <ele>972.991699</ele>
        <time>2011-08-11T08:51:43Z</time>
      </trkpt>
      <trkpt lat="42.95357" lon="-0.45225">
        <ele>975.875488</ele>
        <time>2011-08-11T08:51:53Z</time>
      </trkpt>
      <trkpt lat="42.95359" lon="-0.45228">
        <ele>977.317627</ele>
        <time>2011-08-11T08:51:58Z</time>
      </trkpt>
      <trkpt lat="42.95366" lon="-0.45222">
        <ele>979.720703</ele>
        <time>2011-08-11T08:52:11Z</time>
      </trkpt>
      <trkpt lat="42.95371" lon="-0.45218">
        <ele>982.124023</ele>
        <time>2011-08-11T08:52:20Z</time>
      </trkpt>
      <trkpt lat="42.9538" lon="-0.4523">
        <ele>984.046631</ele>
        <time>2011-08-11T08:52:35Z</time>
      </trkpt>
      <trkpt lat="42.95387" lon="-0.45231">
        <ele>986.449951</ele>
        <time>2011-08-11T08:52:49Z</time>
      </trkpt>
      <trkpt lat="42.95396" lon="-0.45227">
        <ele>989.814697</ele>
        <time>2011-08-11T08:53:02Z</time>
      </trkpt>
      <trkpt lat="42.95396" lon="-0.45228">
        <ele>989.814697</ele>
        <time>2011-08-11T08:53:03Z</time>
      </trkpt>
      <trkpt lat="42.95406" lon="-0.45229">
        <ele>993.659912</ele>
        <time>2011-08-11T08:53:18Z</time>
      </trkpt>
      <trkpt lat="42.95419" lon="-0.45225">
        <ele>996.543945</ele>
        <time>2011-08-11T08:53:36Z</time>
      </trkpt>
      <trkpt lat="42.95432" lon="-0.45218">
        <ele>999.427734</ele>
        <time>2011-08-11T08:53:50Z</time>
      </trkpt>
      <trkpt lat="42.95441" lon="-0.45215">
        <ele>1001.831055</ele>
        <time>2011-08-11T08:54:02Z</time>
      </trkpt>
      <trkpt lat="42.95453" lon="-0.45208">
        <ele>1004.234619</ele>
        <time>2011-08-11T08:54:15Z</time>
      </trkpt>
      <trkpt lat="42.95461" lon="-0.45204">
        <ele>1007.599121</ele>
        <time>2011-08-11T08:54:29Z</time>
      </trkpt>
      <trkpt lat="42.95466" lon="-0.45198">
        <ele>1010.963623</ele>
        <time>2011-08-11T08:54:42Z</time>
      </trkpt>
      <trkpt lat="42.95472" lon="-0.45194">
        <ele>1013.366943</ele>
        <time>2011-08-11T08:54:56Z</time>
      </trkpt>
      <trkpt lat="42.95478" lon="-0.45189">
        <ele>1016.250732</ele>
        <time>2011-08-11T08:55:11Z</time>
      </trkpt>
      <trkpt lat="42.95486" lon="-0.4519">
        <ele>1019.615479</ele>
        <time>2011-08-11T08:55:28Z</time>
      </trkpt>
      <trkpt lat="42.95492" lon="-0.45185">
        <ele>1022.499512</ele>
        <time>2011-08-11T08:55:41Z</time>
      </trkpt>
      <trkpt lat="42.95505" lon="-0.45175">
        <ele>1024.902832</ele>
        <time>2011-08-11T08:55:57Z</time>
      </trkpt>
      <trkpt lat="42.95514" lon="-0.45177">
        <ele>1028.267334</ele>
        <time>2011-08-11T08:56:12Z</time>
      </trkpt>
      <trkpt lat="42.95512" lon="-0.45195">
        <ele>1031.151367</ele>
        <time>2011-08-11T08:56:27Z</time>
      </trkpt>
      <trkpt lat="42.95513" lon="-0.45196">
        <ele>1034.035156</ele>
        <time>2011-08-11T08:56:39Z</time>
      </trkpt>
      <trkpt lat="42.95515" lon="-0.45194">
        <ele>1036.919189</ele>
        <time>2011-08-11T08:56:50Z</time>
      </trkpt>
      <trkpt lat="42.9552" lon="-0.45207">
        <ele>1039.32251</ele>
        <time>2011-08-11T08:57:06Z</time>
      </trkpt>
      <trkpt lat="42.9552" lon="-0.45219">
        <ele>1042.206543</ele>
        <time>2011-08-11T08:57:25Z</time>
      </trkpt>
      <trkpt lat="42.95526" lon="-0.45206">
        <ele>1044.12915</ele>
        <time>2011-08-11T08:57:39Z</time>
      </trkpt>
      <trkpt lat="42.95532" lon="-0.45195">
        <ele>1045.571045</ele>
        <time>2011-08-11T08:57:50Z</time>
      </trkpt>
      <trkpt lat="42.95534" lon="-0.45186">
        <ele>1049.896973</ele>
        <time>2011-08-11T08:58:12Z</time>
      </trkpt>
      <trkpt lat="42.95542" lon="-0.45182">
        <ele>1052.781006</ele>
        <time>2011-08-11T08:58:27Z</time>
      </trkpt>
      <trkpt lat="42.95545" lon="-0.45182">
        <ele>1054.223145</ele>
        <time>2011-08-11T08:58:41Z</time>
      </trkpt>
      <trkpt lat="42.9555" lon="-0.45183">
        <ele>1057.587646</ele>
        <time>2011-08-11T08:58:52Z</time>
      </trkpt>
      <trkpt lat="42.95559" lon="-0.45176">
        <ele>1060.471436</ele>
        <time>2011-08-11T08:59:06Z</time>
      </trkpt>
      <trkpt lat="42.95564" lon="-0.45176">
        <ele>1062.394043</ele>
        <time>2011-08-11T08:59:17Z</time>
      </trkpt>
      <trkpt lat="42.95573" lon="-0.45173">
        <ele>1064.797363</ele>
        <time>2011-08-11T08:59:30Z</time>
      </trkpt>
      <trkpt lat="42.95575" lon="-0.45174">
        <ele>1065.758789</ele>
        <time>2011-08-11T08:59:33Z</time>
      </trkpt>
      <trkpt lat="42.95584" lon="-0.45174">
        <ele>1067.681152</ele>
        <time>2011-08-11T08:59:47Z</time>
      </trkpt>
      <trkpt lat="42.95587" lon="-0.45176">
        <ele>1069.604248</ele>
        <time>2011-08-11T09:00:00Z</time>
      </trkpt>
      <trkpt lat="42.95594" lon="-0.45168">
        <ele>1072.96875</ele>
        <time>2011-08-11T09:00:14Z</time>
      </trkpt>
      <trkpt lat="42.956" lon="-0.45165">
        <ele>1075.371826</ele>
        <time>2011-08-11T09:00:28Z</time>
      </trkpt>
      <trkpt lat="42.95607" lon="-0.45167">
        <ele>1078.255859</ele>
        <time>2011-08-11T09:00:44Z</time>
      </trkpt>
      <trkpt lat="42.95612" lon="-0.45164">
        <ele>1081.620361</ele>
        <time>2011-08-11T09:01:00Z</time>
      </trkpt>
      <trkpt lat="42.95614" lon="-0.45159">
        <ele>1084.023926</ele>
        <time>2011-08-11T09:01:13Z</time>
      </trkpt>
      <trkpt lat="42.95616" lon="-0.45156">
        <ele>1085.946533</ele>
        <time>2011-08-11T09:01:22Z</time>
      </trkpt>
      <trkpt lat="42.95617" lon="-0.45159">
        <ele>1086.427246</ele>
        <time>2011-08-11T09:01:55Z</time>
      </trkpt>
      <trkpt lat="42.95615" lon="-0.45148">
        <ele>1087.388428</ele>
        <time>2011-08-11T09:02:12Z</time>
      </trkpt>
      <trkpt lat="42.95615" lon="-0.45147">
        <ele>1087.869141</ele>
        <time>2011-08-11T09:02:31Z</time>
      </trkpt>
      <trkpt lat="42.95616" lon="-0.4515">
        <ele>1087.869141</ele>
        <time>2011-08-11T09:02:58Z</time>
      </trkpt>
      <trkpt lat="42.95614" lon="-0.45156">
        <ele>1088.830566</ele>
        <time>2011-08-11T09:04:10Z</time>
      </trkpt>
      <trkpt lat="42.95623" lon="-0.45148">
        <ele>1087.869141</ele>
        <time>2011-08-11T09:05:10Z</time>
      </trkpt>
      <trkpt lat="42.95613" lon="-0.45144">
        <ele>1086.907715</ele>
        <time>2011-08-11T09:06:49Z</time>
      </trkpt>
      <trkpt lat="42.95624" lon="-0.4515">
        <ele>1086.907715</ele>
        <time>2011-08-11T09:07:35Z</time>
      </trkpt>
      <trkpt lat="42.95627" lon="-0.45156">
        <ele>1086.907715</ele>
        <time>2011-08-11T09:08:13Z</time>
      </trkpt>
      <trkpt lat="42.95627" lon="-0.45143">
        <ele>1089.791748</ele>
        <time>2011-08-11T09:08:40Z</time>
      </trkpt>
      <trkpt lat="42.95628" lon="-0.45136">
        <ele>1092.675781</ele>
        <time>2011-08-11T09:08:54Z</time>
      </trkpt>
      <trkpt lat="42.95634" lon="-0.45126">
        <ele>1095.078857</ele>
        <time>2011-08-11T09:09:11Z</time>
      </trkpt>
      <trkpt lat="42.95635" lon="-0.45135">
        <ele>1097.962891</ele>
        <time>2011-08-11T09:09:24Z</time>
      </trkpt>
      <trkpt lat="42.95638" lon="-0.45135">
        <ele>1099.885498</ele>
        <time>2011-08-11T09:09:38Z</time>
      </trkpt>
      <trkpt lat="42.9564" lon="-0.45125">
        <ele>1101.327637</ele>
        <time>2011-08-11T09:09:53Z</time>
      </trkpt>
      <trkpt lat="42.95644" lon="-0.45118">
        <ele>1104.692139</ele>
        <time>2011-08-11T09:10:05Z</time>
      </trkpt>
      <trkpt lat="42.95644" lon="-0.45117">
        <ele>1105.172852</ele>
        <time>2011-08-11T09:10:06Z</time>
      </trkpt>
      <trkpt lat="42.95649" lon="-0.45106">
        <ele>1106.134033</ele>
        <time>2011-08-11T09:10:20Z</time>
      </trkpt>
      <trkpt lat="42.95653" lon="-0.45095">
        <ele>1107.576172</ele>
        <time>2011-08-11T09:10:36Z</time>
      </trkpt>
      <trkpt lat="42.95662" lon="-0.45084">
        <ele>1110.459961</ele>
        <time>2011-08-11T09:10:56Z</time>
      </trkpt>
      <trkpt lat="42.95667" lon="-0.45077">
        <ele>1113.343994</ele>
        <time>2011-08-11T09:11:13Z</time>
      </trkpt>
      <trkpt lat="42.9567" lon="-0.4507">
        <ele>1116.228027</ele>
        <time>2011-08-11T09:11:24Z</time>
      </trkpt>
      <trkpt lat="42.95678" lon="-0.45065">
        <ele>1119.112061</ele>
        <time>2011-08-11T09:11:41Z</time>
      </trkpt>
      <trkpt lat="42.95686" lon="-0.45063">
        <ele>1121.034668</ele>
        <time>2011-08-11T09:11:57Z</time>
      </trkpt>
      <trkpt lat="42.95692" lon="-0.45062">
        <ele>1123.918457</ele>
        <time>2011-08-11T09:12:10Z</time>
      </trkpt>
      <trkpt lat="42.95697" lon="-0.45056">
        <ele>1126.80249</ele>
        <time>2011-08-11T09:12:22Z</time>
      </trkpt>
      <trkpt lat="42.95703" lon="-0.45049">
        <ele>1129.686279</ele>
        <time>2011-08-11T09:12:38Z</time>
      </trkpt>
      <trkpt lat="42.95707" lon="-0.45047">
        <ele>1131.608887</ele>
        <time>2011-08-11T09:12:52Z</time>
      </trkpt>
      <trkpt lat="42.95712" lon="-0.45051">
        <ele>1134.493164</ele>
        <time>2011-08-11T09:13:06Z</time>
      </trkpt>
      <trkpt lat="42.95716" lon="-0.45047">
        <ele>1137.857666</ele>
        <time>2011-08-11T09:13:23Z</time>
      </trkpt>
      <trkpt lat="42.95718" lon="-0.45041">
        <ele>1139.299561</ele>
        <time>2011-08-11T09:13:31Z</time>
      </trkpt>
      <trkpt lat="42.95722" lon="-0.45032">
        <ele>1142.183594</ele>
        <time>2011-08-11T09:13:44Z</time>
      </trkpt>
      <trkpt lat="42.95729" lon="-0.45023">
        <ele>1144.106201</ele>
        <time>2011-08-11T09:13:58Z</time>
      </trkpt>
      <trkpt lat="42.95734" lon="-0.45016">
        <ele>1145.548096</ele>
        <time>2011-08-11T09:14:11Z</time>
      </trkpt>
      <trkpt lat="42.9574" lon="-0.4501">
        <ele>1148.912842</ele>
        <time>2011-08-11T09:14:26Z</time>
      </trkpt>
      <trkpt lat="42.95745" lon="-0.45003">
        <ele>1150.835449</ele>
        <time>2011-08-11T09:14:43Z</time>
      </trkpt>
      <trkpt lat="42.95751" lon="-0.44995">
        <ele>1151.316162</ele>
        <time>2011-08-11T09:15:02Z</time>
      </trkpt>
      <trkpt lat="42.95755" lon="-0.44992">
        <ele>1153.719482</ele>
        <time>2011-08-11T09:15:20Z</time>
      </trkpt>
      <trkpt lat="42.95752" lon="-0.44992">
        <ele>1154.200195</ele>
        <time>2011-08-11T09:15:59Z</time>
      </trkpt>
      <trkpt lat="42.95754" lon="-0.44996">
        <ele>1155.161377</ele>
        <time>2011-08-11T09:16:46Z</time>
      </trkpt>
      <trkpt lat="42.95759" lon="-0.44999">
        <ele>1159.006592</ele>
        <time>2011-08-11T09:17:02Z</time>
      </trkpt>
      <trkpt lat="42.95765" lon="-0.44994">
        <ele>1160.929199</ele>
        <time>2011-08-11T09:17:14Z</time>
      </trkpt>
      <trkpt lat="42.9577" lon="-0.44988">
        <ele>1163.812988</ele>
        <time>2011-08-11T09:17:27Z</time>
      </trkpt>
      <trkpt lat="42.95774" lon="-0.44989">
        <ele>1165.255371</ele>
        <time>2011-08-11T09:17:41Z</time>
      </trkpt>
      <trkpt lat="42.95777" lon="-0.44997">
        <ele>1166.216553</ele>
        <time>2011-08-11T09:17:54Z</time>
      </trkpt>
      <trkpt lat="42.95774" lon="-0.45005">
        <ele>1169.100586</ele>
        <time>2011-08-11T09:18:05Z</time>
      </trkpt>
      <trkpt lat="42.95775" lon="-0.45016">
        <ele>1172.465088</ele>
        <time>2011-08-11T09:18:21Z</time>
      </trkpt>
      <trkpt lat="42.95784" lon="-0.45013">
        <ele>1174.868408</ele>
        <time>2011-08-11T09:18:36Z</time>
      </trkpt>
      <trkpt lat="42.95787" lon="-0.45009">
        <ele>1176.791016</ele>
        <time>2011-08-11T09:18:49Z</time>
      </trkpt>
      <trkpt lat="42.95791" lon="-0.45006">
        <ele>1178.713623</ele>
        <time>2011-08-11T09:19:02Z</time>
      </trkpt>
      <trkpt lat="42.95794" lon="-0.45012">
        <ele>1181.117188</ele>
        <time>2011-08-11T09:19:16Z</time>
      </trkpt>
      <trkpt lat="42.95797" lon="-0.45015">
        <ele>1183.520264</ele>
        <time>2011-08-11T09:19:31Z</time>
      </trkpt>
      <trkpt lat="42.95801" lon="-0.45016">
        <ele>1185.923584</ele>
        <time>2011-08-11T09:19:40Z</time>
      </trkpt>
      <trkpt lat="42.95803" lon="-0.45024">
        <ele>1188.807617</ele>
        <time>2011-08-11T09:19:55Z</time>
      </trkpt>
      <trkpt lat="42.95804" lon="-0.45034">
        <ele>1191.691406</ele>
        <time>2011-08-11T09:20:11Z</time>
      </trkpt>
      <trkpt lat="42.95809" lon="-0.4503">
        <ele>1194.094727</ele>
        <time>2011-08-11T09:20:25Z</time>
      </trkpt>
      <trkpt lat="42.95814" lon="-0.45022">
        <ele>1196.498291</ele>
        <time>2011-08-11T09:20:45Z</time>
      </trkpt>
      <trkpt lat="42.95816" lon="-0.45033">
        <ele>1198.420654</ele>
        <time>2011-08-11T09:21:03Z</time>
      </trkpt>
      <trkpt lat="42.95816" lon="-0.45043">
        <ele>1199.862793</ele>
        <time>2011-08-11T09:21:16Z</time>
      </trkpt>
      <trkpt lat="42.95816" lon="-0.45055">
        <ele>1201.7854</ele>
        <time>2011-08-11T09:21:30Z</time>
      </trkpt>
      <trkpt lat="42.95813" lon="-0.45069">
        <ele>1204.188721</ele>
        <time>2011-08-11T09:21:46Z</time>
      </trkpt>
      <trkpt lat="42.95813" lon="-0.45076">
        <ele>1204.669189</ele>
        <time>2011-08-11T09:22:05Z</time>
      </trkpt>
      <trkpt lat="42.95816" lon="-0.45091">
        <ele>1206.111084</ele>
        <time>2011-08-11T09:22:29Z</time>
      </trkpt>
      <trkpt lat="42.95822" lon="-0.45112">
        <ele>1206.111084</ele>
        <time>2011-08-11T09:22:49Z</time>
      </trkpt>
      <trkpt lat="42.95826" lon="-0.45125">
        <ele>1207.07251</ele>
        <time>2011-08-11T09:23:05Z</time>
      </trkpt>
      <trkpt lat="42.95831" lon="-0.4515">
        <ele>1209.47583</ele>
        <time>2011-08-11T09:23:28Z</time>
      </trkpt>
      <trkpt lat="42.9583" lon="-0.45171">
        <ele>1212.359863</ele>
        <time>2011-08-11T09:23:49Z</time>
      </trkpt>
      <trkpt lat="42.95833" lon="-0.45186">
        <ele>1215.243896</ele>
        <time>2011-08-11T09:24:06Z</time>
      </trkpt>
      <trkpt lat="42.95835" lon="-0.45201">
        <ele>1217.646973</ele>
        <time>2011-08-11T09:24:22Z</time>
      </trkpt>
      <trkpt lat="42.95831" lon="-0.4522">
        <ele>1218.127686</ele>
        <time>2011-08-11T09:24:38Z</time>
      </trkpt>
      <trkpt lat="42.95824" lon="-0.45241">
        <ele>1218.127686</ele>
        <time>2011-08-11T09:24:56Z</time>
      </trkpt>
      <trkpt lat="42.95817" lon="-0.45252">
        <ele>1217.166504</ele>
        <time>2011-08-11T09:25:09Z</time>
      </trkpt>
      <trkpt lat="42.958" lon="-0.4527">
        <ele>1219.089111</ele>
        <time>2011-08-11T09:25:31Z</time>
      </trkpt>
      <trkpt lat="42.95784" lon="-0.45282">
        <ele>1221.492188</ele>
        <time>2011-08-11T09:25:51Z</time>
      </trkpt>
      <trkpt lat="42.95773" lon="-0.45288">
        <ele>1223.415039</ele>
        <time>2011-08-11T09:26:06Z</time>
      </trkpt>
      <trkpt lat="42.95762" lon="-0.45301">
        <ele>1223.415039</ele>
        <time>2011-08-11T09:26:25Z</time>
      </trkpt>
      <trkpt lat="42.95761" lon="-0.45302">
        <ele>1223.895508</ele>
        <time>2011-08-11T09:26:28Z</time>
      </trkpt>
      <trkpt lat="42.95746" lon="-0.45318">
        <ele>1222.934326</ele>
        <time>2011-08-11T09:26:49Z</time>
      </trkpt>
      <trkpt lat="42.95735" lon="-0.45326">
        <ele>1222.453613</ele>
        <time>2011-08-11T09:27:13Z</time>
      </trkpt>
      <trkpt lat="42.95721" lon="-0.45341">
        <ele>1221.492188</ele>
        <time>2011-08-11T09:27:32Z</time>
      </trkpt>
      <trkpt lat="42.95712" lon="-0.45355">
        <ele>1221.9729</ele>
        <time>2011-08-11T09:27:47Z</time>
      </trkpt>
      <trkpt lat="42.95705" lon="-0.45373">
        <ele>1221.492188</ele>
        <time>2011-08-11T09:28:02Z</time>
      </trkpt>
      <trkpt lat="42.95701" lon="-0.45385">
        <ele>1221.492188</ele>
        <time>2011-08-11T09:28:16Z</time>
      </trkpt>
      <trkpt lat="42.95696" lon="-0.45399">
        <ele>1222.453613</ele>
        <time>2011-08-11T09:28:32Z</time>
      </trkpt>
      <trkpt lat="42.95692" lon="-0.45411">
        <ele>1223.895508</ele>
        <time>2011-08-11T09:28:45Z</time>
      </trkpt>
      <trkpt lat="42.9568" lon="-0.45428">
        <ele>1224.856934</ele>
        <time>2011-08-11T09:29:00Z</time>
      </trkpt>
      <trkpt lat="42.95668" lon="-0.45441">
        <ele>1224.376221</ele>
        <time>2011-08-11T09:29:15Z</time>
      </trkpt>
      <trkpt lat="42.95655" lon="-0.45457">
        <ele>1224.856934</ele>
        <time>2011-08-11T09:29:33Z</time>
      </trkpt>
      <trkpt lat="42.95643" lon="-0.45471">
        <ele>1226.298828</ele>
        <time>2011-08-11T09:29:50Z</time>
      </trkpt>
      <trkpt lat="42.95633" lon="-0.45488">
        <ele>1226.779541</ele>
        <time>2011-08-11T09:30:06Z</time>
      </trkpt>
      <trkpt lat="42.95625" lon="-0.45506">
        <ele>1227.260254</ele>
        <time>2011-08-11T09:30:23Z</time>
      </trkpt>
      <trkpt lat="42.95613" lon="-0.45528">
        <ele>1227.740723</ele>
        <time>2011-08-11T09:30:41Z</time>
      </trkpt>
      <trkpt lat="42.95611" lon="-0.45546">
        <ele>1229.182861</ele>
        <time>2011-08-11T09:30:57Z</time>
      </trkpt>
      <trkpt lat="42.95607" lon="-0.45559">
        <ele>1231.105713</ele>
        <time>2011-08-11T09:31:09Z</time>
      </trkpt>
      <trkpt lat="42.95607" lon="-0.45568">
        <ele>1230.625</ele>
        <time>2011-08-11T09:31:26Z</time>
      </trkpt>
      <trkpt lat="42.95607" lon="-0.45565">
        <ele>1230.144287</ele>
        <time>2011-08-11T09:32:04Z</time>
      </trkpt>
      <trkpt lat="42.95608" lon="-0.4557">
        <ele>1231.586182</ele>
        <time>2011-08-11T09:33:20Z</time>
      </trkpt>
      <trkpt lat="42.95607" lon="-0.45572">
        <ele>1231.105713</ele>
        <time>2011-08-11T09:33:21Z</time>
      </trkpt>
      <trkpt lat="42.95599" lon="-0.45584">
        <ele>1231.105713</ele>
        <time>2011-08-11T09:33:31Z</time>
      </trkpt>
      <trkpt lat="42.95597" lon="-0.45587">
        <ele>1231.105713</ele>
        <time>2011-08-11T09:33:34Z</time>
      </trkpt>
      <trkpt lat="42.9558" lon="-0.45604">
        <ele>1231.105713</ele>
        <time>2011-08-11T09:33:52Z</time>
      </trkpt>
      <trkpt lat="42.95577" lon="-0.45616">
        <ele>1234.470215</ele>
        <time>2011-08-11T09:34:05Z</time>
      </trkpt>
      <trkpt lat="42.95575" lon="-0.45626">
        <ele>1237.834717</ele>
        <time>2011-08-11T09:34:16Z</time>
      </trkpt>
      <trkpt lat="42.95572" lon="-0.45639">
        <ele>1240.238037</ele>
        <time>2011-08-11T09:34:28Z</time>
      </trkpt>
      <trkpt lat="42.95572" lon="-0.45648">
        <ele>1242.160645</ele>
        <time>2011-08-11T09:34:39Z</time>
      </trkpt>
      <trkpt lat="42.95565" lon="-0.45664">
        <ele>1244.083496</ele>
        <time>2011-08-11T09:34:55Z</time>
      </trkpt>
      <trkpt lat="42.95563" lon="-0.45674">
        <ele>1246.006104</ele>
        <time>2011-08-11T09:35:06Z</time>
      </trkpt>
      <trkpt lat="42.95557" lon="-0.4569">
        <ele>1247.447998</ele>
        <time>2011-08-11T09:35:18Z</time>
      </trkpt>
      <trkpt lat="42.95559" lon="-0.45704">
        <ele>1250.8125</ele>
        <time>2011-08-11T09:35:32Z</time>
      </trkpt>
      <trkpt lat="42.95563" lon="-0.45712">
        <ele>1252.254395</ele>
        <time>2011-08-11T09:35:47Z</time>
      </trkpt>
      <trkpt lat="42.95564" lon="-0.4572">
        <ele>1254.177246</ele>
        <time>2011-08-11T09:35:58Z</time>
      </trkpt>
      <trkpt lat="42.95562" lon="-0.45731">
        <ele>1257.061035</ele>
        <time>2011-08-11T09:36:13Z</time>
      </trkpt>
      <trkpt lat="42.95568" lon="-0.45747">
        <ele>1258.50293</ele>
        <time>2011-08-11T09:36:34Z</time>
      </trkpt>
      <trkpt lat="42.95561" lon="-0.45756">
        <ele>1260.425781</ele>
        <time>2011-08-11T09:36:48Z</time>
      </trkpt>
      <trkpt lat="42.95558" lon="-0.45759">
        <ele>1263.790283</ele>
        <time>2011-08-11T09:37:08Z</time>
      </trkpt>
      <trkpt lat="42.95548" lon="-0.45768">
        <ele>1264.751709</ele>
        <time>2011-08-11T09:37:21Z</time>
      </trkpt>
      <trkpt lat="42.95541" lon="-0.45776">
        <ele>1267.155029</ele>
        <time>2011-08-11T09:37:30Z</time>
      </trkpt>
      <trkpt lat="42.95537" lon="-0.45787">
        <ele>1267.635498</ele>
        <time>2011-08-11T09:37:42Z</time>
      </trkpt>
      <trkpt lat="42.95537" lon="-0.4579">
        <ele>1269.077637</ele>
        <time>2011-08-11T09:37:45Z</time>
      </trkpt>
      <trkpt lat="42.95539" lon="-0.45802">
        <ele>1270.519531</ele>
        <time>2011-08-11T09:37:57Z</time>
      </trkpt>
      <trkpt lat="42.9554" lon="-0.45812">
        <ele>1271.961426</ele>
        <time>2011-08-11T09:38:11Z</time>
      </trkpt>
      <trkpt lat="42.95535" lon="-0.45828">
        <ele>1274.845459</ele>
        <time>2011-08-11T09:38:30Z</time>
      </trkpt>
      <trkpt lat="42.95535" lon="-0.45853">
        <ele>1277.729492</ele>
        <time>2011-08-11T09:38:51Z</time>
      </trkpt>
      <trkpt lat="42.95534" lon="-0.4587">
        <ele>1279.6521</ele>
        <time>2011-08-11T09:39:07Z</time>
      </trkpt>
      <trkpt lat="42.95533" lon="-0.45878">
        <ele>1283.016602</ele>
        <time>2011-08-11T09:39:27Z</time>
      </trkpt>
      <trkpt lat="42.95534" lon="-0.459">
        <ele>1285.900635</ele>
        <time>2011-08-11T09:39:48Z</time>
      </trkpt>
      <trkpt lat="42.95533" lon="-0.45911">
        <ele>1289.265137</ele>
        <time>2011-08-11T09:40:06Z</time>
      </trkpt>
      <trkpt lat="42.9553" lon="-0.45934">
        <ele>1292.149414</ele>
        <time>2011-08-11T09:40:27Z</time>
      </trkpt>
      <trkpt lat="42.9553" lon="-0.4594">
        <ele>1295.513916</ele>
        <time>2011-08-11T09:40:45Z</time>
      </trkpt>
      <trkpt lat="42.9553" lon="-0.4594">
        <ele>1295.513916</ele>
        <time>2011-08-11T09:40:46Z</time>
      </trkpt>
      <trkpt lat="42.95529" lon="-0.45947">
        <ele>1298.878418</ele>
        <time>2011-08-11T09:41:01Z</time>
      </trkpt>
      <trkpt lat="42.95532" lon="-0.45939">
        <ele>1299.839844</ele>
        <time>2011-08-11T09:41:15Z</time>
      </trkpt>
      <trkpt lat="42.95538" lon="-0.45936">
        <ele>1302.24292</ele>
        <time>2011-08-11T09:41:30Z</time>
      </trkpt>
      <trkpt lat="42.95542" lon="-0.45954">
        <ele>1305.607666</ele>
        <time>2011-08-11T09:41:44Z</time>
      </trkpt>
      <trkpt lat="42.95543" lon="-0.45959">
        <ele>1306.088135</ele>
        <time>2011-08-11T09:41:55Z</time>
      </trkpt>
      <trkpt lat="42.9554" lon="-0.45969">
        <ele>1309.453125</ele>
        <time>2011-08-11T09:42:12Z</time>
      </trkpt>
      <trkpt lat="42.95537" lon="-0.45981">
        <ele>1311.375732</ele>
        <time>2011-08-11T09:42:29Z</time>
      </trkpt>
      <trkpt lat="42.95542" lon="-0.45964">
        <ele>1314.259521</ele>
        <time>2011-08-11T09:42:47Z</time>
      </trkpt>
      <trkpt lat="42.95543" lon="-0.45961">
        <ele>1315.70166</ele>
        <time>2011-08-11T09:42:59Z</time>
      </trkpt>
      <trkpt lat="42.95551" lon="-0.45974">
        <ele>1319.066162</ele>
        <time>2011-08-11T09:43:11Z</time>
      </trkpt>
      <trkpt lat="42.95556" lon="-0.45991">
        <ele>1320.508057</ele>
        <time>2011-08-11T09:43:22Z</time>
      </trkpt>
      <trkpt lat="42.9555" lon="-0.45995">
        <ele>1322.911377</ele>
        <time>2011-08-11T09:43:38Z</time>
      </trkpt>
      <trkpt lat="42.95551" lon="-0.46">
        <ele>1326.276123</ele>
        <time>2011-08-11T09:43:59Z</time>
      </trkpt>
      <trkpt lat="42.95556" lon="-0.45995">
        <ele>1329.640625</ele>
        <time>2011-08-11T09:44:20Z</time>
      </trkpt>
      <trkpt lat="42.9556" lon="-0.45999">
        <ele>1333.005127</ele>
        <time>2011-08-11T09:44:33Z</time>
      </trkpt>
      <trkpt lat="42.95567" lon="-0.46">
        <ele>1334.447266</ele>
        <time>2011-08-11T09:44:51Z</time>
      </trkpt>
      <trkpt lat="42.95574" lon="-0.46019">
        <ele>1337.811768</ele>
        <time>2011-08-11T09:45:14Z</time>
      </trkpt>
      <trkpt lat="42.95575" lon="-0.46017">
        <ele>1339.734375</ele>
        <time>2011-08-11T09:45:20Z</time>
      </trkpt>
      <trkpt lat="42.95575" lon="-0.46031">
        <ele>1341.657227</ele>
        <time>2011-08-11T09:45:40Z</time>
      </trkpt>
      <trkpt lat="42.95573" lon="-0.46034">
        <ele>1344.541016</ele>
        <time>2011-08-11T09:45:52Z</time>
      </trkpt>
      <trkpt lat="42.95576" lon="-0.46046">
        <ele>1346.944336</ele>
        <time>2011-08-11T09:46:04Z</time>
      </trkpt>
      <trkpt lat="42.95575" lon="-0.46034">
        <ele>1348.38623</ele>
        <time>2011-08-11T09:46:21Z</time>
      </trkpt>
      <trkpt lat="42.95578" lon="-0.4603">
        <ele>1351.270264</ele>
        <time>2011-08-11T09:46:32Z</time>
      </trkpt>
      <trkpt lat="42.95578" lon="-0.46029">
        <ele>1351.270264</ele>
        <time>2011-08-11T09:46:33Z</time>
      </trkpt>
      <trkpt lat="42.95584" lon="-0.46023">
        <ele>1353.192871</ele>
        <time>2011-08-11T09:46:51Z</time>
      </trkpt>
      <trkpt lat="42.95587" lon="-0.46024">
        <ele>1355.596191</ele>
        <time>2011-08-11T09:47:00Z</time>
      </trkpt>
      <trkpt lat="42.95593" lon="-0.46041">
        <ele>1357.03833</ele>
        <time>2011-08-11T09:47:13Z</time>
      </trkpt>
      <trkpt lat="42.95596" lon="-0.46041">
        <ele>1360.402832</ele>
        <time>2011-08-11T09:47:22Z</time>
      </trkpt>
      <trkpt lat="42.95594" lon="-0.46053">
        <ele>1360.402832</ele>
        <time>2011-08-11T09:47:35Z</time>
      </trkpt>
      <trkpt lat="42.95591" lon="-0.46067">
        <ele>1362.806152</ele>
        <time>2011-08-11T09:47:59Z</time>
      </trkpt>
      <trkpt lat="42.95598" lon="-0.4607">
        <ele>1365.690186</ele>
        <time>2011-08-11T09:48:14Z</time>
      </trkpt>
      <trkpt lat="42.95597" lon="-0.46072">
        <ele>1369.054688</ele>
        <time>2011-08-11T09:48:35Z</time>
      </trkpt>
      <trkpt lat="42.956" lon="-0.46061">
        <ele>1370.977295</ele>
        <time>2011-08-11T09:48:50Z</time>
      </trkpt>
      <trkpt lat="42.95597" lon="-0.46066">
        <ele>1374.342041</ele>
        <time>2011-08-11T09:49:11Z</time>
      </trkpt>
      <trkpt lat="42.95605" lon="-0.46081">
        <ele>1377.226074</ele>
        <time>2011-08-11T09:49:31Z</time>
      </trkpt>
      <trkpt lat="42.95607" lon="-0.4608">
        <ele>1380.590576</ele>
        <time>2011-08-11T09:49:42Z</time>
      </trkpt>
      <trkpt lat="42.9561" lon="-0.46089">
        <ele>1383.474365</ele>
        <time>2011-08-11T09:50:00Z</time>
      </trkpt>
      <trkpt lat="42.95614" lon="-0.46082">
        <ele>1385.396973</ele>
        <time>2011-08-11T09:50:10Z</time>
      </trkpt>
      <trkpt lat="42.95617" lon="-0.46101">
        <ele>1388.28125</ele>
        <time>2011-08-11T09:50:24Z</time>
      </trkpt>
      <trkpt lat="42.95615" lon="-0.4613">
        <ele>1390.203857</ele>
        <time>2011-08-11T09:50:53Z</time>
      </trkpt>
      <trkpt lat="42.95616" lon="-0.46129">
        <ele>1393.568359</ele>
        <time>2011-08-11T09:51:05Z</time>
      </trkpt>
      <trkpt lat="42.95609" lon="-0.46137">
        <ele>1396.932861</ele>
        <time>2011-08-11T09:51:19Z</time>
      </trkpt>
      <trkpt lat="42.95607" lon="-0.4615">
        <ele>1399.336182</ele>
        <time>2011-08-11T09:51:32Z</time>
      </trkpt>
      <trkpt lat="42.9561" lon="-0.46167">
        <ele>1402.219971</ele>
        <time>2011-08-11T09:51:48Z</time>
      </trkpt>
      <trkpt lat="42.95615" lon="-0.46168">
        <ele>1403.662109</ele>
        <time>2011-08-11T09:52:06Z</time>
      </trkpt>
      <trkpt lat="42.95622" lon="-0.46146">
        <ele>1406.546143</ele>
        <time>2011-08-11T09:52:21Z</time>
      </trkpt>
      <trkpt lat="42.95629" lon="-0.46158">
        <ele>1409.910645</ele>
        <time>2011-08-11T09:52:37Z</time>
      </trkpt>
      <trkpt lat="42.95629" lon="-0.46172">
        <ele>1413.755859</ele>
        <time>2011-08-11T09:52:51Z</time>
      </trkpt>
      <trkpt lat="42.95635" lon="-0.46157">
        <ele>1416.639893</ele>
        <time>2011-08-11T09:53:08Z</time>
      </trkpt>
      <trkpt lat="42.9564" lon="-0.46157">
        <ele>1418.5625</ele>
        <time>2011-08-11T09:53:17Z</time>
      </trkpt>
      <trkpt lat="42.9565" lon="-0.46148">
        <ele>1421.446533</ele>
        <time>2011-08-11T09:53:36Z</time>
      </trkpt>
      <trkpt lat="42.95657" lon="-0.46158">
        <ele>1424.330566</ele>
        <time>2011-08-11T09:53:48Z</time>
      </trkpt>
      <trkpt lat="42.95661" lon="-0.46167">
        <ele>1427.695068</ele>
        <time>2011-08-11T09:54:00Z</time>
      </trkpt>
      <trkpt lat="42.95665" lon="-0.46173">
        <ele>1431.059814</ele>
        <time>2011-08-11T09:54:21Z</time>
      </trkpt>
      <trkpt lat="42.95657" lon="-0.46194">
        <ele>1432.982178</ele>
        <time>2011-08-11T09:54:37Z</time>
      </trkpt>
      <trkpt lat="42.95664" lon="-0.46211">
        <ele>1435.866211</ele>
        <time>2011-08-11T09:54:50Z</time>
      </trkpt>
      <trkpt lat="42.95673" lon="-0.46231">
        <ele>1437.789062</ele>
        <time>2011-08-11T09:55:05Z</time>
      </trkpt>
      <trkpt lat="42.95682" lon="-0.46239">
        <ele>1441.153564</ele>
        <time>2011-08-11T09:55:25Z</time>
      </trkpt>
      <trkpt lat="42.95684" lon="-0.46255">
        <ele>1444.037598</ele>
        <time>2011-08-11T09:55:38Z</time>
      </trkpt>
      <trkpt lat="42.95686" lon="-0.4626">
        <ele>1446.921387</ele>
        <time>2011-08-11T09:55:51Z</time>
      </trkpt>
      <trkpt lat="42.95697" lon="-0.46269">
        <ele>1450.286133</ele>
        <time>2011-08-11T09:56:12Z</time>
      </trkpt>
      <trkpt lat="42.95703" lon="-0.46281">
        <ele>1453.650879</ele>
        <time>2011-08-11T09:56:28Z</time>
      </trkpt>
      <trkpt lat="42.95709" lon="-0.46288">
        <ele>1456.534668</ele>
        <time>2011-08-11T09:56:41Z</time>
      </trkpt>
      <trkpt lat="42.95717" lon="-0.46301">
        <ele>1459.89917</ele>
        <time>2011-08-11T09:56:55Z</time>
      </trkpt>
      <trkpt lat="42.95726" lon="-0.46309">
        <ele>1461.822021</ele>
        <time>2011-08-11T09:57:10Z</time>
      </trkpt>
      <trkpt lat="42.95732" lon="-0.46326">
        <ele>1464.225098</ele>
        <time>2011-08-11T09:57:22Z</time>
      </trkpt>
      <trkpt lat="42.95737" lon="-0.46344">
        <ele>1465.667236</ele>
        <time>2011-08-11T09:57:33Z</time>
      </trkpt>
      <trkpt lat="42.95746" lon="-0.46354">
        <ele>1467.5896</ele>
        <time>2011-08-11T09:57:44Z</time>
      </trkpt>
      <trkpt lat="42.95752" lon="-0.46368">
        <ele>1468.55127</ele>
        <time>2011-08-11T09:57:55Z</time>
      </trkpt>
      <trkpt lat="42.95758" lon="-0.46382">
        <ele>1468.070557</ele>
        <time>2011-08-11T09:58:07Z</time>
      </trkpt>
      <trkpt lat="42.95766" lon="-0.46391">
        <ele>1467.5896</ele>
        <time>2011-08-11T09:58:21Z</time>
      </trkpt>
      <trkpt lat="42.95768" lon="-0.46404">
        <ele>1467.109131</ele>
        <time>2011-08-11T09:58:35Z</time>
      </trkpt>
      <trkpt lat="42.95774" lon="-0.46426">
        <ele>1467.109131</ele>
        <time>2011-08-11T09:58:54Z</time>
      </trkpt>
      <trkpt lat="42.95782" lon="-0.46442">
        <ele>1467.5896</ele>
        <time>2011-08-11T09:59:09Z</time>
      </trkpt>
      <trkpt lat="42.95794" lon="-0.46456">
        <ele>1468.55127</ele>
        <time>2011-08-11T09:59:30Z</time>
      </trkpt>
      <trkpt lat="42.95799" lon="-0.46464">
        <ele>1469.993164</ele>
        <time>2011-08-11T09:59:40Z</time>
      </trkpt>
      <trkpt lat="42.95801" lon="-0.46473">
        <ele>1471.915771</ele>
        <time>2011-08-11T09:59:56Z</time>
      </trkpt>
      <trkpt lat="42.95796" lon="-0.4646">
        <ele>1471.915771</ele>
        <time>2011-08-11T10:00:20Z</time>
      </trkpt>
      <trkpt lat="42.95799" lon="-0.46497">
        <ele>1473.838379</ele>
        <time>2011-08-11T10:01:44Z</time>
      </trkpt>
      <trkpt lat="42.95805" lon="-0.46485">
        <ele>1476.722412</ele>
        <time>2011-08-11T10:02:46Z</time>
      </trkpt>
      <trkpt lat="42.95809" lon="-0.46487">
        <ele>1480.086914</ele>
        <time>2011-08-11T10:03:08Z</time>
      </trkpt>
      <trkpt lat="42.95817" lon="-0.46494">
        <ele>1479.606201</ele>
        <time>2011-08-11T10:03:21Z</time>
      </trkpt>
      <trkpt lat="42.95829" lon="-0.46505">
        <ele>1480.567627</ele>
        <time>2011-08-11T10:03:33Z</time>
      </trkpt>
      <trkpt lat="42.95835" lon="-0.46513">
        <ele>1482.009521</ele>
        <time>2011-08-11T10:03:46Z</time>
      </trkpt>
      <trkpt lat="42.95835" lon="-0.46514">
        <ele>1481.528809</ele>
        <time>2011-08-11T10:03:47Z</time>
      </trkpt>
      <trkpt lat="42.95843" lon="-0.46523">
        <ele>1482.490234</ele>
        <time>2011-08-11T10:04:02Z</time>
      </trkpt>
      <trkpt lat="42.95851" lon="-0.46538">
        <ele>1480.086914</ele>
        <time>2011-08-11T10:04:15Z</time>
      </trkpt>
      <trkpt lat="42.9586" lon="-0.46553">
        <ele>1478.164307</ele>
        <time>2011-08-11T10:04:28Z</time>
      </trkpt>
      <trkpt lat="42.9586" lon="-0.4657">
        <ele>1478.164307</ele>
        <time>2011-08-11T10:04:42Z</time>
      </trkpt>
      <trkpt lat="42.95864" lon="-0.46586">
        <ele>1477.683594</ele>
        <time>2011-08-11T10:04:56Z</time>
      </trkpt>
      <trkpt lat="42.95866" lon="-0.466">
        <ele>1476.241699</ele>
        <time>2011-08-11T10:05:09Z</time>
      </trkpt>
      <trkpt lat="42.95866" lon="-0.46617">
        <ele>1473.35791</ele>
        <time>2011-08-11T10:05:22Z</time>
      </trkpt>
      <trkpt lat="42.95865" lon="-0.46645">
        <ele>1472.877197</ele>
        <time>2011-08-11T10:05:39Z</time>
      </trkpt>
      <trkpt lat="42.95864" lon="-0.46663">
        <ele>1473.35791</ele>
        <time>2011-08-11T10:05:52Z</time>
      </trkpt>
      <trkpt lat="42.95863" lon="-0.46684">
        <ele>1472.877197</ele>
        <time>2011-08-11T10:06:06Z</time>
      </trkpt>
      <trkpt lat="42.95865" lon="-0.46703">
        <ele>1472.877197</ele>
        <time>2011-08-11T10:06:21Z</time>
      </trkpt>
      <trkpt lat="42.95861" lon="-0.46717">
        <ele>1472.396484</ele>
        <time>2011-08-11T10:06:34Z</time>
      </trkpt>
      <trkpt lat="42.95859" lon="-0.46735">
        <ele>1473.35791</ele>
        <time>2011-08-11T10:06:49Z</time>
      </trkpt>
      <trkpt lat="42.95859" lon="-0.46755">
        <ele>1472.877197</ele>
        <time>2011-08-11T10:07:03Z</time>
      </trkpt>
      <trkpt lat="42.95857" lon="-0.46773">
        <ele>1472.396484</ele>
        <time>2011-08-11T10:07:15Z</time>
      </trkpt>
      <trkpt lat="42.95851" lon="-0.46791">
        <ele>1472.396484</ele>
        <time>2011-08-11T10:07:32Z</time>
      </trkpt>
      <trkpt lat="42.95851" lon="-0.46808">
        <ele>1471.435059</ele>
        <time>2011-08-11T10:07:45Z</time>
      </trkpt>
      <trkpt lat="42.95847" lon="-0.46825">
        <ele>1470.95459</ele>
        <time>2011-08-11T10:08:01Z</time>
      </trkpt>
      <trkpt lat="42.95847" lon="-0.4684">
        <ele>1471.435059</ele>
        <time>2011-08-11T10:08:16Z</time>
      </trkpt>
      <trkpt lat="42.95841" lon="-0.46861">
        <ele>1471.915771</ele>
        <time>2011-08-11T10:08:31Z</time>
      </trkpt>
      <trkpt lat="42.95837" lon="-0.46876">
        <ele>1471.915771</ele>
        <time>2011-08-11T10:08:43Z</time>
      </trkpt>
      <trkpt lat="42.95835" lon="-0.46896">
        <ele>1470.95459</ele>
        <time>2011-08-11T10:09:01Z</time>
      </trkpt>
      <trkpt lat="42.95835" lon="-0.46916">
        <ele>1469.512695</ele>
        <time>2011-08-11T10:09:17Z</time>
      </trkpt>
      <trkpt lat="42.95829" lon="-0.46929">
        <ele>1468.55127</ele>
        <time>2011-08-11T10:09:31Z</time>
      </trkpt>
      <trkpt lat="42.95824" lon="-0.46947">
        <ele>1468.070557</ele>
        <time>2011-08-11T10:09:45Z</time>
      </trkpt>
      <trkpt lat="42.95824" lon="-0.46964">
        <ele>1466.628418</ele>
        <time>2011-08-11T10:10:01Z</time>
      </trkpt>
      <trkpt lat="42.95821" lon="-0.46982">
        <ele>1465.667236</ele>
        <time>2011-08-11T10:10:17Z</time>
      </trkpt>
      <trkpt lat="42.95824" lon="-0.46994">
        <ele>1464.705811</ele>
        <time>2011-08-11T10:10:33Z</time>
      </trkpt>
      <trkpt lat="42.95825" lon="-0.47008">
        <ele>1464.225098</ele>
        <time>2011-08-11T10:10:48Z</time>
      </trkpt>
      <trkpt lat="42.95828" lon="-0.47024">
        <ele>1462.783203</ele>
        <time>2011-08-11T10:11:04Z</time>
      </trkpt>
      <trkpt lat="42.95829" lon="-0.47033">
        <ele>1461.341309</ele>
        <time>2011-08-11T10:11:20Z</time>
      </trkpt>
      <trkpt lat="42.95824" lon="-0.47043">
        <ele>1461.822021</ele>
        <time>2011-08-11T10:11:34Z</time>
      </trkpt>
      <trkpt lat="42.95821" lon="-0.47054">
        <ele>1462.30249</ele>
        <time>2011-08-11T10:11:45Z</time>
      </trkpt>
      <trkpt lat="42.95827" lon="-0.47068">
        <ele>1462.30249</ele>
        <time>2011-08-11T10:11:59Z</time>
      </trkpt>
      <trkpt lat="42.95824" lon="-0.47082">
        <ele>1461.341309</ele>
        <time>2011-08-11T10:12:15Z</time>
      </trkpt>
      <trkpt lat="42.95822" lon="-0.47111">
        <ele>1458.937988</ele>
        <time>2011-08-11T10:12:34Z</time>
      </trkpt>
      <trkpt lat="42.95827" lon="-0.47137">
        <ele>1458.457275</ele>
        <time>2011-08-11T10:12:55Z</time>
      </trkpt>
      <trkpt lat="42.95826" lon="-0.47142">
        <ele>1457.976807</ele>
        <time>2011-08-11T10:13:10Z</time>
      </trkpt>
      <trkpt lat="42.95825" lon="-0.4714">
        <ele>1458.457275</ele>
        <time>2011-08-11T10:13:28Z</time>
      </trkpt>
      <trkpt lat="42.95821" lon="-0.47139">
        <ele>1458.457275</ele>
        <time>2011-08-11T10:13:53Z</time>
      </trkpt>
      <trkpt lat="42.95823" lon="-0.4715">
        <ele>1458.937988</ele>
        <time>2011-08-11T10:14:06Z</time>
      </trkpt>
      <trkpt lat="42.95834" lon="-0.47182">
        <ele>1458.457275</ele>
        <time>2011-08-11T10:14:25Z</time>
      </trkpt>
      <trkpt lat="42.95838" lon="-0.47194">
        <ele>1457.976807</ele>
        <time>2011-08-11T10:14:39Z</time>
      </trkpt>
      <trkpt lat="42.95839" lon="-0.47206">
        <ele>1457.976807</ele>
        <time>2011-08-11T10:14:52Z</time>
      </trkpt>
      <trkpt lat="42.95846" lon="-0.47224">
        <ele>1457.496094</ele>
        <time>2011-08-11T10:15:07Z</time>
      </trkpt>
      <trkpt lat="42.95849" lon="-0.47236">
        <ele>1458.937988</ele>
        <time>2011-08-11T10:15:20Z</time>
      </trkpt>
      <trkpt lat="42.95849" lon="-0.47249">
        <ele>1457.976807</ele>
        <time>2011-08-11T10:15:33Z</time>
      </trkpt>
      <trkpt lat="42.95848" lon="-0.47265">
        <ele>1457.496094</ele>
        <time>2011-08-11T10:15:43Z</time>
      </trkpt>
      <trkpt lat="42.95849" lon="-0.4728">
        <ele>1457.976807</ele>
        <time>2011-08-11T10:15:52Z</time>
      </trkpt>
      <trkpt lat="42.95849" lon="-0.47298">
        <ele>1457.015381</ele>
        <time>2011-08-11T10:16:01Z</time>
      </trkpt>
      <trkpt lat="42.95852" lon="-0.47318">
        <ele>1456.534668</ele>
        <time>2011-08-11T10:16:18Z</time>
      </trkpt>
      <trkpt lat="42.95854" lon="-0.47328">
        <ele>1457.976807</ele>
        <time>2011-08-11T10:16:32Z</time>
      </trkpt>
      <trkpt lat="42.95851" lon="-0.4734">
        <ele>1460.860596</ele>
        <time>2011-08-11T10:16:46Z</time>
      </trkpt>
      <trkpt lat="42.9585" lon="-0.47358">
        <ele>1461.822021</ele>
        <time>2011-08-11T10:17:02Z</time>
      </trkpt>
      <trkpt lat="42.95844" lon="-0.47373">
        <ele>1462.30249</ele>
        <time>2011-08-11T10:17:17Z</time>
      </trkpt>
      <trkpt lat="42.95845" lon="-0.4739">
        <ele>1461.341309</ele>
        <time>2011-08-11T10:17:32Z</time>
      </trkpt>
      <trkpt lat="42.95845" lon="-0.47406">
        <ele>1462.30249</ele>
        <time>2011-08-11T10:17:40Z</time>
      </trkpt>
      <trkpt lat="42.95844" lon="-0.47424">
        <ele>1462.783203</ele>
        <time>2011-08-11T10:17:56Z</time>
      </trkpt>
      <trkpt lat="42.95851" lon="-0.47436">
        <ele>1465.186523</ele>
        <time>2011-08-11T10:18:11Z</time>
      </trkpt>
      <trkpt lat="42.95845" lon="-0.47449">
        <ele>1466.628418</ele>
        <time>2011-08-11T10:18:25Z</time>
      </trkpt>
      <trkpt lat="42.95849" lon="-0.47456">
        <ele>1465.667236</ele>
        <time>2011-08-11T10:18:40Z</time>
      </trkpt>
      <trkpt lat="42.95861" lon="-0.47463">
        <ele>1466.147705</ele>
        <time>2011-08-11T10:18:56Z</time>
      </trkpt>
      <trkpt lat="42.95865" lon="-0.47473">
        <ele>1468.55127</ele>
        <time>2011-08-11T10:19:10Z</time>
      </trkpt>
      <trkpt lat="42.95865" lon="-0.47488">
        <ele>1469.993164</ele>
        <time>2011-08-11T10:19:25Z</time>
      </trkpt>
      <trkpt lat="42.95861" lon="-0.47495">
        <ele>1469.993164</ele>
        <time>2011-08-11T10:19:39Z</time>
      </trkpt>
      <trkpt lat="42.95859" lon="-0.4751">
        <ele>1472.396484</ele>
        <time>2011-08-11T10:19:51Z</time>
      </trkpt>
      <trkpt lat="42.95857" lon="-0.47524">
        <ele>1475.760986</ele>
        <time>2011-08-11T10:20:04Z</time>
      </trkpt>
      <trkpt lat="42.95857" lon="-0.47539">
        <ele>1477.203125</ele>
        <time>2011-08-11T10:20:19Z</time>
      </trkpt>
      <trkpt lat="42.9587" lon="-0.47559">
        <ele>1476.241699</ele>
        <time>2011-08-11T10:20:37Z</time>
      </trkpt>
      <trkpt lat="42.95879" lon="-0.47566">
        <ele>1475.280273</ele>
        <time>2011-08-11T10:20:54Z</time>
      </trkpt>
      <trkpt lat="42.95881" lon="-0.47574">
        <ele>1477.683594</ele>
        <time>2011-08-11T10:21:10Z</time>
      </trkpt>
      <trkpt lat="42.95887" lon="-0.47591">
        <ele>1479.125488</ele>
        <time>2011-08-11T10:21:28Z</time>
      </trkpt>
      <trkpt lat="42.95891" lon="-0.47608">
        <ele>1482.490234</ele>
        <time>2011-08-11T10:21:43Z</time>
      </trkpt>
      <trkpt lat="42.95894" lon="-0.4763">
        <ele>1485.85498</ele>
        <time>2011-08-11T10:22:03Z</time>
      </trkpt>
      <trkpt lat="42.95898" lon="-0.47654">
        <ele>1488.258301</ele>
        <time>2011-08-11T10:22:24Z</time>
      </trkpt>
      <trkpt lat="42.95896" lon="-0.47669">
        <ele>1491.622803</ele>
        <time>2011-08-11T10:22:40Z</time>
      </trkpt>
      <trkpt lat="42.95897" lon="-0.47684">
        <ele>1493.064697</ele>
        <time>2011-08-11T10:22:58Z</time>
      </trkpt>
      <trkpt lat="42.95897" lon="-0.47695">
        <ele>1496.429443</ele>
        <time>2011-08-11T10:23:12Z</time>
      </trkpt>
      <trkpt lat="42.95898" lon="-0.47709">
        <ele>1499.793945</ele>
        <time>2011-08-11T10:23:30Z</time>
      </trkpt>
      <trkpt lat="42.95898" lon="-0.47728">
        <ele>1502.677979</ele>
        <time>2011-08-11T10:23:50Z</time>
      </trkpt>
      <trkpt lat="42.95898" lon="-0.47736">
        <ele>1505.081299</ele>
        <time>2011-08-11T10:23:59Z</time>
      </trkpt>
      <trkpt lat="42.95901" lon="-0.47754">
        <ele>1505.562012</ele>
        <time>2011-08-11T10:24:17Z</time>
      </trkpt>
      <trkpt lat="42.95902" lon="-0.47756">
        <ele>1506.523193</ele>
        <time>2011-08-11T10:24:19Z</time>
      </trkpt>
      <trkpt lat="42.95906" lon="-0.47768">
        <ele>1509.887695</ele>
        <time>2011-08-11T10:24:30Z</time>
      </trkpt>
      <trkpt lat="42.95907" lon="-0.47784">
        <ele>1510.849121</ele>
        <time>2011-08-11T10:24:47Z</time>
      </trkpt>
      <trkpt lat="42.95908" lon="-0.47797">
        <ele>1510.368408</ele>
        <time>2011-08-11T10:25:03Z</time>
      </trkpt>
      <trkpt lat="42.95907" lon="-0.47814">
        <ele>1513.252441</ele>
        <time>2011-08-11T10:25:19Z</time>
      </trkpt>
      <trkpt lat="42.95908" lon="-0.47828">
        <ele>1514.694336</ele>
        <time>2011-08-11T10:25:34Z</time>
      </trkpt>
      <trkpt lat="42.95914" lon="-0.47846">
        <ele>1514.694336</ele>
        <time>2011-08-11T10:25:51Z</time>
      </trkpt>
      <trkpt lat="42.95919" lon="-0.47854">
        <ele>1516.617188</ele>
        <time>2011-08-11T10:26:04Z</time>
      </trkpt>
      <trkpt lat="42.95924" lon="-0.47871">
        <ele>1518.539795</ele>
        <time>2011-08-11T10:26:22Z</time>
      </trkpt>
      <trkpt lat="42.95932" lon="-0.47886">
        <ele>1519.020508</ele>
        <time>2011-08-11T10:26:38Z</time>
      </trkpt>
      <trkpt lat="42.9594" lon="-0.47899">
        <ele>1519.981689</ele>
        <time>2011-08-11T10:26:50Z</time>
      </trkpt>
      <trkpt lat="42.95948" lon="-0.47908">
        <ele>1518.059082</ele>
        <time>2011-08-11T10:27:08Z</time>
      </trkpt>
      <trkpt lat="42.95949" lon="-0.47918">
        <ele>1518.059082</ele>
        <time>2011-08-11T10:27:22Z</time>
      </trkpt>
      <trkpt lat="42.95953" lon="-0.47927">
        <ele>1517.0979</ele>
        <time>2011-08-11T10:27:40Z</time>
      </trkpt>
      <trkpt lat="42.95953" lon="-0.47914">
        <ele>1517.0979</ele>
        <time>2011-08-11T10:27:57Z</time>
      </trkpt>
      <trkpt lat="42.95961" lon="-0.47921">
        <ele>1518.539795</ele>
        <time>2011-08-11T10:28:10Z</time>
      </trkpt>
      <trkpt lat="42.95971" lon="-0.47944">
        <ele>1517.578369</ele>
        <time>2011-08-11T10:28:28Z</time>
      </trkpt>
      <trkpt lat="42.95978" lon="-0.47952">
        <ele>1517.0979</ele>
        <time>2011-08-11T10:28:37Z</time>
      </trkpt>
      <trkpt lat="42.9599" lon="-0.47966">
        <ele>1516.617188</ele>
        <time>2011-08-11T10:28:54Z</time>
      </trkpt>
      <trkpt lat="42.95992" lon="-0.4797">
        <ele>1516.136475</ele>
        <time>2011-08-11T10:29:02Z</time>
      </trkpt>
      <trkpt lat="42.96002" lon="-0.47968">
        <ele>1516.136475</ele>
        <time>2011-08-11T10:29:17Z</time>
      </trkpt>
      <trkpt lat="42.96013" lon="-0.47974">
        <ele>1514.213623</ele>
        <time>2011-08-11T10:29:34Z</time>
      </trkpt>
      <trkpt lat="42.96022" lon="-0.47975">
        <ele>1512.771729</ele>
        <time>2011-08-11T10:29:49Z</time>
      </trkpt>
      <trkpt lat="42.96028" lon="-0.4798">
        <ele>1511.329834</ele>
        <time>2011-08-11T10:30:07Z</time>
      </trkpt>
      <trkpt lat="42.96033" lon="-0.47988">
        <ele>1511.329834</ele>
        <time>2011-08-11T10:30:34Z</time>
      </trkpt>
      <trkpt lat="42.96045" lon="-0.47984">
        <ele>1511.810547</ele>
        <time>2011-08-11T10:30:50Z</time>
      </trkpt>
      <trkpt lat="42.9606" lon="-0.47987">
        <ele>1512.291016</ele>
        <time>2011-08-11T10:31:07Z</time>
      </trkpt>
      <trkpt lat="42.96078" lon="-0.47996">
        <ele>1513.252441</ele>
        <time>2011-08-11T10:31:27Z</time>
      </trkpt>
      <trkpt lat="42.96091" lon="-0.48004">
        <ele>1514.694336</ele>
        <time>2011-08-11T10:31:42Z</time>
      </trkpt>
      <trkpt lat="42.96099" lon="-0.48004">
        <ele>1517.0979</ele>
        <time>2011-08-11T10:31:56Z</time>
      </trkpt>
      <trkpt lat="42.96108" lon="-0.48">
        <ele>1519.501221</ele>
        <time>2011-08-11T10:32:15Z</time>
      </trkpt>
      <trkpt lat="42.96115" lon="-0.48012">
        <ele>1519.981689</ele>
        <time>2011-08-11T10:32:25Z</time>
      </trkpt>
      <trkpt lat="42.96125" lon="-0.48024">
        <ele>1520.462402</ele>
        <time>2011-08-11T10:32:39Z</time>
      </trkpt>
      <trkpt lat="42.96139" lon="-0.48036">
        <ele>1521.423584</ele>
        <time>2011-08-11T10:32:53Z</time>
      </trkpt>
      <trkpt lat="42.9614" lon="-0.48038">
        <ele>1520.462402</ele>
        <time>2011-08-11T10:32:54Z</time>
      </trkpt>
      <trkpt lat="42.9614" lon="-0.48046">
        <ele>1520.462402</ele>
        <time>2011-08-11T10:33:01Z</time>
      </trkpt>
      <trkpt lat="42.9613" lon="-0.48054">
        <ele>1521.904297</ele>
        <time>2011-08-11T10:33:14Z</time>
      </trkpt>
      <trkpt lat="42.96126" lon="-0.48062">
        <ele>1523.346436</ele>
        <time>2011-08-11T10:33:27Z</time>
      </trkpt>
      <trkpt lat="42.96125" lon="-0.48067">
        <ele>1523.826904</ele>
        <time>2011-08-11T10:33:49Z</time>
      </trkpt>
      <trkpt lat="42.96124" lon="-0.48082">
        <ele>1525.268799</ele>
        <time>2011-08-11T10:34:25Z</time>
      </trkpt>
      <trkpt lat="42.96127" lon="-0.48097">
        <ele>1527.19165</ele>
        <time>2011-08-11T10:34:38Z</time>
      </trkpt>
      <trkpt lat="42.96128" lon="-0.48123">
        <ele>1528.152832</ele>
        <time>2011-08-11T10:34:57Z</time>
      </trkpt>
      <trkpt lat="42.96129" lon="-0.48126">
        <ele>1528.633545</ele>
        <time>2011-08-11T10:34:59Z</time>
      </trkpt>
      <trkpt lat="42.9613" lon="-0.48132">
        <ele>1529.594727</ele>
        <time>2011-08-11T10:35:04Z</time>
      </trkpt>
      <trkpt lat="42.96137" lon="-0.48155">
        <ele>1533.440186</ele>
        <time>2011-08-11T10:35:24Z</time>
      </trkpt>
      <trkpt lat="42.96144" lon="-0.48163">
        <ele>1534.882324</ele>
        <time>2011-08-11T10:35:38Z</time>
      </trkpt>
      <trkpt lat="42.96144" lon="-0.48181">
        <ele>1535.843506</ele>
        <time>2011-08-11T10:35:53Z</time>
      </trkpt>
      <trkpt lat="42.96147" lon="-0.48196">
        <ele>1536.324219</ele>
        <time>2011-08-11T10:36:11Z</time>
      </trkpt>
      <trkpt lat="42.96147" lon="-0.48195">
        <ele>1534.401611</ele>
        <time>2011-08-11T10:36:40Z</time>
      </trkpt>
      <trkpt lat="42.96147" lon="-0.48197">
        <ele>1535.843506</ele>
        <time>2011-08-11T10:37:22Z</time>
      </trkpt>
      <trkpt lat="42.96148" lon="-0.48196">
        <ele>1533.920898</ele>
        <time>2011-08-11T10:39:37Z</time>
      </trkpt>
      <trkpt lat="42.96147" lon="-0.48196">
        <ele>1535.843506</ele>
        <time>2011-08-11T10:39:41Z</time>
      </trkpt>
      <trkpt lat="42.9615" lon="-0.48195">
        <ele>1535.843506</ele>
        <time>2011-08-11T10:39:54Z</time>
      </trkpt>
      <trkpt lat="42.96155" lon="-0.48203">
        <ele>1534.882324</ele>
        <time>2011-08-11T10:40:09Z</time>
      </trkpt>
      <trkpt lat="42.9616" lon="-0.48199">
        <ele>1538.727539</ele>
        <time>2011-08-11T10:40:23Z</time>
      </trkpt>
      <trkpt lat="42.96162" lon="-0.48199">
        <ele>1539.208008</ele>
        <time>2011-08-11T10:40:25Z</time>
      </trkpt>
      <trkpt lat="42.96174" lon="-0.48203">
        <ele>1541.130615</ele>
        <time>2011-08-11T10:40:41Z</time>
      </trkpt>
      <trkpt lat="42.96182" lon="-0.482">
        <ele>1544.014648</ele>
        <time>2011-08-11T10:40:50Z</time>
      </trkpt>
      <trkpt lat="42.96189" lon="-0.48197">
        <ele>1545.937256</ele>
        <time>2011-08-11T10:40:59Z</time>
      </trkpt>
      <trkpt lat="42.96191" lon="-0.48196">
        <ele>1545.937256</ele>
        <time>2011-08-11T10:41:01Z</time>
      </trkpt>
      <trkpt lat="42.96202" lon="-0.4819">
        <ele>1547.859863</ele>
        <time>2011-08-11T10:41:16Z</time>
      </trkpt>
      <trkpt lat="42.96209" lon="-0.48186">
        <ele>1551.224609</ele>
        <time>2011-08-11T10:41:27Z</time>
      </trkpt>
      <trkpt lat="42.9621" lon="-0.48185">
        <ele>1551.224609</ele>
        <time>2011-08-11T10:41:28Z</time>
      </trkpt>
      <trkpt lat="42.96213" lon="-0.48183">
        <ele>1552.666504</ele>
        <time>2011-08-11T10:41:33Z</time>
      </trkpt>
      <trkpt lat="42.96222" lon="-0.48178">
        <ele>1555.069824</ele>
        <time>2011-08-11T10:41:44Z</time>
      </trkpt>
      <trkpt lat="42.96231" lon="-0.48168">
        <ele>1558.434326</ele>
        <time>2011-08-11T10:41:58Z</time>
      </trkpt>
      <trkpt lat="42.96235" lon="-0.48136">
        <ele>1558.434326</ele>
        <time>2011-08-11T10:42:19Z</time>
      </trkpt>
      <trkpt lat="42.96239" lon="-0.48105">
        <ele>1559.395752</ele>
        <time>2011-08-11T10:42:38Z</time>
      </trkpt>
      <trkpt lat="42.96241" lon="-0.48067">
        <ele>1560.356934</ele>
        <time>2011-08-11T10:43:01Z</time>
      </trkpt>
      <trkpt lat="42.96242" lon="-0.48044">
        <ele>1558.915039</ele>
        <time>2011-08-11T10:43:15Z</time>
      </trkpt>
      <trkpt lat="42.96244" lon="-0.48031">
        <ele>1562.279541</ele>
        <time>2011-08-11T10:43:25Z</time>
      </trkpt>
      <trkpt lat="42.96249" lon="-0.48012">
        <ele>1562.760254</ele>
        <time>2011-08-11T10:43:38Z</time>
      </trkpt>
      <trkpt lat="42.96246" lon="-0.47994">
        <ele>1564.202393</ele>
        <time>2011-08-11T10:43:50Z</time>
      </trkpt>
      <trkpt lat="42.96246" lon="-0.47986">
        <ele>1564.202393</ele>
        <time>2011-08-11T10:43:55Z</time>
      </trkpt>
      <trkpt lat="42.9625" lon="-0.47979">
        <ele>1564.202393</ele>
        <time>2011-08-11T10:44:02Z</time>
      </trkpt>
      <trkpt lat="42.96256" lon="-0.47969">
        <ele>1563.721436</ele>
        <time>2011-08-11T10:44:12Z</time>
      </trkpt>
      <trkpt lat="42.96256" lon="-0.47967">
        <ele>1563.721436</ele>
        <time>2011-08-11T10:44:14Z</time>
      </trkpt>
      <trkpt lat="42.96257" lon="-0.47964">
        <ele>1564.683105</ele>
        <time>2011-08-11T10:44:16Z</time>
      </trkpt>
      <trkpt lat="42.96261" lon="-0.47956">
        <ele>1565.644531</ele>
        <time>2011-08-11T10:44:22Z</time>
      </trkpt>
      <trkpt lat="42.96263" lon="-0.47944">
        <ele>1568.047607</ele>
        <time>2011-08-11T10:44:35Z</time>
      </trkpt>
      <trkpt lat="42.96265" lon="-0.47935">
        <ele>1569.009033</ele>
        <time>2011-08-11T10:44:47Z</time>
      </trkpt>
      <trkpt lat="42.96264" lon="-0.47932">
        <ele>1568.52832</ele>
        <time>2011-08-11T10:44:50Z</time>
      </trkpt>
      <trkpt lat="42.9626" lon="-0.47911">
        <ele>1570.931641</ele>
        <time>2011-08-11T10:45:10Z</time>
      </trkpt>
      <trkpt lat="42.9626" lon="-0.47892">
        <ele>1572.373535</ele>
        <time>2011-08-11T10:45:28Z</time>
      </trkpt>
      <trkpt lat="42.9626" lon="-0.47873">
        <ele>1574.776855</ele>
        <time>2011-08-11T10:45:47Z</time>
      </trkpt>
      <trkpt lat="42.9626" lon="-0.4787">
        <ele>1574.776855</ele>
        <time>2011-08-11T10:45:50Z</time>
      </trkpt>
      <trkpt lat="42.9626" lon="-0.47845">
        <ele>1577.660645</ele>
        <time>2011-08-11T10:46:10Z</time>
      </trkpt>
      <trkpt lat="42.96267" lon="-0.47834">
        <ele>1580.544922</ele>
        <time>2011-08-11T10:46:24Z</time>
      </trkpt>
      <trkpt lat="42.96265" lon="-0.47822">
        <ele>1580.544922</ele>
        <time>2011-08-11T10:46:41Z</time>
      </trkpt>
      <trkpt lat="42.96261" lon="-0.47826">
        <ele>1580.544922</ele>
        <time>2011-08-11T10:46:57Z</time>
      </trkpt>
      <trkpt lat="42.96257" lon="-0.47827">
        <ele>1580.064209</ele>
        <time>2011-08-11T10:47:55Z</time>
      </trkpt>
      <trkpt lat="42.96252" lon="-0.47825">
        <ele>1581.025635</ele>
        <time>2011-08-11T10:49:58Z</time>
      </trkpt>
      <trkpt lat="42.96261" lon="-0.47824">
        <ele>1581.506104</ele>
        <time>2011-08-11T10:50:41Z</time>
      </trkpt>
      <trkpt lat="42.96261" lon="-0.47824">
        <ele>1581.025635</ele>
        <time>2011-08-11T10:51:05Z</time>
      </trkpt>
      <trkpt lat="42.96264" lon="-0.47825">
        <ele>1581.025635</ele>
        <time>2011-08-11T10:52:13Z</time>
      </trkpt>
      <trkpt lat="42.96262" lon="-0.47824">
        <ele>1581.506104</ele>
        <time>2011-08-11T10:53:08Z</time>
      </trkpt>
      <trkpt lat="42.96253" lon="-0.47825">
        <ele>1581.025635</ele>
        <time>2011-08-11T10:54:45Z</time>
      </trkpt>
      <trkpt lat="42.96251" lon="-0.47826">
        <ele>1583.428711</ele>
        <time>2011-08-11T10:55:52Z</time>
      </trkpt>
      <trkpt lat="42.9626" lon="-0.47826">
        <ele>1586.312744</ele>
        <time>2011-08-11T11:10:01Z</time>
      </trkpt>
      <trkpt lat="42.9626" lon="-0.47825">
        <ele>1585.832031</ele>
        <time>2011-08-11T11:13:17Z</time>
      </trkpt>
      <trkpt lat="42.9626" lon="-0.47826">
        <ele>1584.390137</ele>
        <time>2011-08-11T11:19:52Z</time>
      </trkpt>
      <trkpt lat="42.9626" lon="-0.47826">
        <ele>1585.832031</ele>
        <time>2011-08-11T11:19:54Z</time>
      </trkpt>
      <trkpt lat="42.96263" lon="-0.47824">
        <ele>1584.87085</ele>
        <time>2011-08-11T11:23:08Z</time>
      </trkpt>
      <trkpt lat="42.96261" lon="-0.47825">
        <ele>1585.832031</ele>
        <time>2011-08-11T11:26:13Z</time>
      </trkpt>
      <trkpt lat="42.96263" lon="-0.47825">
        <ele>1585.351318</ele>
        <time>2011-08-11T11:27:24Z</time>
      </trkpt>
      <trkpt lat="42.96262" lon="-0.47825">
        <ele>1584.87085</ele>
        <time>2011-08-11T11:27:45Z</time>
      </trkpt>
      <trkpt lat="42.96264" lon="-0.47822">
        <ele>1584.390137</ele>
        <time>2011-08-11T11:27:54Z</time>
      </trkpt>
      <trkpt lat="42.96273" lon="-0.47824">
        <ele>1586.312744</ele>
        <time>2011-08-11T11:28:06Z</time>
      </trkpt>
      <trkpt lat="42.96276" lon="-0.47824">
        <ele>1585.832031</ele>
        <time>2011-08-11T11:28:09Z</time>
      </trkpt>
      <trkpt lat="42.96294" lon="-0.4782">
        <ele>1586.793213</ele>
        <time>2011-08-11T11:28:30Z</time>
      </trkpt>
      <trkpt lat="42.96305" lon="-0.47815">
        <ele>1590.157959</ele>
        <time>2011-08-11T11:28:46Z</time>
      </trkpt>
      <trkpt lat="42.96309" lon="-0.47804">
        <ele>1591.119141</ele>
        <time>2011-08-11T11:29:02Z</time>
      </trkpt>
      <trkpt lat="42.96312" lon="-0.47795">
        <ele>1593.041748</ele>
        <time>2011-08-11T11:29:18Z</time>
      </trkpt>
      <trkpt lat="42.96313" lon="-0.47781">
        <ele>1594.483643</ele>
        <time>2011-08-11T11:29:34Z</time>
      </trkpt>
      <trkpt lat="42.96313" lon="-0.47779">
        <ele>1595.445068</ele>
        <time>2011-08-11T11:29:37Z</time>
      </trkpt>
      <trkpt lat="42.96313" lon="-0.47775">
        <ele>1596.406738</ele>
        <time>2011-08-11T11:29:42Z</time>
      </trkpt>
      <trkpt lat="42.96314" lon="-0.4777">
        <ele>1596.406738</ele>
        <time>2011-08-11T11:30:07Z</time>
      </trkpt>
      <trkpt lat="42.96313" lon="-0.47768">
        <ele>1595.925781</ele>
        <time>2011-08-11T11:30:14Z</time>
      </trkpt>
      <trkpt lat="42.96314" lon="-0.47766">
        <ele>1597.36792</ele>
        <time>2011-08-11T11:30:16Z</time>
      </trkpt>
      <trkpt lat="42.9632" lon="-0.47754">
        <ele>1599.77124</ele>
        <time>2011-08-11T11:30:32Z</time>
      </trkpt>
      <trkpt lat="42.96326" lon="-0.47737">
        <ele>1602.174316</ele>
        <time>2011-08-11T11:30:51Z</time>
      </trkpt>
      <trkpt lat="42.96329" lon="-0.4772">
        <ele>1604.577637</ele>
        <time>2011-08-11T11:31:08Z</time>
      </trkpt>
      <trkpt lat="42.96335" lon="-0.47703">
        <ele>1606.980957</ele>
        <time>2011-08-11T11:31:26Z</time>
      </trkpt>
      <trkpt lat="42.96338" lon="-0.47685">
        <ele>1608.422852</ele>
        <time>2011-08-11T11:31:44Z</time>
      </trkpt>
      <trkpt lat="42.96339" lon="-0.47672">
        <ele>1610.345459</ele>
        <time>2011-08-11T11:31:59Z</time>
      </trkpt>
      <trkpt lat="42.96337" lon="-0.47656">
        <ele>1613.229736</ele>
        <time>2011-08-11T11:32:15Z</time>
      </trkpt>
      <trkpt lat="42.96337" lon="-0.47646">
        <ele>1614.671631</ele>
        <time>2011-08-11T11:32:29Z</time>
      </trkpt>
      <trkpt lat="42.96335" lon="-0.47633">
        <ele>1615.633057</ele>
        <time>2011-08-11T11:32:43Z</time>
      </trkpt>
      <trkpt lat="42.96335" lon="-0.47619">
        <ele>1618.997559</ele>
        <time>2011-08-11T11:32:58Z</time>
      </trkpt>
      <trkpt lat="42.96336" lon="-0.47605">
        <ele>1621.400635</ele>
        <time>2011-08-11T11:33:13Z</time>
      </trkpt>
      <trkpt lat="42.96344" lon="-0.47597">
        <ele>1623.323486</ele>
        <time>2011-08-11T11:33:29Z</time>
      </trkpt>
      <trkpt lat="42.9635" lon="-0.47588">
        <ele>1624.284668</ele>
        <time>2011-08-11T11:33:41Z</time>
      </trkpt>
      <trkpt lat="42.96364" lon="-0.47586">
        <ele>1624.765381</ele>
        <time>2011-08-11T11:33:57Z</time>
      </trkpt>
      <trkpt lat="42.96372" lon="-0.47575">
        <ele>1626.207275</ele>
        <time>2011-08-11T11:34:11Z</time>
      </trkpt>
      <trkpt lat="42.96382" lon="-0.47568">
        <ele>1628.130127</ele>
        <time>2011-08-11T11:34:26Z</time>
      </trkpt>
      <trkpt lat="42.96392" lon="-0.4756">
        <ele>1631.01416</ele>
        <time>2011-08-11T11:34:39Z</time>
      </trkpt>
      <trkpt lat="42.96393" lon="-0.47557">
        <ele>1631.975342</ele>
        <time>2011-08-11T11:34:44Z</time>
      </trkpt>
      <trkpt lat="42.964" lon="-0.47547">
        <ele>1633.417236</ele>
        <time>2011-08-11T11:34:58Z</time>
      </trkpt>
      <trkpt lat="42.96407" lon="-0.47537">
        <ele>1633.417236</ele>
        <time>2011-08-11T11:35:12Z</time>
      </trkpt>
      <trkpt lat="42.96421" lon="-0.47526">
        <ele>1635.339844</ele>
        <time>2011-08-11T11:35:29Z</time>
      </trkpt>
      <trkpt lat="42.96429" lon="-0.47521">
        <ele>1637.743164</ele>
        <time>2011-08-11T11:35:41Z</time>
      </trkpt>
      <trkpt lat="42.96439" lon="-0.47521">
        <ele>1637.743164</ele>
        <time>2011-08-11T11:35:54Z</time>
      </trkpt>
      <trkpt lat="42.96441" lon="-0.47522">
        <ele>1637.262451</ele>
        <time>2011-08-11T11:35:56Z</time>
      </trkpt>
      <trkpt lat="42.96456" lon="-0.47514">
        <ele>1638.70459</ele>
        <time>2011-08-11T11:36:09Z</time>
      </trkpt>
      <trkpt lat="42.96464" lon="-0.47502">
        <ele>1639.665771</ele>
        <time>2011-08-11T11:36:21Z</time>
      </trkpt>
      <trkpt lat="42.96471" lon="-0.47495">
        <ele>1640.146484</ele>
        <time>2011-08-11T11:36:29Z</time>
      </trkpt>
      <trkpt lat="42.96479" lon="-0.47484">
        <ele>1639.185059</ele>
        <time>2011-08-11T11:36:41Z</time>
      </trkpt>
      <trkpt lat="42.96489" lon="-0.47473">
        <ele>1638.70459</ele>
        <time>2011-08-11T11:36:55Z</time>
      </trkpt>
      <trkpt lat="42.96498" lon="-0.4746">
        <ele>1638.70459</ele>
        <time>2011-08-11T11:37:09Z</time>
      </trkpt>
      <trkpt lat="42.96512" lon="-0.47447">
        <ele>1639.185059</ele>
        <time>2011-08-11T11:37:26Z</time>
      </trkpt>
      <trkpt lat="42.96522" lon="-0.47437">
        <ele>1639.185059</ele>
        <time>2011-08-11T11:37:39Z</time>
      </trkpt>
      <trkpt lat="42.96535" lon="-0.47415">
        <ele>1640.626953</ele>
        <time>2011-08-11T11:37:58Z</time>
      </trkpt>
      <trkpt lat="42.96544" lon="-0.47404">
        <ele>1641.588379</ele>
        <time>2011-08-11T11:38:10Z</time>
      </trkpt>
      <trkpt lat="42.96551" lon="-0.47391">
        <ele>1643.030273</ele>
        <time>2011-08-11T11:38:22Z</time>
      </trkpt>
      <trkpt lat="42.9656" lon="-0.47382">
        <ele>1645.433838</ele>
        <time>2011-08-11T11:38:40Z</time>
      </trkpt>
      <trkpt lat="42.96563" lon="-0.47368">
        <ele>1646.875732</ele>
        <time>2011-08-11T11:38:55Z</time>
      </trkpt>
      <trkpt lat="42.96564" lon="-0.47353">
        <ele>1649.279053</ele>
        <time>2011-08-11T11:39:09Z</time>
      </trkpt>
      <trkpt lat="42.96575" lon="-0.47342">
        <ele>1651.20166</ele>
        <time>2011-08-11T11:39:25Z</time>
      </trkpt>
      <trkpt lat="42.96584" lon="-0.47329">
        <ele>1652.162842</ele>
        <time>2011-08-11T11:39:40Z</time>
      </trkpt>
      <trkpt lat="42.96591" lon="-0.47318">
        <ele>1653.60498</ele>
        <time>2011-08-11T11:39:54Z</time>
      </trkpt>
      <trkpt lat="42.96594" lon="-0.47301">
        <ele>1655.046875</ele>
        <time>2011-08-11T11:40:09Z</time>
      </trkpt>
      <trkpt lat="42.96606" lon="-0.47289">
        <ele>1655.527588</ele>
        <time>2011-08-11T11:40:23Z</time>
      </trkpt>
      <trkpt lat="42.96616" lon="-0.47282">
        <ele>1656.008057</ele>
        <time>2011-08-11T11:40:34Z</time>
      </trkpt>
      <trkpt lat="42.9663" lon="-0.47274">
        <ele>1658.411377</ele>
        <time>2011-08-11T11:40:48Z</time>
      </trkpt>
      <trkpt lat="42.9664" lon="-0.47269">
        <ele>1659.853271</ele>
        <time>2011-08-11T11:41:01Z</time>
      </trkpt>
      <trkpt lat="42.96648" lon="-0.47263">
        <ele>1661.776367</ele>
        <time>2011-08-11T11:41:14Z</time>
      </trkpt>
      <trkpt lat="42.96663" lon="-0.47256">
        <ele>1661.776367</ele>
        <time>2011-08-11T11:41:28Z</time>
      </trkpt>
      <trkpt lat="42.96673" lon="-0.47244">
        <ele>1662.737549</ele>
        <time>2011-08-11T11:41:42Z</time>
      </trkpt>
      <trkpt lat="42.96681" lon="-0.47235">
        <ele>1664.660156</ele>
        <time>2011-08-11T11:41:55Z</time>
      </trkpt>
      <trkpt lat="42.96691" lon="-0.47225">
        <ele>1666.582764</ele>
        <time>2011-08-11T11:42:10Z</time>
      </trkpt>
      <trkpt lat="42.96699" lon="-0.47218">
        <ele>1667.543945</ele>
        <time>2011-08-11T11:42:22Z</time>
      </trkpt>
      <trkpt lat="42.96709" lon="-0.47212">
        <ele>1670.427979</ele>
        <time>2011-08-11T11:42:37Z</time>
      </trkpt>
      <trkpt lat="42.96716" lon="-0.47208">
        <ele>1672.831299</ele>
        <time>2011-08-11T11:42:53Z</time>
      </trkpt>
      <trkpt lat="42.96724" lon="-0.47206">
        <ele>1674.753906</ele>
        <time>2011-08-11T11:43:08Z</time>
      </trkpt>
      <trkpt lat="42.96734" lon="-0.47204">
        <ele>1677.157471</ele>
        <time>2011-08-11T11:43:25Z</time>
      </trkpt>
      <trkpt lat="42.96745" lon="-0.472">
        <ele>1680.04126</ele>
        <time>2011-08-11T11:43:40Z</time>
      </trkpt>
      <trkpt lat="42.96752" lon="-0.47195">
        <ele>1680.521973</ele>
        <time>2011-08-11T11:43:53Z</time>
      </trkpt>
      <trkpt lat="42.96767" lon="-0.47186">
        <ele>1682.44458</ele>
        <time>2011-08-11T11:44:10Z</time>
      </trkpt>
      <trkpt lat="42.96782" lon="-0.47174">
        <ele>1684.8479</ele>
        <time>2011-08-11T11:44:28Z</time>
      </trkpt>
      <trkpt lat="42.96797" lon="-0.47162">
        <ele>1686.770264</ele>
        <time>2011-08-11T11:44:47Z</time>
      </trkpt>
      <trkpt lat="42.96808" lon="-0.47151">
        <ele>1689.173584</ele>
        <time>2011-08-11T11:45:06Z</time>
      </trkpt>
      <trkpt lat="42.9682" lon="-0.47143">
        <ele>1690.615479</ele>
        <time>2011-08-11T11:45:22Z</time>
      </trkpt>
      <trkpt lat="42.96827" lon="-0.47126">
        <ele>1693.019043</ele>
        <time>2011-08-11T11:45:39Z</time>
      </trkpt>
      <trkpt lat="42.96837" lon="-0.4711">
        <ele>1693.980469</ele>
        <time>2011-08-11T11:45:58Z</time>
      </trkpt>
      <trkpt lat="42.96844" lon="-0.47099">
        <ele>1695.422363</ele>
        <time>2011-08-11T11:46:11Z</time>
      </trkpt>
      <trkpt lat="42.96852" lon="-0.47089">
        <ele>1697.344971</ele>
        <time>2011-08-11T11:46:26Z</time>
      </trkpt>
      <trkpt lat="42.96861" lon="-0.4708">
        <ele>1696.383789</ele>
        <time>2011-08-11T11:46:40Z</time>
      </trkpt>
      <trkpt lat="42.96868" lon="-0.4707">
        <ele>1697.344971</ele>
        <time>2011-08-11T11:46:57Z</time>
      </trkpt>
      <trkpt lat="42.96872" lon="-0.47059">
        <ele>1699.267578</ele>
        <time>2011-08-11T11:47:20Z</time>
      </trkpt>
      <trkpt lat="42.96878" lon="-0.47047">
        <ele>1701.670898</ele>
        <time>2011-08-11T11:47:37Z</time>
      </trkpt>
      <trkpt lat="42.96882" lon="-0.47035">
        <ele>1703.112793</ele>
        <time>2011-08-11T11:47:51Z</time>
      </trkpt>
      <trkpt lat="42.9689" lon="-0.47026">
        <ele>1704.554688</ele>
        <time>2011-08-11T11:48:06Z</time>
      </trkpt>
      <trkpt lat="42.96898" lon="-0.47017">
        <ele>1705.516113</ele>
        <time>2011-08-11T11:48:20Z</time>
      </trkpt>
      <trkpt lat="42.96906" lon="-0.47007">
        <ele>1708.880859</ele>
        <time>2011-08-11T11:48:33Z</time>
      </trkpt>
      <trkpt lat="42.96917" lon="-0.46992">
        <ele>1711.764893</ele>
        <time>2011-08-11T11:48:50Z</time>
      </trkpt>
      <trkpt lat="42.96922" lon="-0.46979">
        <ele>1713.687256</ele>
        <time>2011-08-11T11:49:07Z</time>
      </trkpt>
      <trkpt lat="42.96925" lon="-0.46964">
        <ele>1715.129395</ele>
        <time>2011-08-11T11:49:23Z</time>
      </trkpt>
      <trkpt lat="42.96932" lon="-0.4694">
        <ele>1718.013184</ele>
        <time>2011-08-11T11:49:45Z</time>
      </trkpt>
      <trkpt lat="42.96942" lon="-0.46932">
        <ele>1718.013184</ele>
        <time>2011-08-11T11:50:01Z</time>
      </trkpt>
      <trkpt lat="42.96944" lon="-0.46931">
        <ele>1720.416504</ele>
        <time>2011-08-11T11:50:13Z</time>
      </trkpt>
      <trkpt lat="42.96943" lon="-0.46932">
        <ele>1718.493896</ele>
        <time>2011-08-11T11:50:24Z</time>
      </trkpt>
      <trkpt lat="42.96944" lon="-0.4693">
        <ele>1719.455322</ele>
        <time>2011-08-11T11:50:45Z</time>
      </trkpt>
      <trkpt lat="42.96945" lon="-0.46921">
        <ele>1719.935791</ele>
        <time>2011-08-11T11:50:59Z</time>
      </trkpt>
      <trkpt lat="42.96946" lon="-0.46914">
        <ele>1719.455322</ele>
        <time>2011-08-11T11:51:05Z</time>
      </trkpt>
      <trkpt lat="42.96948" lon="-0.46911">
        <ele>1719.455322</ele>
        <time>2011-08-11T11:51:08Z</time>
      </trkpt>
      <trkpt lat="42.9695" lon="-0.46908">
        <ele>1719.935791</ele>
        <time>2011-08-11T11:51:12Z</time>
      </trkpt>
      <trkpt lat="42.96956" lon="-0.46899">
        <ele>1719.455322</ele>
        <time>2011-08-11T11:51:22Z</time>
      </trkpt>
      <trkpt lat="42.9697" lon="-0.46879">
        <ele>1718.974609</ele>
        <time>2011-08-11T11:51:42Z</time>
      </trkpt>
      <trkpt lat="42.9698" lon="-0.46855">
        <ele>1720.897217</ele>
        <time>2011-08-11T11:52:04Z</time>
      </trkpt>
      <trkpt lat="42.96987" lon="-0.46838">
        <ele>1723.300537</ele>
        <time>2011-08-11T11:52:21Z</time>
      </trkpt>
      <trkpt lat="42.96994" lon="-0.46812">
        <ele>1724.742676</ele>
        <time>2011-08-11T11:52:42Z</time>
      </trkpt>
      <trkpt lat="42.96995" lon="-0.46807">
        <ele>1724.742676</ele>
        <time>2011-08-11T11:52:47Z</time>
      </trkpt>
      <trkpt lat="42.96997" lon="-0.46792">
        <ele>1726.18457</ele>
        <time>2011-08-11T11:53:01Z</time>
      </trkpt>
      <trkpt lat="42.96999" lon="-0.46776">
        <ele>1728.587891</ele>
        <time>2011-08-11T11:53:18Z</time>
      </trkpt>
      <trkpt lat="42.97001" lon="-0.46758">
        <ele>1731.47168</ele>
        <time>2011-08-11T11:53:35Z</time>
      </trkpt>
      <trkpt lat="42.97003" lon="-0.4674">
        <ele>1733.875</ele>
        <time>2011-08-11T11:53:54Z</time>
      </trkpt>
      <trkpt lat="42.97006" lon="-0.46718">
        <ele>1736.27832</ele>
        <time>2011-08-11T11:54:14Z</time>
      </trkpt>
      <trkpt lat="42.97009" lon="-0.46694">
        <ele>1736.758789</ele>
        <time>2011-08-11T11:54:38Z</time>
      </trkpt>
      <trkpt lat="42.97012" lon="-0.46671">
        <ele>1737.720215</ele>
        <time>2011-08-11T11:55:00Z</time>
      </trkpt>
      <trkpt lat="42.97015" lon="-0.4665">
        <ele>1738.681641</ele>
        <time>2011-08-11T11:55:20Z</time>
      </trkpt>
      <trkpt lat="42.97019" lon="-0.46628">
        <ele>1740.604248</ele>
        <time>2011-08-11T11:55:42Z</time>
      </trkpt>
      <trkpt lat="42.97019" lon="-0.46603">
        <ele>1743.007568</ele>
        <time>2011-08-11T11:56:04Z</time>
      </trkpt>
      <trkpt lat="42.97021" lon="-0.46582">
        <ele>1745.410889</ele>
        <time>2011-08-11T11:56:22Z</time>
      </trkpt>
      <trkpt lat="42.97023" lon="-0.46564">
        <ele>1746.852783</ele>
        <time>2011-08-11T11:56:38Z</time>
      </trkpt>
      <trkpt lat="42.9702" lon="-0.46538">
        <ele>1749.256104</ele>
        <time>2011-08-11T11:57:00Z</time>
      </trkpt>
      <trkpt lat="42.97019" lon="-0.46511">
        <ele>1749.736816</ele>
        <time>2011-08-11T11:57:20Z</time>
      </trkpt>
      <trkpt lat="42.97019" lon="-0.46485">
        <ele>1750.217529</ele>
        <time>2011-08-11T11:57:40Z</time>
      </trkpt>
      <trkpt lat="42.97015" lon="-0.46454">
        <ele>1750.697998</ele>
        <time>2011-08-11T11:58:02Z</time>
      </trkpt>
      <trkpt lat="42.97014" lon="-0.46443">
        <ele>1750.697998</ele>
        <time>2011-08-11T11:58:10Z</time>
      </trkpt>
      <trkpt lat="42.97008" lon="-0.46414">
        <ele>1751.659424</ele>
        <time>2011-08-11T11:58:32Z</time>
      </trkpt>
      <trkpt lat="42.97006" lon="-0.46383">
        <ele>1750.697998</ele>
        <time>2011-08-11T11:58:54Z</time>
      </trkpt>
      <trkpt lat="42.97005" lon="-0.46355">
        <ele>1750.217529</ele>
        <time>2011-08-11T11:59:12Z</time>
      </trkpt>
      <trkpt lat="42.97003" lon="-0.46321">
        <ele>1749.736816</ele>
        <time>2011-08-11T11:59:35Z</time>
      </trkpt>
      <trkpt lat="42.97004" lon="-0.46297">
        <ele>1749.736816</ele>
        <time>2011-08-11T11:59:52Z</time>
      </trkpt>
      <trkpt lat="42.97" lon="-0.46271">
        <ele>1749.736816</ele>
        <time>2011-08-11T12:00:11Z</time>
      </trkpt>
      <trkpt lat="42.96999" lon="-0.46247">
        <ele>1749.736816</ele>
        <time>2011-08-11T12:00:29Z</time>
      </trkpt>
      <trkpt lat="42.97" lon="-0.46225">
        <ele>1749.256104</ele>
        <time>2011-08-11T12:00:45Z</time>
      </trkpt>
      <trkpt lat="42.97002" lon="-0.46203">
        <ele>1749.256104</ele>
        <time>2011-08-11T12:01:04Z</time>
      </trkpt>
      <trkpt lat="42.97" lon="-0.46191">
        <ele>1749.736816</ele>
        <time>2011-08-11T12:01:20Z</time>
      </trkpt>
      <trkpt lat="42.96998" lon="-0.46181">
        <ele>1749.256104</ele>
        <time>2011-08-11T12:01:36Z</time>
      </trkpt>
      <trkpt lat="42.96998" lon="-0.46181">
        <ele>1748.775391</ele>
        <time>2011-08-11T12:02:36Z</time>
      </trkpt>
      <trkpt lat="42.96998" lon="-0.46186">
        <ele>1751.178711</ele>
        <time>2011-08-11T12:03:20Z</time>
      </trkpt>
      <trkpt lat="42.96999" lon="-0.46189">
        <ele>1750.697998</ele>
        <time>2011-08-11T12:03:38Z</time>
      </trkpt>
      <trkpt lat="42.96997" lon="-0.46182">
        <ele>1750.217529</ele>
        <time>2011-08-11T12:03:54Z</time>
      </trkpt>
      <trkpt lat="42.96997" lon="-0.46178">
        <ele>1749.256104</ele>
        <time>2011-08-11T12:04:10Z</time>
      </trkpt>
      <trkpt lat="42.96998" lon="-0.4617">
        <ele>1746.852783</ele>
        <time>2011-08-11T12:04:31Z</time>
      </trkpt>
      <trkpt lat="42.96999" lon="-0.46165">
        <ele>1745.891602</ele>
        <time>2011-08-11T12:04:59Z</time>
      </trkpt>
      <trkpt lat="42.96998" lon="-0.46159">
        <ele>1743.488281</ele>
        <time>2011-08-11T12:05:14Z</time>
      </trkpt>
      <trkpt lat="42.96997" lon="-0.46147">
        <ele>1741.084961</ele>
        <time>2011-08-11T12:05:31Z</time>
      </trkpt>
      <trkpt lat="42.96996" lon="-0.46137">
        <ele>1739.642822</ele>
        <time>2011-08-11T12:05:39Z</time>
      </trkpt>
      <trkpt lat="42.96996" lon="-0.46133">
        <ele>1739.162109</ele>
        <time>2011-08-11T12:05:42Z</time>
      </trkpt>
      <trkpt lat="42.97001" lon="-0.46123">
        <ele>1738.200928</ele>
        <time>2011-08-11T12:06:00Z</time>
      </trkpt>
      <trkpt lat="42.97" lon="-0.46117">
        <ele>1736.27832</ele>
        <time>2011-08-11T12:06:31Z</time>
      </trkpt>
      <trkpt lat="42.97002" lon="-0.46109">
        <ele>1734.355713</ele>
        <time>2011-08-11T12:06:46Z</time>
      </trkpt>
      <trkpt lat="42.97003" lon="-0.46096">
        <ele>1731.952393</ele>
        <time>2011-08-11T12:07:04Z</time>
      </trkpt>
      <trkpt lat="42.97003" lon="-0.46084">
        <ele>1729.068359</ele>
        <time>2011-08-11T12:07:15Z</time>
      </trkpt>
      <trkpt lat="42.97001" lon="-0.46077">
        <ele>1728.587891</ele>
        <time>2011-08-11T12:07:31Z</time>
      </trkpt>
      <trkpt lat="42.97003" lon="-0.4607">
        <ele>1725.703857</ele>
        <time>2011-08-11T12:07:48Z</time>
      </trkpt>
      <trkpt lat="42.97005" lon="-0.46052">
        <ele>1724.261963</ele>
        <time>2011-08-11T12:08:06Z</time>
      </trkpt>
      <trkpt lat="42.97007" lon="-0.46034">
        <ele>1722.339111</ele>
        <time>2011-08-11T12:08:26Z</time>
      </trkpt>
      <trkpt lat="42.97008" lon="-0.46034">
        <ele>1722.339111</ele>
        <time>2011-08-11T12:08:37Z</time>
      </trkpt>
      <trkpt lat="42.97011" lon="-0.46006">
        <ele>1719.935791</ele>
        <time>2011-08-11T12:08:58Z</time>
      </trkpt>
      <trkpt lat="42.97017" lon="-0.45982">
        <ele>1717.052002</ele>
        <time>2011-08-11T12:09:20Z</time>
      </trkpt>
      <trkpt lat="42.97025" lon="-0.45959">
        <ele>1716.571289</ele>
        <time>2011-08-11T12:09:40Z</time>
      </trkpt>
      <trkpt lat="42.97033" lon="-0.45938">
        <ele>1716.571289</ele>
        <time>2011-08-11T12:10:00Z</time>
      </trkpt>
      <trkpt lat="42.97032" lon="-0.45928">
        <ele>1716.571289</ele>
        <time>2011-08-11T12:10:18Z</time>
      </trkpt>
      <trkpt lat="42.97032" lon="-0.45916">
        <ele>1715.129395</ele>
        <time>2011-08-11T12:10:35Z</time>
      </trkpt>
      <trkpt lat="42.97031" lon="-0.45914">
        <ele>1714.167969</ele>
        <time>2011-08-11T12:11:11Z</time>
      </trkpt>
      <trkpt lat="42.97029" lon="-0.45914">
        <ele>1714.648682</ele>
        <time>2011-08-11T12:11:51Z</time>
      </trkpt>
      <trkpt lat="42.97028" lon="-0.45916">
        <ele>1714.167969</ele>
        <time>2011-08-11T12:12:17Z</time>
      </trkpt>
      <trkpt lat="42.97027" lon="-0.45915">
        <ele>1715.129395</ele>
        <time>2011-08-11T12:12:46Z</time>
      </trkpt>
      <trkpt lat="42.9703" lon="-0.45914">
        <ele>1714.648682</ele>
        <time>2011-08-11T12:13:02Z</time>
      </trkpt>
      <trkpt lat="42.97029" lon="-0.45916">
        <ele>1714.167969</ele>
        <time>2011-08-11T12:13:26Z</time>
      </trkpt>
      <trkpt lat="42.97027" lon="-0.4592">
        <ele>1714.648682</ele>
        <time>2011-08-11T12:13:44Z</time>
      </trkpt>
      <trkpt lat="42.97027" lon="-0.45929">
        <ele>1715.610107</ele>
        <time>2011-08-11T12:13:57Z</time>
      </trkpt>
      <trkpt lat="42.97027" lon="-0.45931">
        <ele>1715.610107</ele>
        <time>2011-08-11T12:13:58Z</time>
      </trkpt>
      <trkpt lat="42.97024" lon="-0.45947">
        <ele>1715.129395</ele>
        <time>2011-08-11T12:14:11Z</time>
      </trkpt>
      <trkpt lat="42.97024" lon="-0.4595">
        <ele>1715.129395</ele>
        <time>2011-08-11T12:14:13Z</time>
      </trkpt>
      <trkpt lat="42.97018" lon="-0.45971">
        <ele>1715.610107</ele>
        <time>2011-08-11T12:14:32Z</time>
      </trkpt>
      <trkpt lat="42.97013" lon="-0.45988">
        <ele>1717.532471</ele>
        <time>2011-08-11T12:14:50Z</time>
      </trkpt>
      <trkpt lat="42.9701" lon="-0.46001">
        <ele>1718.974609</ele>
        <time>2011-08-11T12:15:08Z</time>
      </trkpt>
      <trkpt lat="42.97006" lon="-0.46016">
        <ele>1719.935791</ele>
        <time>2011-08-11T12:15:33Z</time>
      </trkpt>
      <trkpt lat="42.97004" lon="-0.46036">
        <ele>1720.897217</ele>
        <time>2011-08-11T12:15:52Z</time>
      </trkpt>
      <trkpt lat="42.97005" lon="-0.46054">
        <ele>1724.261963</ele>
        <time>2011-08-11T12:16:09Z</time>
      </trkpt>
      <trkpt lat="42.97004" lon="-0.4607">
        <ele>1727.145996</ele>
        <time>2011-08-11T12:16:27Z</time>
      </trkpt>
      <trkpt lat="42.97007" lon="-0.46076">
        <ele>1727.145996</ele>
        <time>2011-08-11T12:16:41Z</time>
      </trkpt>
      <trkpt lat="42.97008" lon="-0.46083">
        <ele>1728.587891</ele>
        <time>2011-08-11T12:16:59Z</time>
      </trkpt>
      <trkpt lat="42.97008" lon="-0.46092">
        <ele>1729.549072</ele>
        <time>2011-08-11T12:17:16Z</time>
      </trkpt>
      <trkpt lat="42.97011" lon="-0.46105">
        <ele>1732.433105</ele>
        <time>2011-08-11T12:17:33Z</time>
      </trkpt>
      <trkpt lat="42.97009" lon="-0.46114">
        <ele>1734.836426</ele>
        <time>2011-08-11T12:17:52Z</time>
      </trkpt>
      <trkpt lat="42.97006" lon="-0.46121">
        <ele>1736.27832</ele>
        <time>2011-08-11T12:18:07Z</time>
      </trkpt>
      <trkpt lat="42.96998" lon="-0.46129">
        <ele>1738.681641</ele>
        <time>2011-08-11T12:18:24Z</time>
      </trkpt>
      <trkpt lat="42.96991" lon="-0.46153">
        <ele>1739.642822</ele>
        <time>2011-08-11T12:18:46Z</time>
      </trkpt>
      <trkpt lat="42.96987" lon="-0.46162">
        <ele>1739.162109</ele>
        <time>2011-08-11T12:18:55Z</time>
      </trkpt>
      <trkpt lat="42.96978" lon="-0.46183">
        <ele>1740.123779</ele>
        <time>2011-08-11T12:19:15Z</time>
      </trkpt>
      <trkpt lat="42.96978" lon="-0.46186">
        <ele>1740.123779</ele>
        <time>2011-08-11T12:19:17Z</time>
      </trkpt>
      <trkpt lat="42.96977" lon="-0.46207">
        <ele>1742.5271</ele>
        <time>2011-08-11T12:19:36Z</time>
      </trkpt>
      <trkpt lat="42.96977" lon="-0.46232">
        <ele>1743.488281</ele>
        <time>2011-08-11T12:19:59Z</time>
      </trkpt>
      <trkpt lat="42.96977" lon="-0.46254">
        <ele>1745.410889</ele>
        <time>2011-08-11T12:20:20Z</time>
      </trkpt>
      <trkpt lat="42.9698" lon="-0.46275">
        <ele>1745.891602</ele>
        <time>2011-08-11T12:20:39Z</time>
      </trkpt>
      <trkpt lat="42.96988" lon="-0.46299">
        <ele>1747.814209</ele>
        <time>2011-08-11T12:21:01Z</time>
      </trkpt>
      <trkpt lat="42.96994" lon="-0.46317">
        <ele>1748.294678</ele>
        <time>2011-08-11T12:21:19Z</time>
      </trkpt>
      <trkpt lat="42.97001" lon="-0.46342">
        <ele>1749.736816</ele>
        <time>2011-08-11T12:21:40Z</time>
      </trkpt>
      <trkpt lat="42.97002" lon="-0.46364">
        <ele>1750.697998</ele>
        <time>2011-08-11T12:21:59Z</time>
      </trkpt>
      <trkpt lat="42.97002" lon="-0.46367">
        <ele>1750.697998</ele>
        <time>2011-08-11T12:22:01Z</time>
      </trkpt>
      <trkpt lat="42.97004" lon="-0.46379">
        <ele>1751.178711</ele>
        <time>2011-08-11T12:22:10Z</time>
      </trkpt>
      <trkpt lat="42.97003" lon="-0.46407">
        <ele>1751.659424</ele>
        <time>2011-08-11T12:22:32Z</time>
      </trkpt>
      <trkpt lat="42.97005" lon="-0.46417">
        <ele>1752.139893</ele>
        <time>2011-08-11T12:22:49Z</time>
      </trkpt>
      <trkpt lat="42.97008" lon="-0.46425">
        <ele>1752.139893</ele>
        <time>2011-08-11T12:23:07Z</time>
      </trkpt>
      <trkpt lat="42.97008" lon="-0.46425">
        <ele>1751.659424</ele>
        <time>2011-08-11T12:23:55Z</time>
      </trkpt>
      <trkpt lat="42.97007" lon="-0.46425">
        <ele>1752.139893</ele>
        <time>2011-08-11T12:24:44Z</time>
      </trkpt>
      <trkpt lat="42.97008" lon="-0.46426">
        <ele>1752.139893</ele>
        <time>2011-08-11T12:25:45Z</time>
      </trkpt>
      <trkpt lat="42.97009" lon="-0.46426">
        <ele>1751.178711</ele>
        <time>2011-08-11T12:32:19Z</time>
      </trkpt>
      <trkpt lat="42.97008" lon="-0.4643">
        <ele>1751.659424</ele>
        <time>2011-08-11T12:32:37Z</time>
      </trkpt>
      <trkpt lat="42.97011" lon="-0.46443">
        <ele>1752.620605</ele>
        <time>2011-08-11T12:32:52Z</time>
      </trkpt>
      <trkpt lat="42.97013" lon="-0.46471">
        <ele>1751.178711</ele>
        <time>2011-08-11T12:33:13Z</time>
      </trkpt>
      <trkpt lat="42.97015" lon="-0.46499">
        <ele>1749.736816</ele>
        <time>2011-08-11T12:33:34Z</time>
      </trkpt>
      <trkpt lat="42.97015" lon="-0.46504">
        <ele>1749.736816</ele>
        <time>2011-08-11T12:33:38Z</time>
      </trkpt>
      <trkpt lat="42.97016" lon="-0.46532">
        <ele>1749.256104</ele>
        <time>2011-08-11T12:33:58Z</time>
      </trkpt>
      <trkpt lat="42.97019" lon="-0.46565">
        <ele>1747.814209</ele>
        <time>2011-08-11T12:34:21Z</time>
      </trkpt>
      <trkpt lat="42.97017" lon="-0.46585">
        <ele>1745.410889</ele>
        <time>2011-08-11T12:34:39Z</time>
      </trkpt>
      <trkpt lat="42.97015" lon="-0.46606">
        <ele>1742.046387</ele>
        <time>2011-08-11T12:34:56Z</time>
      </trkpt>
      <trkpt lat="42.97013" lon="-0.46639">
        <ele>1740.604248</ele>
        <time>2011-08-11T12:35:20Z</time>
      </trkpt>
      <trkpt lat="42.97009" lon="-0.46667">
        <ele>1739.642822</ele>
        <time>2011-08-11T12:35:40Z</time>
      </trkpt>
      <trkpt lat="42.97005" lon="-0.467">
        <ele>1739.162109</ele>
        <time>2011-08-11T12:36:02Z</time>
      </trkpt>
      <trkpt lat="42.97001" lon="-0.4673">
        <ele>1736.27832</ele>
        <time>2011-08-11T12:36:24Z</time>
      </trkpt>
      <trkpt lat="42.96997" lon="-0.4675">
        <ele>1733.394287</ele>
        <time>2011-08-11T12:36:41Z</time>
      </trkpt>
      <trkpt lat="42.96996" lon="-0.46767">
        <ele>1730.510498</ele>
        <time>2011-08-11T12:36:59Z</time>
      </trkpt>
      <trkpt lat="42.96994" lon="-0.46785">
        <ele>1727.145996</ele>
        <time>2011-08-11T12:37:15Z</time>
      </trkpt>
      <trkpt lat="42.96994" lon="-0.46795">
        <ele>1724.261963</ele>
        <time>2011-08-11T12:37:24Z</time>
      </trkpt>
      <trkpt lat="42.9699" lon="-0.46815">
        <ele>1720.897217</ele>
        <time>2011-08-11T12:37:43Z</time>
      </trkpt>
      <trkpt lat="42.96981" lon="-0.46841">
        <ele>1720.416504</ele>
        <time>2011-08-11T12:38:04Z</time>
      </trkpt>
      <trkpt lat="42.96973" lon="-0.46862">
        <ele>1718.013184</ele>
        <time>2011-08-11T12:38:21Z</time>
      </trkpt>
      <trkpt lat="42.96959" lon="-0.46895">
        <ele>1716.571289</ele>
        <time>2011-08-11T12:38:46Z</time>
      </trkpt>
      <trkpt lat="42.96952" lon="-0.46916">
        <ele>1718.974609</ele>
        <time>2011-08-11T12:39:02Z</time>
      </trkpt>
      <trkpt lat="42.96946" lon="-0.46927">
        <ele>1718.493896</ele>
        <time>2011-08-11T12:39:17Z</time>
      </trkpt>
      <trkpt lat="42.9694" lon="-0.46931">
        <ele>1720.416504</ele>
        <time>2011-08-11T12:39:27Z</time>
      </trkpt>
      <trkpt lat="42.96939" lon="-0.46932">
        <ele>1719.455322</ele>
        <time>2011-08-11T12:39:34Z</time>
      </trkpt>
      <trkpt lat="42.96934" lon="-0.46935">
        <ele>1718.974609</ele>
        <time>2011-08-11T12:39:39Z</time>
      </trkpt>
      <trkpt lat="42.96926" lon="-0.46946">
        <ele>1716.090576</ele>
        <time>2011-08-11T12:39:54Z</time>
      </trkpt>
      <trkpt lat="42.96921" lon="-0.46976">
        <ele>1714.167969</ele>
        <time>2011-08-11T12:40:19Z</time>
      </trkpt>
      <trkpt lat="42.9692" lon="-0.46979">
        <ele>1714.167969</ele>
        <time>2011-08-11T12:40:21Z</time>
      </trkpt>
      <trkpt lat="42.96912" lon="-0.46994">
        <ele>1710.803467</ele>
        <time>2011-08-11T12:40:37Z</time>
      </trkpt>
      <trkpt lat="42.9691" lon="-0.46996">
        <ele>1710.322754</ele>
        <time>2011-08-11T12:40:39Z</time>
      </trkpt>
      <trkpt lat="42.96898" lon="-0.47012">
        <ele>1706.958008</ele>
        <time>2011-08-11T12:40:57Z</time>
      </trkpt>
      <trkpt lat="42.96897" lon="-0.47013">
        <ele>1706.477295</ele>
        <time>2011-08-11T12:40:59Z</time>
      </trkpt>
      <trkpt lat="42.96889" lon="-0.47026">
        <ele>1704.554688</ele>
        <time>2011-08-11T12:41:15Z</time>
      </trkpt>
      <trkpt lat="42.96883" lon="-0.47036">
        <ele>1701.670898</ele>
        <time>2011-08-11T12:41:28Z</time>
      </trkpt>
      <trkpt lat="42.96878" lon="-0.47052">
        <ele>1700.229004</ele>
        <time>2011-08-11T12:41:43Z</time>
      </trkpt>
      <trkpt lat="42.96868" lon="-0.47069">
        <ele>1697.825684</ele>
        <time>2011-08-11T12:42:02Z</time>
      </trkpt>
      <trkpt lat="42.96856" lon="-0.47084">
        <ele>1696.383789</ele>
        <time>2011-08-11T12:42:20Z</time>
      </trkpt>
      <trkpt lat="42.96847" lon="-0.47094">
        <ele>1694.94165</ele>
        <time>2011-08-11T12:42:35Z</time>
      </trkpt>
      <trkpt lat="42.96837" lon="-0.47108">
        <ele>1693.019043</ele>
        <time>2011-08-11T12:42:52Z</time>
      </trkpt>
      <trkpt lat="42.96825" lon="-0.47129">
        <ele>1691.576904</ele>
        <time>2011-08-11T12:43:12Z</time>
      </trkpt>
      <trkpt lat="42.96823" lon="-0.47132">
        <ele>1691.096191</ele>
        <time>2011-08-11T12:43:15Z</time>
      </trkpt>
      <trkpt lat="42.9682" lon="-0.4714">
        <ele>1691.096191</ele>
        <time>2011-08-11T12:43:22Z</time>
      </trkpt>
      <trkpt lat="42.968" lon="-0.47159">
        <ele>1687.731689</ele>
        <time>2011-08-11T12:43:45Z</time>
      </trkpt>
      <trkpt lat="42.96794" lon="-0.47163">
        <ele>1686.289795</ele>
        <time>2011-08-11T12:43:53Z</time>
      </trkpt>
      <trkpt lat="42.96774" lon="-0.47179">
        <ele>1684.367188</ele>
        <time>2011-08-11T12:44:15Z</time>
      </trkpt>
      <trkpt lat="42.96752" lon="-0.47195">
        <ele>1682.925049</ele>
        <time>2011-08-11T12:44:37Z</time>
      </trkpt>
      <trkpt lat="42.96742" lon="-0.47202">
        <ele>1681.963867</ele>
        <time>2011-08-11T12:44:58Z</time>
      </trkpt>
      <trkpt lat="42.96745" lon="-0.47198">
        <ele>1681.483154</ele>
        <time>2011-08-11T12:45:18Z</time>
      </trkpt>
      <trkpt lat="42.96747" lon="-0.47196">
        <ele>1682.44458</ele>
        <time>2011-08-11T12:45:22Z</time>
      </trkpt>
      <trkpt lat="42.96747" lon="-0.47198">
        <ele>1681.483154</ele>
        <time>2011-08-11T12:45:49Z</time>
      </trkpt>
      <trkpt lat="42.96748" lon="-0.47198">
        <ele>1681.963867</ele>
        <time>2011-08-11T12:46:11Z</time>
      </trkpt>
      <trkpt lat="42.96743" lon="-0.472">
        <ele>1681.002686</ele>
        <time>2011-08-11T12:46:50Z</time>
      </trkpt>
      <trkpt lat="42.96731" lon="-0.47206">
        <ele>1678.599365</ele>
        <time>2011-08-11T12:47:09Z</time>
      </trkpt>
      <trkpt lat="42.96725" lon="-0.47207">
        <ele>1675.234375</ele>
        <time>2011-08-11T12:47:20Z</time>
      </trkpt>
      <trkpt lat="42.96718" lon="-0.4721">
        <ele>1672.350586</ele>
        <time>2011-08-11T12:47:33Z</time>
      </trkpt>
      <trkpt lat="42.9671" lon="-0.47214">
        <ele>1670.427979</ele>
        <time>2011-08-11T12:47:48Z</time>
      </trkpt>
      <trkpt lat="42.96706" lon="-0.47217">
        <ele>1668.986084</ele>
        <time>2011-08-11T12:48:08Z</time>
      </trkpt>
      <trkpt lat="42.96701" lon="-0.47217">
        <ele>1668.024658</ele>
        <time>2011-08-11T12:48:30Z</time>
      </trkpt>
      <trkpt lat="42.96692" lon="-0.47226">
        <ele>1666.582764</ele>
        <time>2011-08-11T12:48:45Z</time>
      </trkpt>
      <trkpt lat="42.96683" lon="-0.4724">
        <ele>1664.179443</ele>
        <time>2011-08-11T12:49:00Z</time>
      </trkpt>
      <trkpt lat="42.96675" lon="-0.4725">
        <ele>1662.256836</ele>
        <time>2011-08-11T12:49:12Z</time>
      </trkpt>
      <trkpt lat="42.96666" lon="-0.47261">
        <ele>1661.776367</ele>
        <time>2011-08-11T12:49:24Z</time>
      </trkpt>
      <trkpt lat="42.96659" lon="-0.47268">
        <ele>1661.295654</ele>
        <time>2011-08-11T12:49:33Z</time>
      </trkpt>
      <trkpt lat="42.96646" lon="-0.47273">
        <ele>1660.334229</ele>
        <time>2011-08-11T12:49:47Z</time>
      </trkpt>
      <trkpt lat="42.96637" lon="-0.47279">
        <ele>1658.89209</ele>
        <time>2011-08-11T12:49:58Z</time>
      </trkpt>
      <trkpt lat="42.96622" lon="-0.47284">
        <ele>1656.008057</ele>
        <time>2011-08-11T12:50:13Z</time>
      </trkpt>
      <trkpt lat="42.96607" lon="-0.47293">
        <ele>1655.046875</ele>
        <time>2011-08-11T12:50:27Z</time>
      </trkpt>
      <trkpt lat="42.96596" lon="-0.47309">
        <ele>1654.085693</ele>
        <time>2011-08-11T12:50:43Z</time>
      </trkpt>
      <trkpt lat="42.9659" lon="-0.47322">
        <ele>1653.60498</ele>
        <time>2011-08-11T12:50:57Z</time>
      </trkpt>
      <trkpt lat="42.96579" lon="-0.4734">
        <ele>1650.720947</ele>
        <time>2011-08-11T12:51:14Z</time>
      </trkpt>
      <trkpt lat="42.96566" lon="-0.47359">
        <ele>1648.317627</ele>
        <time>2011-08-11T12:51:30Z</time>
      </trkpt>
      <trkpt lat="42.96562" lon="-0.47373">
        <ele>1645.914551</ele>
        <time>2011-08-11T12:51:43Z</time>
      </trkpt>
      <trkpt lat="42.96558" lon="-0.47388">
        <ele>1643.510986</ele>
        <time>2011-08-11T12:51:55Z</time>
      </trkpt>
      <trkpt lat="42.96552" lon="-0.47399">
        <ele>1641.107666</ele>
        <time>2011-08-11T12:52:09Z</time>
      </trkpt>
      <trkpt lat="42.96545" lon="-0.47417">
        <ele>1639.185059</ele>
        <time>2011-08-11T12:52:22Z</time>
      </trkpt>
      <trkpt lat="42.96532" lon="-0.47432">
        <ele>1638.223877</ele>
        <time>2011-08-11T12:52:36Z</time>
      </trkpt>
      <trkpt lat="42.96521" lon="-0.47447">
        <ele>1638.70459</ele>
        <time>2011-08-11T12:52:50Z</time>
      </trkpt>
      <trkpt lat="42.96509" lon="-0.47455">
        <ele>1639.185059</ele>
        <time>2011-08-11T12:53:01Z</time>
      </trkpt>
      <trkpt lat="42.96502" lon="-0.47462">
        <ele>1638.70459</ele>
        <time>2011-08-11T12:53:10Z</time>
      </trkpt>
      <trkpt lat="42.96493" lon="-0.4747">
        <ele>1638.70459</ele>
        <time>2011-08-11T12:53:22Z</time>
      </trkpt>
      <trkpt lat="42.96483" lon="-0.47483">
        <ele>1639.185059</ele>
        <time>2011-08-11T12:53:35Z</time>
      </trkpt>
      <trkpt lat="42.96473" lon="-0.47495">
        <ele>1639.665771</ele>
        <time>2011-08-11T12:53:48Z</time>
      </trkpt>
      <trkpt lat="42.96461" lon="-0.47513">
        <ele>1638.223877</ele>
        <time>2011-08-11T12:54:04Z</time>
      </trkpt>
      <trkpt lat="42.96448" lon="-0.47525">
        <ele>1638.223877</ele>
        <time>2011-08-11T12:54:16Z</time>
      </trkpt>
      <trkpt lat="42.96435" lon="-0.47526">
        <ele>1637.743164</ele>
        <time>2011-08-11T12:54:30Z</time>
      </trkpt>
      <trkpt lat="42.96429" lon="-0.47527">
        <ele>1636.781738</ele>
        <time>2011-08-11T12:54:37Z</time>
      </trkpt>
      <trkpt lat="42.96421" lon="-0.47532">
        <ele>1634.859375</ele>
        <time>2011-08-11T12:54:45Z</time>
      </trkpt>
      <trkpt lat="42.9641" lon="-0.47543">
        <ele>1632.936523</ele>
        <time>2011-08-11T12:55:00Z</time>
      </trkpt>
      <trkpt lat="42.96399" lon="-0.47559">
        <ele>1631.975342</ele>
        <time>2011-08-11T12:55:15Z</time>
      </trkpt>
      <trkpt lat="42.9639" lon="-0.47573">
        <ele>1630.052734</ele>
        <time>2011-08-11T12:55:29Z</time>
      </trkpt>
      <trkpt lat="42.96388" lon="-0.47575">
        <ele>1628.61084</ele>
        <time>2011-08-11T12:55:32Z</time>
      </trkpt>
      <trkpt lat="42.96375" lon="-0.47586">
        <ele>1626.687988</ele>
        <time>2011-08-11T12:55:49Z</time>
      </trkpt>
      <trkpt lat="42.96366" lon="-0.47592">
        <ele>1623.803955</ele>
        <time>2011-08-11T12:55:59Z</time>
      </trkpt>
      <trkpt lat="42.96354" lon="-0.47593">
        <ele>1623.323486</ele>
        <time>2011-08-11T12:56:10Z</time>
      </trkpt>
      <trkpt lat="42.96339" lon="-0.47609">
        <ele>1621.400635</ele>
        <time>2011-08-11T12:56:27Z</time>
      </trkpt>
      <trkpt lat="42.96335" lon="-0.47621">
        <ele>1618.516846</ele>
        <time>2011-08-11T12:56:43Z</time>
      </trkpt>
      <trkpt lat="42.96334" lon="-0.47635">
        <ele>1616.594238</ele>
        <time>2011-08-11T12:57:01Z</time>
      </trkpt>
      <trkpt lat="42.96336" lon="-0.47648">
        <ele>1615.152344</ele>
        <time>2011-08-11T12:57:16Z</time>
      </trkpt>
      <trkpt lat="42.96339" lon="-0.47666">
        <ele>1612.268311</ele>
        <time>2011-08-11T12:57:34Z</time>
      </trkpt>
      <trkpt lat="42.96338" lon="-0.47685">
        <ele>1608.903564</ele>
        <time>2011-08-11T12:57:52Z</time>
      </trkpt>
      <trkpt lat="42.96338" lon="-0.47699">
        <ele>1607.942383</ele>
        <time>2011-08-11T12:58:05Z</time>
      </trkpt>
      <trkpt lat="42.96328" lon="-0.47723">
        <ele>1606.019531</ele>
        <time>2011-08-11T12:58:28Z</time>
      </trkpt>
      <trkpt lat="42.96327" lon="-0.47727">
        <ele>1606.019531</ele>
        <time>2011-08-11T12:58:32Z</time>
      </trkpt>
      <trkpt lat="42.96324" lon="-0.47746">
        <ele>1603.135742</ele>
        <time>2011-08-11T12:58:50Z</time>
      </trkpt>
      <trkpt lat="42.96318" lon="-0.47754">
        <ele>1599.77124</ele>
        <time>2011-08-11T12:59:03Z</time>
      </trkpt>
      <trkpt lat="42.96313" lon="-0.47766">
        <ele>1597.848633</ele>
        <time>2011-08-11T12:59:19Z</time>
      </trkpt>
      <trkpt lat="42.96313" lon="-0.47784">
        <ele>1594.964355</ele>
        <time>2011-08-11T12:59:36Z</time>
      </trkpt>
      <trkpt lat="42.9631" lon="-0.478">
        <ele>1593.041748</ele>
        <time>2011-08-11T12:59:52Z</time>
      </trkpt>
      <trkpt lat="42.96305" lon="-0.4781">
        <ele>1592.561279</ele>
        <time>2011-08-11T13:00:08Z</time>
      </trkpt>
      <trkpt lat="42.963" lon="-0.47816">
        <ele>1589.196533</ele>
        <time>2011-08-11T13:00:20Z</time>
      </trkpt>
      <trkpt lat="42.96294" lon="-0.4782">
        <ele>1587.273926</ele>
        <time>2011-08-11T13:00:29Z</time>
      </trkpt>
      <trkpt lat="42.96275" lon="-0.47824">
        <ele>1586.312744</ele>
        <time>2011-08-11T13:00:47Z</time>
      </trkpt>
      <trkpt lat="42.96261" lon="-0.47827">
        <ele>1585.832031</ele>
        <time>2011-08-11T13:01:04Z</time>
      </trkpt>
      <trkpt lat="42.96251" lon="-0.47836">
        <ele>1585.351318</ele>
        <time>2011-08-11T13:01:30Z</time>
      </trkpt>
    </trkseg>
  </trk>
  <trk>
    <name><![CDATA[ACTIVE LOG 003]]></name>
    <trkseg>
      <trkpt lat="42.96283" lon="-0.47785">
        <ele>1585.351318</ele>
        <time>2011-08-11T13:02:10Z</time>
      </trkpt>
      <trkpt lat="42.96264" lon="-0.47815">
        <ele>1584.87085</ele>
        <time>2011-08-11T13:02:21Z</time>
      </trkpt>
      <trkpt lat="42.96262" lon="-0.47827">
        <ele>1584.87085</ele>
        <time>2011-08-11T13:02:32Z</time>
      </trkpt>
      <trkpt lat="42.96262" lon="-0.47836">
        <ele>1583.909424</ele>
        <time>2011-08-11T13:02:45Z</time>
      </trkpt>
      <trkpt lat="42.96261" lon="-0.47846">
        <ele>1582.947998</ele>
        <time>2011-08-11T13:02:58Z</time>
      </trkpt>
      <trkpt lat="42.96261" lon="-0.47851">
        <ele>1581.506104</ele>
        <time>2011-08-11T13:03:02Z</time>
      </trkpt>
      <trkpt lat="42.96263" lon="-0.47875">
        <ele>1579.102539</ele>
        <time>2011-08-11T13:03:21Z</time>
      </trkpt>
      <trkpt lat="42.96261" lon="-0.47891">
        <ele>1576.21875</ele>
        <time>2011-08-11T13:03:35Z</time>
      </trkpt>
      <trkpt lat="42.96261" lon="-0.47914">
        <ele>1574.776855</ele>
        <time>2011-08-11T13:03:53Z</time>
      </trkpt>
      <trkpt lat="42.96264" lon="-0.47932">
        <ele>1573.334961</ele>
        <time>2011-08-11T13:04:11Z</time>
      </trkpt>
      <trkpt lat="42.96264" lon="-0.47939">
        <ele>1571.892822</ele>
        <time>2011-08-11T13:04:25Z</time>
      </trkpt>
      <trkpt lat="42.96262" lon="-0.47945">
        <ele>1570.450928</ele>
        <time>2011-08-11T13:04:40Z</time>
      </trkpt>
      <trkpt lat="42.96262" lon="-0.47956">
        <ele>1570.450928</ele>
        <time>2011-08-11T13:04:53Z</time>
      </trkpt>
      <trkpt lat="42.9626" lon="-0.47962">
        <ele>1568.52832</ele>
        <time>2011-08-11T13:05:08Z</time>
      </trkpt>
      <trkpt lat="42.96257" lon="-0.47969">
        <ele>1568.047607</ele>
        <time>2011-08-11T13:05:15Z</time>
      </trkpt>
      <trkpt lat="42.96249" lon="-0.47986">
        <ele>1567.566895</ele>
        <time>2011-08-11T13:05:30Z</time>
      </trkpt>
      <trkpt lat="42.96248" lon="-0.4799">
        <ele>1567.566895</ele>
        <time>2011-08-11T13:05:33Z</time>
      </trkpt>
      <trkpt lat="42.9625" lon="-0.48005">
        <ele>1566.605713</ele>
        <time>2011-08-11T13:05:46Z</time>
      </trkpt>
      <trkpt lat="42.9625" lon="-0.48011">
        <ele>1566.125</ele>
        <time>2011-08-11T13:05:50Z</time>
      </trkpt>
      <trkpt lat="42.96245" lon="-0.48036">
        <ele>1565.163818</ele>
        <time>2011-08-11T13:06:08Z</time>
      </trkpt>
      <trkpt lat="42.96241" lon="-0.48068">
        <ele>1564.683105</ele>
        <time>2011-08-11T13:06:28Z</time>
      </trkpt>
      <trkpt lat="42.96239" lon="-0.48102">
        <ele>1564.683105</ele>
        <time>2011-08-11T13:06:49Z</time>
      </trkpt>
      <trkpt lat="42.96235" lon="-0.48135">
        <ele>1562.279541</ele>
        <time>2011-08-11T13:07:10Z</time>
      </trkpt>
      <trkpt lat="42.96232" lon="-0.48167">
        <ele>1560.837646</ele>
        <time>2011-08-11T13:07:31Z</time>
      </trkpt>
      <trkpt lat="42.96224" lon="-0.48174">
        <ele>1558.434326</ele>
        <time>2011-08-11T13:07:47Z</time>
      </trkpt>
      <trkpt lat="42.96223" lon="-0.48175">
        <ele>1557.473145</ele>
        <time>2011-08-11T13:07:49Z</time>
      </trkpt>
      <trkpt lat="42.9621" lon="-0.48184">
        <ele>1554.108643</ele>
        <time>2011-08-11T13:08:05Z</time>
      </trkpt>
      <trkpt lat="42.96195" lon="-0.48196">
        <ele>1550.743896</ele>
        <time>2011-08-11T13:08:26Z</time>
      </trkpt>
      <trkpt lat="42.96186" lon="-0.48202">
        <ele>1547.37915</ele>
        <time>2011-08-11T13:08:38Z</time>
      </trkpt>
      <trkpt lat="42.96172" lon="-0.48204">
        <ele>1544.97583</ele>
        <time>2011-08-11T13:08:55Z</time>
      </trkpt>
      <trkpt lat="42.96161" lon="-0.48201">
        <ele>1541.611328</ele>
        <time>2011-08-11T13:09:15Z</time>
      </trkpt>
      <trkpt lat="42.96156" lon="-0.48205">
        <ele>1539.208008</ele>
        <time>2011-08-11T13:09:31Z</time>
      </trkpt>
      <trkpt lat="42.96149" lon="-0.48201">
        <ele>1538.727539</ele>
        <time>2011-08-11T13:09:43Z</time>
      </trkpt>
      <trkpt lat="42.96145" lon="-0.48181">
        <ele>1538.246826</ele>
        <time>2011-08-11T13:10:00Z</time>
      </trkpt>
      <trkpt lat="42.96145" lon="-0.4817">
        <ele>1538.246826</ele>
        <time>2011-08-11T13:10:08Z</time>
      </trkpt>
      <trkpt lat="42.96144" lon="-0.48144">
        <ele>1536.324219</ele>
        <time>2011-08-11T13:10:26Z</time>
      </trkpt>
      <trkpt lat="42.96145" lon="-0.48125">
        <ele>1535.362793</ele>
        <time>2011-08-11T13:10:40Z</time>
      </trkpt>
      <trkpt lat="42.96143" lon="-0.48102">
        <ele>1533.440186</ele>
        <time>2011-08-11T13:10:57Z</time>
      </trkpt>
      <trkpt lat="42.96141" lon="-0.48098">
        <ele>1533.440186</ele>
        <time>2011-08-11T13:11:01Z</time>
      </trkpt>
      <trkpt lat="42.96136" lon="-0.4808">
        <ele>1531.517334</ele>
        <time>2011-08-11T13:11:17Z</time>
      </trkpt>
      <trkpt lat="42.96135" lon="-0.48079">
        <ele>1530.556152</ele>
        <time>2011-08-11T13:11:19Z</time>
      </trkpt>
      <trkpt lat="42.96129" lon="-0.48078">
        <ele>1529.114014</ele>
        <time>2011-08-11T13:11:34Z</time>
      </trkpt>
      <trkpt lat="42.96126" lon="-0.48075">
        <ele>1527.672119</ele>
        <time>2011-08-11T13:11:38Z</time>
      </trkpt>
      <trkpt lat="42.9613" lon="-0.48057">
        <ele>1524.307617</ele>
        <time>2011-08-11T13:11:54Z</time>
      </trkpt>
      <trkpt lat="42.96135" lon="-0.48046">
        <ele>1521.423584</ele>
        <time>2011-08-11T13:12:08Z</time>
      </trkpt>
      <trkpt lat="42.96135" lon="-0.48033">
        <ele>1521.423584</ele>
        <time>2011-08-11T13:12:23Z</time>
      </trkpt>
      <trkpt lat="42.96131" lon="-0.48037">
        <ele>1521.423584</ele>
        <time>2011-08-11T13:12:35Z</time>
      </trkpt>
      <trkpt lat="42.96124" lon="-0.48031">
        <ele>1521.423584</ele>
        <time>2011-08-11T13:12:47Z</time>
      </trkpt>
      <trkpt lat="42.96117" lon="-0.48024">
        <ele>1520.943115</ele>
        <time>2011-08-11T13:13:00Z</time>
      </trkpt>
      <trkpt lat="42.96108" lon="-0.48018">
        <ele>1520.462402</ele>
        <time>2011-08-11T13:13:14Z</time>
      </trkpt>
      <trkpt lat="42.96103" lon="-0.48016">
        <ele>1517.0979</ele>
        <time>2011-08-11T13:13:24Z</time>
      </trkpt>
      <trkpt lat="42.96094" lon="-0.48007">
        <ele>1516.617188</ele>
        <time>2011-08-11T13:13:42Z</time>
      </trkpt>
      <trkpt lat="42.96091" lon="-0.48009">
        <ele>1514.213623</ele>
        <time>2011-08-11T13:13:57Z</time>
      </trkpt>
      <trkpt lat="42.96067" lon="-0.47991">
        <ele>1512.771729</ele>
        <time>2011-08-11T13:14:17Z</time>
      </trkpt>
      <trkpt lat="42.96046" lon="-0.4798">
        <ele>1512.291016</ele>
        <time>2011-08-11T13:14:34Z</time>
      </trkpt>
      <trkpt lat="42.96041" lon="-0.47979">
        <ele>1512.771729</ele>
        <time>2011-08-11T13:14:38Z</time>
      </trkpt>
      <trkpt lat="42.96034" lon="-0.47973">
        <ele>1511.810547</ele>
        <time>2011-08-11T13:14:55Z</time>
      </trkpt>
      <trkpt lat="42.9603" lon="-0.47976">
        <ele>1511.329834</ele>
        <time>2011-08-11T13:15:09Z</time>
      </trkpt>
      <trkpt lat="42.96025" lon="-0.47977">
        <ele>1513.252441</ele>
        <time>2011-08-11T13:15:22Z</time>
      </trkpt>
      <trkpt lat="42.96024" lon="-0.47977">
        <ele>1512.771729</ele>
        <time>2011-08-11T13:15:23Z</time>
      </trkpt>
      <trkpt lat="42.96002" lon="-0.47973">
        <ele>1515.655762</ele>
        <time>2011-08-11T13:15:46Z</time>
      </trkpt>
      <trkpt lat="42.95995" lon="-0.4797">
        <ele>1516.136475</ele>
        <time>2011-08-11T13:16:00Z</time>
      </trkpt>
      <trkpt lat="42.95988" lon="-0.47973">
        <ele>1515.655762</ele>
        <time>2011-08-11T13:16:14Z</time>
      </trkpt>
      <trkpt lat="42.95984" lon="-0.4797">
        <ele>1516.617188</ele>
        <time>2011-08-11T13:16:20Z</time>
      </trkpt>
      <trkpt lat="42.95979" lon="-0.47964">
        <ele>1517.0979</ele>
        <time>2011-08-11T13:16:28Z</time>
      </trkpt>
      <trkpt lat="42.95972" lon="-0.4795">
        <ele>1517.578369</ele>
        <time>2011-08-11T13:16:42Z</time>
      </trkpt>
      <trkpt lat="42.95967" lon="-0.47943">
        <ele>1518.539795</ele>
        <time>2011-08-11T13:16:52Z</time>
      </trkpt>
      <trkpt lat="42.95961" lon="-0.47927">
        <ele>1518.539795</ele>
        <time>2011-08-11T13:17:04Z</time>
      </trkpt>
      <trkpt lat="42.95953" lon="-0.47931">
        <ele>1518.059082</ele>
        <time>2011-08-11T13:17:16Z</time>
      </trkpt>
      <trkpt lat="42.95944" lon="-0.47916">
        <ele>1518.539795</ele>
        <time>2011-08-11T13:17:55Z</time>
      </trkpt>
      <trkpt lat="42.95949" lon="-0.47902">
        <ele>1519.501221</ele>
        <time>2011-08-11T13:18:09Z</time>
      </trkpt>
      <trkpt lat="42.95952" lon="-0.47902">
        <ele>1519.501221</ele>
        <time>2011-08-11T13:18:26Z</time>
      </trkpt>
      <trkpt lat="42.95941" lon="-0.47895">
        <ele>1520.943115</ele>
        <time>2011-08-11T13:18:37Z</time>
      </trkpt>
      <trkpt lat="42.95932" lon="-0.47884">
        <ele>1520.462402</ele>
        <time>2011-08-11T13:18:53Z</time>
      </trkpt>
      <trkpt lat="42.95922" lon="-0.47863">
        <ele>1519.501221</ele>
        <time>2011-08-11T13:19:08Z</time>
      </trkpt>
      <trkpt lat="42.95918" lon="-0.47851">
        <ele>1519.020508</ele>
        <time>2011-08-11T13:19:19Z</time>
      </trkpt>
      <trkpt lat="42.95915" lon="-0.47848">
        <ele>1519.020508</ele>
        <time>2011-08-11T13:19:30Z</time>
      </trkpt>
      <trkpt lat="42.95913" lon="-0.47847">
        <ele>1517.0979</ele>
        <time>2011-08-11T13:19:36Z</time>
      </trkpt>
      <trkpt lat="42.95911" lon="-0.47832">
        <ele>1517.0979</ele>
        <time>2011-08-11T13:19:53Z</time>
      </trkpt>
      <trkpt lat="42.95911" lon="-0.47829">
        <ele>1516.617188</ele>
        <time>2011-08-11T13:19:57Z</time>
      </trkpt>
      <trkpt lat="42.95907" lon="-0.47822">
        <ele>1515.655762</ele>
        <time>2011-08-11T13:20:01Z</time>
      </trkpt>
      <trkpt lat="42.95903" lon="-0.4781">
        <ele>1516.136475</ele>
        <time>2011-08-11T13:20:07Z</time>
      </trkpt>
      <trkpt lat="42.95903" lon="-0.4779">
        <ele>1513.73291</ele>
        <time>2011-08-11T13:20:26Z</time>
      </trkpt>
      <trkpt lat="42.95901" lon="-0.47774">
        <ele>1512.771729</ele>
        <time>2011-08-11T13:20:39Z</time>
      </trkpt>
      <trkpt lat="42.95901" lon="-0.47761">
        <ele>1510.849121</ele>
        <time>2011-08-11T13:20:51Z</time>
      </trkpt>
      <trkpt lat="42.95901" lon="-0.47758">
        <ele>1509.407227</ele>
        <time>2011-08-11T13:20:55Z</time>
      </trkpt>
      <trkpt lat="42.95896" lon="-0.4774">
        <ele>1507.965332</ele>
        <time>2011-08-11T13:21:07Z</time>
      </trkpt>
      <trkpt lat="42.95896" lon="-0.4772">
        <ele>1504.120117</ele>
        <time>2011-08-11T13:21:24Z</time>
      </trkpt>
      <trkpt lat="42.95897" lon="-0.47704">
        <ele>1500.755371</ele>
        <time>2011-08-11T13:21:38Z</time>
      </trkpt>
      <trkpt lat="42.95897" lon="-0.47688">
        <ele>1497.390625</ele>
        <time>2011-08-11T13:21:55Z</time>
      </trkpt>
      <trkpt lat="42.95897" lon="-0.47687">
        <ele>1497.390625</ele>
        <time>2011-08-11T13:21:56Z</time>
      </trkpt>
      <trkpt lat="42.95895" lon="-0.47671">
        <ele>1494.987305</ele>
        <time>2011-08-11T13:22:14Z</time>
      </trkpt>
      <trkpt lat="42.95892" lon="-0.47654">
        <ele>1491.622803</ele>
        <time>2011-08-11T13:22:27Z</time>
      </trkpt>
      <trkpt lat="42.95892" lon="-0.47646">
        <ele>1490.180908</ele>
        <time>2011-08-11T13:22:34Z</time>
      </trkpt>
      <trkpt lat="42.95892" lon="-0.47637">
        <ele>1488.258301</ele>
        <time>2011-08-11T13:22:43Z</time>
      </trkpt>
      <trkpt lat="42.95891" lon="-0.47622">
        <ele>1486.816162</ele>
        <time>2011-08-11T13:22:56Z</time>
      </trkpt>
      <trkpt lat="42.95887" lon="-0.47597">
        <ele>1483.451416</ele>
        <time>2011-08-11T13:23:17Z</time>
      </trkpt>
      <trkpt lat="42.95878" lon="-0.47575">
        <ele>1481.04834</ele>
        <time>2011-08-11T13:23:37Z</time>
      </trkpt>
      <trkpt lat="42.95872" lon="-0.47564">
        <ele>1479.606201</ele>
        <time>2011-08-11T13:23:50Z</time>
      </trkpt>
      <trkpt lat="42.95865" lon="-0.4756">
        <ele>1478.64502</ele>
        <time>2011-08-11T13:24:03Z</time>
      </trkpt>
      <trkpt lat="42.95865" lon="-0.47554">
        <ele>1478.64502</ele>
        <time>2011-08-11T13:24:10Z</time>
      </trkpt>
      <trkpt lat="42.95864" lon="-0.47545">
        <ele>1479.606201</ele>
        <time>2011-08-11T13:24:17Z</time>
      </trkpt>
      <trkpt lat="42.95859" lon="-0.47536">
        <ele>1480.086914</ele>
        <time>2011-08-11T13:24:28Z</time>
      </trkpt>
      <trkpt lat="42.95853" lon="-0.47518">
        <ele>1479.125488</ele>
        <time>2011-08-11T13:24:46Z</time>
      </trkpt>
      <trkpt lat="42.95847" lon="-0.47504">
        <ele>1477.203125</ele>
        <time>2011-08-11T13:24:57Z</time>
      </trkpt>
      <trkpt lat="42.95845" lon="-0.47494">
        <ele>1475.280273</ele>
        <time>2011-08-11T13:25:11Z</time>
      </trkpt>
      <trkpt lat="42.95845" lon="-0.4748">
        <ele>1472.877197</ele>
        <time>2011-08-11T13:25:27Z</time>
      </trkpt>
      <trkpt lat="42.95846" lon="-0.47471">
        <ele>1472.396484</ele>
        <time>2011-08-11T13:25:40Z</time>
      </trkpt>
      <trkpt lat="42.95844" lon="-0.4745">
        <ele>1471.435059</ele>
        <time>2011-08-11T13:25:56Z</time>
      </trkpt>
      <trkpt lat="42.9585" lon="-0.47435">
        <ele>1469.512695</ele>
        <time>2011-08-11T13:26:10Z</time>
      </trkpt>
      <trkpt lat="42.95848" lon="-0.47417">
        <ele>1469.031982</ele>
        <time>2011-08-11T13:26:24Z</time>
      </trkpt>
      <trkpt lat="42.95844" lon="-0.47401">
        <ele>1468.55127</ele>
        <time>2011-08-11T13:26:38Z</time>
      </trkpt>
      <trkpt lat="42.95841" lon="-0.47397">
        <ele>1469.512695</ele>
        <time>2011-08-11T13:26:42Z</time>
      </trkpt>
      <trkpt lat="42.95848" lon="-0.47378">
        <ele>1467.5896</ele>
        <time>2011-08-11T13:26:58Z</time>
      </trkpt>
      <trkpt lat="42.95848" lon="-0.47375">
        <ele>1468.070557</ele>
        <time>2011-08-11T13:27:01Z</time>
      </trkpt>
      <trkpt lat="42.95848" lon="-0.4737">
        <ele>1468.55127</ele>
        <time>2011-08-11T13:27:05Z</time>
      </trkpt>
      <trkpt lat="42.9585" lon="-0.47361">
        <ele>1466.147705</ele>
        <time>2011-08-11T13:27:17Z</time>
      </trkpt>
      <trkpt lat="42.9585" lon="-0.47348">
        <ele>1465.667236</ele>
        <time>2011-08-11T13:27:28Z</time>
      </trkpt>
      <trkpt lat="42.95849" lon="-0.47338">
        <ele>1465.186523</ele>
        <time>2011-08-11T13:27:36Z</time>
      </trkpt>
      <trkpt lat="42.95853" lon="-0.47338">
        <ele>1464.705811</ele>
        <time>2011-08-11T13:27:51Z</time>
      </trkpt>
      <trkpt lat="42.95851" lon="-0.47341">
        <ele>1463.263916</ele>
        <time>2011-08-11T13:28:07Z</time>
      </trkpt>
      <trkpt lat="42.9585" lon="-0.47326">
        <ele>1461.341309</ele>
        <time>2011-08-11T13:28:14Z</time>
      </trkpt>
      <trkpt lat="42.95845" lon="-0.47306">
        <ele>1460.860596</ele>
        <time>2011-08-11T13:28:27Z</time>
      </trkpt>
      <trkpt lat="42.95845" lon="-0.47294">
        <ele>1460.860596</ele>
        <time>2011-08-11T13:28:45Z</time>
      </trkpt>
      <trkpt lat="42.95847" lon="-0.47278">
        <ele>1462.30249</ele>
        <time>2011-08-11T13:29:00Z</time>
      </trkpt>
      <trkpt lat="42.95846" lon="-0.47275">
        <ele>1463.263916</ele>
        <time>2011-08-11T13:29:26Z</time>
      </trkpt>
      <trkpt lat="42.95847" lon="-0.47255">
        <ele>1464.225098</ele>
        <time>2011-08-11T13:29:38Z</time>
      </trkpt>
      <trkpt lat="42.95844" lon="-0.47234">
        <ele>1463.744385</ele>
        <time>2011-08-11T13:29:50Z</time>
      </trkpt>
      <trkpt lat="42.95839" lon="-0.47217">
        <ele>1463.744385</ele>
        <time>2011-08-11T13:30:04Z</time>
      </trkpt>
      <trkpt lat="42.95837" lon="-0.47204">
        <ele>1463.744385</ele>
        <time>2011-08-11T13:30:15Z</time>
      </trkpt>
      <trkpt lat="42.95835" lon="-0.47191">
        <ele>1463.744385</ele>
        <time>2011-08-11T13:30:26Z</time>
      </trkpt>
      <trkpt lat="42.95833" lon="-0.47178">
        <ele>1462.783203</ele>
        <time>2011-08-11T13:30:39Z</time>
      </trkpt>
      <trkpt lat="42.95831" lon="-0.47156">
        <ele>1462.30249</ele>
        <time>2011-08-11T13:30:56Z</time>
      </trkpt>
      <trkpt lat="42.9583" lon="-0.47149">
        <ele>1462.30249</ele>
        <time>2011-08-11T13:31:08Z</time>
      </trkpt>
      <trkpt lat="42.95829" lon="-0.47114">
        <ele>1463.744385</ele>
        <time>2011-08-11T13:31:26Z</time>
      </trkpt>
      <trkpt lat="42.95825" lon="-0.47105">
        <ele>1464.705811</ele>
        <time>2011-08-11T13:31:41Z</time>
      </trkpt>
      <trkpt lat="42.95825" lon="-0.47096">
        <ele>1465.186523</ele>
        <time>2011-08-11T13:31:47Z</time>
      </trkpt>
      <trkpt lat="42.95826" lon="-0.47095">
        <ele>1466.147705</ele>
        <time>2011-08-11T13:32:03Z</time>
      </trkpt>
      <trkpt lat="42.9583" lon="-0.47094">
        <ele>1465.186523</ele>
        <time>2011-08-11T13:32:17Z</time>
      </trkpt>
      <trkpt lat="42.95827" lon="-0.47084">
        <ele>1465.667236</ele>
        <time>2011-08-11T13:32:21Z</time>
      </trkpt>
      <trkpt lat="42.95825" lon="-0.47076">
        <ele>1466.147705</ele>
        <time>2011-08-11T13:32:25Z</time>
      </trkpt>
      <trkpt lat="42.95821" lon="-0.47063">
        <ele>1468.070557</ele>
        <time>2011-08-11T13:32:34Z</time>
      </trkpt>
      <trkpt lat="42.95823" lon="-0.47045">
        <ele>1468.070557</ele>
        <time>2011-08-11T13:32:48Z</time>
      </trkpt>
      <trkpt lat="42.95823" lon="-0.47043">
        <ele>1468.070557</ele>
        <time>2011-08-11T13:32:49Z</time>
      </trkpt>
      <trkpt lat="42.95822" lon="-0.47031">
        <ele>1468.55127</ele>
        <time>2011-08-11T13:32:56Z</time>
      </trkpt>
      <trkpt lat="42.95825" lon="-0.47017">
        <ele>1469.031982</ele>
        <time>2011-08-11T13:33:04Z</time>
      </trkpt>
      <trkpt lat="42.95826" lon="-0.47008">
        <ele>1469.512695</ele>
        <time>2011-08-11T13:33:10Z</time>
      </trkpt>
      <trkpt lat="42.95827" lon="-0.46993">
        <ele>1469.512695</ele>
        <time>2011-08-11T13:33:26Z</time>
      </trkpt>
      <trkpt lat="42.95828" lon="-0.46988">
        <ele>1471.915771</ele>
        <time>2011-08-11T13:33:54Z</time>
      </trkpt>
      <trkpt lat="42.95825" lon="-0.46978">
        <ele>1472.396484</ele>
        <time>2011-08-11T13:34:12Z</time>
      </trkpt>
      <trkpt lat="42.95825" lon="-0.46977">
        <ele>1473.35791</ele>
        <time>2011-08-11T13:34:14Z</time>
      </trkpt>
      <trkpt lat="42.95827" lon="-0.46968">
        <ele>1473.35791</ele>
        <time>2011-08-11T13:34:26Z</time>
      </trkpt>
      <trkpt lat="42.95831" lon="-0.46954">
        <ele>1473.838379</ele>
        <time>2011-08-11T13:34:41Z</time>
      </trkpt>
      <trkpt lat="42.95834" lon="-0.46944">
        <ele>1475.280273</ele>
        <time>2011-08-11T13:34:57Z</time>
      </trkpt>
      <trkpt lat="42.95831" lon="-0.46939">
        <ele>1474.799805</ele>
        <time>2011-08-11T13:35:10Z</time>
      </trkpt>
      <trkpt lat="42.95836" lon="-0.46929">
        <ele>1475.280273</ele>
        <time>2011-08-11T13:35:23Z</time>
      </trkpt>
      <trkpt lat="42.95837" lon="-0.46914">
        <ele>1476.241699</ele>
        <time>2011-08-11T13:35:37Z</time>
      </trkpt>
      <trkpt lat="42.95837" lon="-0.46913">
        <ele>1476.241699</ele>
        <time>2011-08-11T13:35:38Z</time>
      </trkpt>
      <trkpt lat="42.95835" lon="-0.46898">
        <ele>1476.722412</ele>
        <time>2011-08-11T13:35:53Z</time>
      </trkpt>
      <trkpt lat="42.95838" lon="-0.46887">
        <ele>1478.164307</ele>
        <time>2011-08-11T13:36:01Z</time>
      </trkpt>
      <trkpt lat="42.9584" lon="-0.46868">
        <ele>1479.125488</ele>
        <time>2011-08-11T13:36:15Z</time>
      </trkpt>
      <trkpt lat="42.95841" lon="-0.46864">
        <ele>1479.125488</ele>
        <time>2011-08-11T13:36:18Z</time>
      </trkpt>
      <trkpt lat="42.9584" lon="-0.46853">
        <ele>1479.606201</ele>
        <time>2011-08-11T13:36:25Z</time>
      </trkpt>
      <trkpt lat="42.95849" lon="-0.4683">
        <ele>1477.683594</ele>
        <time>2011-08-11T13:36:41Z</time>
      </trkpt>
      <trkpt lat="42.95854" lon="-0.46813">
        <ele>1477.683594</ele>
        <time>2011-08-11T13:36:56Z</time>
      </trkpt>
      <trkpt lat="42.95857" lon="-0.468">
        <ele>1479.125488</ele>
        <time>2011-08-11T13:37:07Z</time>
      </trkpt>
      <trkpt lat="42.95856" lon="-0.46792">
        <ele>1479.125488</ele>
        <time>2011-08-11T13:37:17Z</time>
      </trkpt>
      <trkpt lat="42.95854" lon="-0.46778">
        <ele>1479.606201</ele>
        <time>2011-08-11T13:37:30Z</time>
      </trkpt>
      <trkpt lat="42.95858" lon="-0.46762">
        <ele>1479.125488</ele>
        <time>2011-08-11T13:37:43Z</time>
      </trkpt>
      <trkpt lat="42.95857" lon="-0.4675">
        <ele>1480.567627</ele>
        <time>2011-08-11T13:37:52Z</time>
      </trkpt>
      <trkpt lat="42.95862" lon="-0.46738">
        <ele>1481.04834</ele>
        <time>2011-08-11T13:38:03Z</time>
      </trkpt>
      <trkpt lat="42.95864" lon="-0.46718">
        <ele>1480.086914</ele>
        <time>2011-08-11T13:38:20Z</time>
      </trkpt>
      <trkpt lat="42.95862" lon="-0.46705">
        <ele>1480.567627</ele>
        <time>2011-08-11T13:38:31Z</time>
      </trkpt>
      <trkpt lat="42.95859" lon="-0.46691">
        <ele>1480.086914</ele>
        <time>2011-08-11T13:38:38Z</time>
      </trkpt>
      <trkpt lat="42.95855" lon="-0.46681">
        <ele>1480.567627</ele>
        <time>2011-08-11T13:38:43Z</time>
      </trkpt>
      <trkpt lat="42.95855" lon="-0.46674">
        <ele>1480.567627</ele>
        <time>2011-08-11T13:38:46Z</time>
      </trkpt>
      <trkpt lat="42.95856" lon="-0.46663">
        <ele>1480.567627</ele>
        <time>2011-08-11T13:38:51Z</time>
      </trkpt>
      <trkpt lat="42.95856" lon="-0.46652">
        <ele>1479.606201</ele>
        <time>2011-08-11T13:38:58Z</time>
      </trkpt>
      <trkpt lat="42.95861" lon="-0.46638">
        <ele>1481.04834</ele>
        <time>2011-08-11T13:39:11Z</time>
      </trkpt>
      <trkpt lat="42.95861" lon="-0.46634">
        <ele>1481.04834</ele>
        <time>2011-08-11T13:39:13Z</time>
      </trkpt>
      <trkpt lat="42.95859" lon="-0.46629">
        <ele>1481.04834</ele>
        <time>2011-08-11T13:39:16Z</time>
      </trkpt>
      <trkpt lat="42.95862" lon="-0.46608">
        <ele>1482.009521</ele>
        <time>2011-08-11T13:39:30Z</time>
      </trkpt>
      <trkpt lat="42.95867" lon="-0.46585">
        <ele>1485.374268</ele>
        <time>2011-08-11T13:39:52Z</time>
      </trkpt>
      <trkpt lat="42.95866" lon="-0.46579">
        <ele>1486.816162</ele>
        <time>2011-08-11T13:40:00Z</time>
      </trkpt>
      <trkpt lat="42.95862" lon="-0.4657">
        <ele>1485.374268</ele>
        <time>2011-08-11T13:40:12Z</time>
      </trkpt>
      <trkpt lat="42.95862" lon="-0.46567">
        <ele>1485.85498</ele>
        <time>2011-08-11T13:40:15Z</time>
      </trkpt>
      <trkpt lat="42.9586" lon="-0.46557">
        <ele>1485.85498</ele>
        <time>2011-08-11T13:40:27Z</time>
      </trkpt>
      <trkpt lat="42.95857" lon="-0.46549">
        <ele>1487.777588</ele>
        <time>2011-08-11T13:40:35Z</time>
      </trkpt>
      <trkpt lat="42.95856" lon="-0.46548">
        <ele>1488.258301</ele>
        <time>2011-08-11T13:40:37Z</time>
      </trkpt>
      <trkpt lat="42.95849" lon="-0.46539">
        <ele>1486.816162</ele>
        <time>2011-08-11T13:40:57Z</time>
      </trkpt>
      <trkpt lat="42.95843" lon="-0.46532">
        <ele>1489.219482</ele>
        <time>2011-08-11T13:41:34Z</time>
      </trkpt>
      <trkpt lat="42.95838" lon="-0.46527">
        <ele>1488.739014</ele>
        <time>2011-08-11T13:41:42Z</time>
      </trkpt>
      <trkpt lat="42.95826" lon="-0.46519">
        <ele>1488.739014</ele>
        <time>2011-08-11T13:41:55Z</time>
      </trkpt>
      <trkpt lat="42.95821" lon="-0.46515">
        <ele>1487.777588</ele>
        <time>2011-08-11T13:42:04Z</time>
      </trkpt>
      <trkpt lat="42.95809" lon="-0.46505">
        <ele>1486.816162</ele>
        <time>2011-08-11T13:42:17Z</time>
      </trkpt>
      <trkpt lat="42.95792" lon="-0.46496">
        <ele>1486.335693</ele>
        <time>2011-08-11T13:42:41Z</time>
      </trkpt>
      <trkpt lat="42.9579" lon="-0.46488">
        <ele>1484.893799</ele>
        <time>2011-08-11T13:42:56Z</time>
      </trkpt>
      <trkpt lat="42.95786" lon="-0.46476">
        <ele>1481.528809</ele>
        <time>2011-08-11T13:43:11Z</time>
      </trkpt>
      <trkpt lat="42.95785" lon="-0.46466">
        <ele>1480.567627</ele>
        <time>2011-08-11T13:43:23Z</time>
      </trkpt>
      <trkpt lat="42.9578" lon="-0.46458">
        <ele>1479.606201</ele>
        <time>2011-08-11T13:43:35Z</time>
      </trkpt>
      <trkpt lat="42.95771" lon="-0.46459">
        <ele>1479.606201</ele>
        <time>2011-08-11T13:43:45Z</time>
      </trkpt>
      <trkpt lat="42.95774" lon="-0.46446">
        <ele>1478.64502</ele>
        <time>2011-08-11T13:43:59Z</time>
      </trkpt>
      <trkpt lat="42.95768" lon="-0.4643">
        <ele>1478.164307</ele>
        <time>2011-08-11T13:44:18Z</time>
      </trkpt>
      <trkpt lat="42.95762" lon="-0.46411">
        <ele>1478.164307</ele>
        <time>2011-08-11T13:44:32Z</time>
      </trkpt>
      <trkpt lat="42.95757" lon="-0.46395">
        <ele>1479.606201</ele>
        <time>2011-08-11T13:44:48Z</time>
      </trkpt>
      <trkpt lat="42.95756" lon="-0.46381">
        <ele>1479.606201</ele>
        <time>2011-08-11T13:45:01Z</time>
      </trkpt>
      <trkpt lat="42.95748" lon="-0.4637">
        <ele>1479.606201</ele>
        <time>2011-08-11T13:45:11Z</time>
      </trkpt>
      <trkpt lat="42.95742" lon="-0.46358">
        <ele>1479.606201</ele>
        <time>2011-08-11T13:45:22Z</time>
      </trkpt>
      <trkpt lat="42.95735" lon="-0.46347">
        <ele>1478.64502</ele>
        <time>2011-08-11T13:45:43Z</time>
      </trkpt>
      <trkpt lat="42.95732" lon="-0.46338">
        <ele>1476.722412</ele>
        <time>2011-08-11T13:45:53Z</time>
      </trkpt>
      <trkpt lat="42.9573" lon="-0.46335">
        <ele>1476.241699</ele>
        <time>2011-08-11T13:45:55Z</time>
      </trkpt>
      <trkpt lat="42.95721" lon="-0.46324">
        <ele>1475.280273</ele>
        <time>2011-08-11T13:46:05Z</time>
      </trkpt>
      <trkpt lat="42.95707" lon="-0.46321">
        <ele>1474.799805</ele>
        <time>2011-08-11T13:46:14Z</time>
      </trkpt>
      <trkpt lat="42.95708" lon="-0.4632">
        <ele>1473.838379</ele>
        <time>2011-08-11T13:46:20Z</time>
      </trkpt>
      <trkpt lat="42.95696" lon="-0.46323">
        <ele>1472.396484</ele>
        <time>2011-08-11T13:46:29Z</time>
      </trkpt>
      <trkpt lat="42.95689" lon="-0.46316">
        <ele>1469.993164</ele>
        <time>2011-08-11T13:46:40Z</time>
      </trkpt>
      <trkpt lat="42.95687" lon="-0.46315">
        <ele>1469.993164</ele>
        <time>2011-08-11T13:46:42Z</time>
      </trkpt>
      <trkpt lat="42.95678" lon="-0.46309">
        <ele>1468.55127</ele>
        <time>2011-08-11T13:46:49Z</time>
      </trkpt>
      <trkpt lat="42.95675" lon="-0.46298">
        <ele>1467.109131</ele>
        <time>2011-08-11T13:47:03Z</time>
      </trkpt>
      <trkpt lat="42.9565" lon="-0.46311">
        <ele>1466.628418</ele>
        <time>2011-08-11T13:47:15Z</time>
      </trkpt>
      <trkpt lat="42.95638" lon="-0.46326">
        <ele>1465.186523</ele>
        <time>2011-08-11T13:47:40Z</time>
      </trkpt>
      <trkpt lat="42.95646" lon="-0.46321">
        <ele>1465.186523</ele>
        <time>2011-08-11T13:47:46Z</time>
      </trkpt>
      <trkpt lat="42.95652" lon="-0.4632">
        <ele>1465.186523</ele>
        <time>2011-08-11T13:47:48Z</time>
      </trkpt>
      <trkpt lat="42.95651" lon="-0.46315">
        <ele>1464.225098</ele>
        <time>2011-08-11T13:48:05Z</time>
      </trkpt>
      <trkpt lat="42.95662" lon="-0.46313">
        <ele>1464.225098</ele>
        <time>2011-08-11T13:48:26Z</time>
      </trkpt>
      <trkpt lat="42.95641" lon="-0.46321">
        <ele>1463.744385</ele>
        <time>2011-08-11T13:48:46Z</time>
      </trkpt>
      <trkpt lat="42.95671" lon="-0.46319">
        <ele>1462.30249</ele>
        <time>2011-08-11T13:50:20Z</time>
      </trkpt>
      <trkpt lat="42.95647" lon="-0.4633">
        <ele>1462.30249</ele>
        <time>2011-08-11T13:50:31Z</time>
      </trkpt>
      <trkpt lat="42.95699" lon="-0.46286">
        <ele>1462.30249</ele>
        <time>2011-08-11T13:51:55Z</time>
      </trkpt>
      <trkpt lat="42.95694" lon="-0.46287">
        <ele>1460.860596</ele>
        <time>2011-08-11T13:52:44Z</time>
      </trkpt>
      <trkpt lat="42.95696" lon="-0.46277">
        <ele>1457.976807</ele>
        <time>2011-08-11T13:53:05Z</time>
      </trkpt>
      <trkpt lat="42.95694" lon="-0.46267">
        <ele>1456.053955</ele>
        <time>2011-08-11T13:53:17Z</time>
      </trkpt>
      <trkpt lat="42.95687" lon="-0.4625">
        <ele>1454.131592</ele>
        <time>2011-08-11T13:53:29Z</time>
      </trkpt>
      <trkpt lat="42.95681" lon="-0.46235">
        <ele>1452.20874</ele>
        <time>2011-08-11T13:53:42Z</time>
      </trkpt>
      <trkpt lat="42.95673" lon="-0.46228">
        <ele>1448.843994</ele>
        <time>2011-08-11T13:53:58Z</time>
      </trkpt>
      <trkpt lat="42.95666" lon="-0.46213">
        <ele>1447.4021</ele>
        <time>2011-08-11T13:54:10Z</time>
      </trkpt>
      <trkpt lat="42.95664" lon="-0.46203">
        <ele>1445.960205</ele>
        <time>2011-08-11T13:54:24Z</time>
      </trkpt>
      <trkpt lat="42.95665" lon="-0.46191">
        <ele>1442.595703</ele>
        <time>2011-08-11T13:54:36Z</time>
      </trkpt>
      <trkpt lat="42.95668" lon="-0.4618">
        <ele>1441.153564</ele>
        <time>2011-08-11T13:54:46Z</time>
      </trkpt>
      <trkpt lat="42.95666" lon="-0.46171">
        <ele>1440.192383</ele>
        <time>2011-08-11T13:54:54Z</time>
      </trkpt>
      <trkpt lat="42.95659" lon="-0.46175">
        <ele>1437.789062</ele>
        <time>2011-08-11T13:55:09Z</time>
      </trkpt>
      <trkpt lat="42.95657" lon="-0.46173">
        <ele>1435.866211</ele>
        <time>2011-08-11T13:55:15Z</time>
      </trkpt>
      <trkpt lat="42.95654" lon="-0.46158">
        <ele>1433.943604</ele>
        <time>2011-08-11T13:55:30Z</time>
      </trkpt>
      <trkpt lat="42.95648" lon="-0.46156">
        <ele>1432.501709</ele>
        <time>2011-08-11T13:55:42Z</time>
      </trkpt>
      <trkpt lat="42.95642" lon="-0.46165">
        <ele>1429.136963</ele>
        <time>2011-08-11T13:55:56Z</time>
      </trkpt>
      <trkpt lat="42.95636" lon="-0.46165">
        <ele>1426.733887</ele>
        <time>2011-08-11T13:56:11Z</time>
      </trkpt>
      <trkpt lat="42.95631" lon="-0.46165">
        <ele>1423.369385</ele>
        <time>2011-08-11T13:56:31Z</time>
      </trkpt>
      <trkpt lat="42.95625" lon="-0.46159">
        <ele>1420.485352</ele>
        <time>2011-08-11T13:56:42Z</time>
      </trkpt>
      <trkpt lat="42.95611" lon="-0.46162">
        <ele>1417.120605</ele>
        <time>2011-08-11T13:57:06Z</time>
      </trkpt>
      <trkpt lat="42.95608" lon="-0.46156">
        <ele>1414.236572</ele>
        <time>2011-08-11T13:57:18Z</time>
      </trkpt>
      <trkpt lat="42.95601" lon="-0.46148">
        <ele>1411.833496</ele>
        <time>2011-08-11T13:57:37Z</time>
      </trkpt>
      <trkpt lat="42.95602" lon="-0.46132">
        <ele>1408.949463</ele>
        <time>2011-08-11T13:57:51Z</time>
      </trkpt>
      <trkpt lat="42.95605" lon="-0.46122">
        <ele>1406.546143</ele>
        <time>2011-08-11T13:58:05Z</time>
      </trkpt>
      <trkpt lat="42.95607" lon="-0.46119">
        <ele>1403.181396</ele>
        <time>2011-08-11T13:58:16Z</time>
      </trkpt>
      <trkpt lat="42.95606" lon="-0.46118">
        <ele>1403.181396</ele>
        <time>2011-08-11T13:58:17Z</time>
      </trkpt>
      <trkpt lat="42.95606" lon="-0.46108">
        <ele>1400.778076</ele>
        <time>2011-08-11T13:58:24Z</time>
      </trkpt>
      <trkpt lat="42.95611" lon="-0.461">
        <ele>1399.336182</ele>
        <time>2011-08-11T13:58:36Z</time>
      </trkpt>
      <trkpt lat="42.95612" lon="-0.46098">
        <ele>1395.97168</ele>
        <time>2011-08-11T13:58:53Z</time>
      </trkpt>
      <trkpt lat="42.95614" lon="-0.46088">
        <ele>1392.607178</ele>
        <time>2011-08-11T13:59:07Z</time>
      </trkpt>
      <trkpt lat="42.95605" lon="-0.46097">
        <ele>1389.242432</ele>
        <time>2011-08-11T13:59:27Z</time>
      </trkpt>
      <trkpt lat="42.95599" lon="-0.46081">
        <ele>1385.877686</ele>
        <time>2011-08-11T13:59:40Z</time>
      </trkpt>
      <trkpt lat="42.95593" lon="-0.46066">
        <ele>1383.474365</ele>
        <time>2011-08-11T14:00:05Z</time>
      </trkpt>
      <trkpt lat="42.95592" lon="-0.46073">
        <ele>1380.109863</ele>
        <time>2011-08-11T14:00:20Z</time>
      </trkpt>
      <trkpt lat="42.95591" lon="-0.46063">
        <ele>1377.226074</ele>
        <time>2011-08-11T14:00:39Z</time>
      </trkpt>
      <trkpt lat="42.95589" lon="-0.46045">
        <ele>1374.342041</ele>
        <time>2011-08-11T14:00:52Z</time>
      </trkpt>
      <trkpt lat="42.95589" lon="-0.46038">
        <ele>1371.457764</ele>
        <time>2011-08-11T14:01:05Z</time>
      </trkpt>
      <trkpt lat="42.95589" lon="-0.46036">
        <ele>1369.054688</ele>
        <time>2011-08-11T14:01:18Z</time>
      </trkpt>
      <trkpt lat="42.95584" lon="-0.46047">
        <ele>1366.170654</ele>
        <time>2011-08-11T14:01:31Z</time>
      </trkpt>
      <trkpt lat="42.9558" lon="-0.46048">
        <ele>1362.806152</ele>
        <time>2011-08-11T14:01:42Z</time>
      </trkpt>
      <trkpt lat="42.9557" lon="-0.46032">
        <ele>1359.922119</ele>
        <time>2011-08-11T14:02:00Z</time>
      </trkpt>
      <trkpt lat="42.95571" lon="-0.46023">
        <ele>1357.519043</ele>
        <time>2011-08-11T14:02:14Z</time>
      </trkpt>
      <trkpt lat="42.95572" lon="-0.46022">
        <ele>1356.557617</ele>
        <time>2011-08-11T14:02:16Z</time>
      </trkpt>
      <trkpt lat="42.95574" lon="-0.46012">
        <ele>1353.673584</ele>
        <time>2011-08-11T14:02:34Z</time>
      </trkpt>
      <trkpt lat="42.95568" lon="-0.46017">
        <ele>1350.309082</ele>
        <time>2011-08-11T14:02:51Z</time>
      </trkpt>
      <trkpt lat="42.95565" lon="-0.46011">
        <ele>1347.425049</ele>
        <time>2011-08-11T14:03:02Z</time>
      </trkpt>
      <trkpt lat="42.95552" lon="-0.46012">
        <ele>1344.541016</ele>
        <time>2011-08-11T14:03:24Z</time>
      </trkpt>
      <trkpt lat="42.95545" lon="-0.46011">
        <ele>1342.137939</ele>
        <time>2011-08-11T14:03:33Z</time>
      </trkpt>
      <trkpt lat="42.9554" lon="-0.45995">
        <ele>1339.253662</ele>
        <time>2011-08-11T14:03:46Z</time>
      </trkpt>
      <trkpt lat="42.95536" lon="-0.45973">
        <ele>1335.88916</ele>
        <time>2011-08-11T14:03:58Z</time>
      </trkpt>
      <trkpt lat="42.95533" lon="-0.45971">
        <ele>1332.524658</ele>
        <time>2011-08-11T14:04:09Z</time>
      </trkpt>
      <trkpt lat="42.95526" lon="-0.45979">
        <ele>1329.159912</ele>
        <time>2011-08-11T14:04:24Z</time>
      </trkpt>
      <trkpt lat="42.95525" lon="-0.4597">
        <ele>1327.718018</ele>
        <time>2011-08-11T14:04:33Z</time>
      </trkpt>
      <trkpt lat="42.95531" lon="-0.45952">
        <ele>1323.872559</ele>
        <time>2011-08-11T14:04:47Z</time>
      </trkpt>
      <trkpt lat="42.95531" lon="-0.45952">
        <ele>1323.39209</ele>
        <time>2011-08-11T14:04:48Z</time>
      </trkpt>
      <trkpt lat="42.9553" lon="-0.45948">
        <ele>1320.98877</ele>
        <time>2011-08-11T14:04:54Z</time>
      </trkpt>
      <trkpt lat="42.95523" lon="-0.45937">
        <ele>1319.066162</ele>
        <time>2011-08-11T14:05:06Z</time>
      </trkpt>
      <trkpt lat="42.95516" lon="-0.45946">
        <ele>1316.662842</ele>
        <time>2011-08-11T14:05:18Z</time>
      </trkpt>
      <trkpt lat="42.95517" lon="-0.4594">
        <ele>1313.29834</ele>
        <time>2011-08-11T14:05:32Z</time>
      </trkpt>
      <trkpt lat="42.95519" lon="-0.45932">
        <ele>1311.375732</ele>
        <time>2011-08-11T14:05:40Z</time>
      </trkpt>
      <trkpt lat="42.95524" lon="-0.45919">
        <ele>1309.453125</ele>
        <time>2011-08-11T14:05:56Z</time>
      </trkpt>
      <trkpt lat="42.95524" lon="-0.45918">
        <ele>1308.972412</ele>
        <time>2011-08-11T14:05:57Z</time>
      </trkpt>
      <trkpt lat="42.95524" lon="-0.45899">
        <ele>1305.607666</ele>
        <time>2011-08-11T14:06:08Z</time>
      </trkpt>
      <trkpt lat="42.95522" lon="-0.45886">
        <ele>1303.204346</ele>
        <time>2011-08-11T14:06:21Z</time>
      </trkpt>
      <trkpt lat="42.95522" lon="-0.4588">
        <ele>1302.723633</ele>
        <time>2011-08-11T14:06:24Z</time>
      </trkpt>
      <trkpt lat="42.95526" lon="-0.45878">
        <ele>1301.762451</ele>
        <time>2011-08-11T14:06:41Z</time>
      </trkpt>
      <trkpt lat="42.95522" lon="-0.45872">
        <ele>1299.839844</ele>
        <time>2011-08-11T14:07:15Z</time>
      </trkpt>
      <trkpt lat="42.9552" lon="-0.45862">
        <ele>1298.878418</ele>
        <time>2011-08-11T14:07:19Z</time>
      </trkpt>
      <trkpt lat="42.95526" lon="-0.4584">
        <ele>1295.513916</ele>
        <time>2011-08-11T14:07:34Z</time>
      </trkpt>
      <trkpt lat="42.95531" lon="-0.45817">
        <ele>1293.591309</ele>
        <time>2011-08-11T14:07:50Z</time>
      </trkpt>
      <trkpt lat="42.95535" lon="-0.45797">
        <ele>1291.668457</ele>
        <time>2011-08-11T14:08:07Z</time>
      </trkpt>
      <trkpt lat="42.95537" lon="-0.45784">
        <ele>1289.74585</ele>
        <time>2011-08-11T14:08:20Z</time>
      </trkpt>
      <trkpt lat="42.95545" lon="-0.45767">
        <ele>1286.861816</ele>
        <time>2011-08-11T14:08:35Z</time>
      </trkpt>
      <trkpt lat="42.95555" lon="-0.45761">
        <ele>1285.900635</ele>
        <time>2011-08-11T14:08:47Z</time>
      </trkpt>
      <trkpt lat="42.95556" lon="-0.45753">
        <ele>1283.497314</ele>
        <time>2011-08-11T14:08:58Z</time>
      </trkpt>
      <trkpt lat="42.95557" lon="-0.4574">
        <ele>1280.613525</ele>
        <time>2011-08-11T14:09:14Z</time>
      </trkpt>
      <trkpt lat="42.95557" lon="-0.4573">
        <ele>1278.210205</ele>
        <time>2011-08-11T14:09:26Z</time>
      </trkpt>
      <trkpt lat="42.95558" lon="-0.45718">
        <ele>1275.325928</ele>
        <time>2011-08-11T14:09:40Z</time>
      </trkpt>
      <trkpt lat="42.95559" lon="-0.45713">
        <ele>1273.403564</ele>
        <time>2011-08-11T14:09:49Z</time>
      </trkpt>
      <trkpt lat="42.95556" lon="-0.45703">
        <ele>1270.519531</ele>
        <time>2011-08-11T14:09:59Z</time>
      </trkpt>
      <trkpt lat="42.95555" lon="-0.45695">
        <ele>1269.55835</ele>
        <time>2011-08-11T14:10:07Z</time>
      </trkpt>
      <trkpt lat="42.95553" lon="-0.45675">
        <ele>1267.635498</ele>
        <time>2011-08-11T14:10:19Z</time>
      </trkpt>
      <trkpt lat="42.9556" lon="-0.45659">
        <ele>1264.751709</ele>
        <time>2011-08-11T14:10:33Z</time>
      </trkpt>
      <trkpt lat="42.95561" lon="-0.45659">
        <ele>1264.751709</ele>
        <time>2011-08-11T14:10:34Z</time>
      </trkpt>
      <trkpt lat="42.95567" lon="-0.45645">
        <ele>1262.829102</ele>
        <time>2011-08-11T14:10:47Z</time>
      </trkpt>
      <trkpt lat="42.95567" lon="-0.45635">
        <ele>1260.906494</ele>
        <time>2011-08-11T14:10:57Z</time>
      </trkpt>
      <trkpt lat="42.95569" lon="-0.45629">
        <ele>1258.50293</ele>
        <time>2011-08-11T14:11:04Z</time>
      </trkpt>
      <trkpt lat="42.95574" lon="-0.45614">
        <ele>1255.138428</ele>
        <time>2011-08-11T14:11:22Z</time>
      </trkpt>
      <trkpt lat="42.95578" lon="-0.45609">
        <ele>1252.735107</ele>
        <time>2011-08-11T14:11:38Z</time>
      </trkpt>
      <trkpt lat="42.95586" lon="-0.45595">
        <ele>1252.254395</ele>
        <time>2011-08-11T14:11:52Z</time>
      </trkpt>
      <trkpt lat="42.95597" lon="-0.45584">
        <ele>1251.773926</ele>
        <time>2011-08-11T14:12:07Z</time>
      </trkpt>
      <trkpt lat="42.95602" lon="-0.45562">
        <ele>1251.293213</ele>
        <time>2011-08-11T14:12:22Z</time>
      </trkpt>
      <trkpt lat="42.95605" lon="-0.45547">
        <ele>1250.332031</ele>
        <time>2011-08-11T14:12:33Z</time>
      </trkpt>
      <trkpt lat="42.9561" lon="-0.45539">
        <ele>1249.370605</ele>
        <time>2011-08-11T14:12:47Z</time>
      </trkpt>
      <trkpt lat="42.95617" lon="-0.45515">
        <ele>1246.967285</ele>
        <time>2011-08-11T14:13:04Z</time>
      </trkpt>
      <trkpt lat="42.95622" lon="-0.45508">
        <ele>1246.967285</ele>
        <time>2011-08-11T14:13:10Z</time>
      </trkpt>
      <trkpt lat="42.95632" lon="-0.45485">
        <ele>1246.967285</ele>
        <time>2011-08-11T14:13:28Z</time>
      </trkpt>
      <trkpt lat="42.95634" lon="-0.45479">
        <ele>1245.525391</ele>
        <time>2011-08-11T14:13:32Z</time>
      </trkpt>
      <trkpt lat="42.95647" lon="-0.45462">
        <ele>1245.044678</ele>
        <time>2011-08-11T14:13:47Z</time>
      </trkpt>
      <trkpt lat="42.95654" lon="-0.45456">
        <ele>1244.083496</ele>
        <time>2011-08-11T14:13:57Z</time>
      </trkpt>
      <trkpt lat="42.95667" lon="-0.45441">
        <ele>1244.083496</ele>
        <time>2011-08-11T14:14:12Z</time>
      </trkpt>
      <trkpt lat="42.95679" lon="-0.4543">
        <ele>1244.563965</ele>
        <time>2011-08-11T14:14:26Z</time>
      </trkpt>
      <trkpt lat="42.95681" lon="-0.45426">
        <ele>1245.525391</ele>
        <time>2011-08-11T14:14:30Z</time>
      </trkpt>
      <trkpt lat="42.95686" lon="-0.45417">
        <ele>1243.602539</ele>
        <time>2011-08-11T14:14:41Z</time>
      </trkpt>
      <trkpt lat="42.95693" lon="-0.45411">
        <ele>1243.602539</ele>
        <time>2011-08-11T14:14:50Z</time>
      </trkpt>
      <trkpt lat="42.95701" lon="-0.45387">
        <ele>1240.718506</ele>
        <time>2011-08-11T14:15:07Z</time>
      </trkpt>
      <trkpt lat="42.95706" lon="-0.45379">
        <ele>1241.679932</ele>
        <time>2011-08-11T14:15:16Z</time>
      </trkpt>
      <trkpt lat="42.95711" lon="-0.45361">
        <ele>1240.238037</ele>
        <time>2011-08-11T14:15:29Z</time>
      </trkpt>
      <trkpt lat="42.95717" lon="-0.45347">
        <ele>1241.199219</ele>
        <time>2011-08-11T14:15:45Z</time>
      </trkpt>
      <trkpt lat="42.95723" lon="-0.4534">
        <ele>1242.160645</ele>
        <time>2011-08-11T14:15:54Z</time>
      </trkpt>
      <trkpt lat="42.9574" lon="-0.45325">
        <ele>1242.641357</ele>
        <time>2011-08-11T14:16:10Z</time>
      </trkpt>
      <trkpt lat="42.9576" lon="-0.45307">
        <ele>1243.121826</ele>
        <time>2011-08-11T14:16:29Z</time>
      </trkpt>
      <trkpt lat="42.95777" lon="-0.45295">
        <ele>1242.641357</ele>
        <time>2011-08-11T14:16:46Z</time>
      </trkpt>
      <trkpt lat="42.95781" lon="-0.45294">
        <ele>1242.641357</ele>
        <time>2011-08-11T14:17:04Z</time>
      </trkpt>
      <trkpt lat="42.95782" lon="-0.45293">
        <ele>1241.679932</ele>
        <time>2011-08-11T14:17:08Z</time>
      </trkpt>
      <trkpt lat="42.95787" lon="-0.45284">
        <ele>1240.238037</ele>
        <time>2011-08-11T14:17:16Z</time>
      </trkpt>
      <trkpt lat="42.95807" lon="-0.45268">
        <ele>1237.354004</ele>
        <time>2011-08-11T14:17:35Z</time>
      </trkpt>
      <trkpt lat="42.95824" lon="-0.45247">
        <ele>1236.392822</ele>
        <time>2011-08-11T14:17:54Z</time>
      </trkpt>
      <trkpt lat="42.95835" lon="-0.4522">
        <ele>1236.392822</ele>
        <time>2011-08-11T14:18:12Z</time>
      </trkpt>
      <trkpt lat="42.95837" lon="-0.452">
        <ele>1236.392822</ele>
        <time>2011-08-11T14:18:28Z</time>
      </trkpt>
      <trkpt lat="42.95836" lon="-0.45195">
        <ele>1235.431396</ele>
        <time>2011-08-11T14:18:33Z</time>
      </trkpt>
      <trkpt lat="42.95835" lon="-0.45193">
        <ele>1235.431396</ele>
        <time>2011-08-11T14:18:35Z</time>
      </trkpt>
      <trkpt lat="42.95835" lon="-0.45189">
        <ele>1233.508789</ele>
        <time>2011-08-11T14:18:38Z</time>
      </trkpt>
      <trkpt lat="42.95835" lon="-0.45168">
        <ele>1231.105713</ele>
        <time>2011-08-11T14:18:56Z</time>
      </trkpt>
      <trkpt lat="42.95832" lon="-0.45145">
        <ele>1227.740723</ele>
        <time>2011-08-11T14:19:11Z</time>
      </trkpt>
      <trkpt lat="42.95831" lon="-0.45117">
        <ele>1224.856934</ele>
        <time>2011-08-11T14:19:29Z</time>
      </trkpt>
      <trkpt lat="42.95829" lon="-0.45098">
        <ele>1225.337402</ele>
        <time>2011-08-11T14:19:42Z</time>
      </trkpt>
      <trkpt lat="42.95817" lon="-0.45073">
        <ele>1223.415039</ele>
        <time>2011-08-11T14:20:01Z</time>
      </trkpt>
      <trkpt lat="42.95817" lon="-0.45057">
        <ele>1220.531006</ele>
        <time>2011-08-11T14:20:17Z</time>
      </trkpt>
      <trkpt lat="42.95817" lon="-0.45045">
        <ele>1218.127686</ele>
        <time>2011-08-11T14:20:29Z</time>
      </trkpt>
      <trkpt lat="42.95816" lon="-0.4503">
        <ele>1214.763184</ele>
        <time>2011-08-11T14:20:44Z</time>
      </trkpt>
      <trkpt lat="42.95814" lon="-0.45025">
        <ele>1211.398438</ele>
        <time>2011-08-11T14:20:58Z</time>
      </trkpt>
      <trkpt lat="42.95803" lon="-0.45038">
        <ele>1208.514404</ele>
        <time>2011-08-11T14:21:20Z</time>
      </trkpt>
      <trkpt lat="42.95802" lon="-0.45028">
        <ele>1205.149902</ele>
        <time>2011-08-11T14:21:35Z</time>
      </trkpt>
      <trkpt lat="42.95803" lon="-0.45022">
        <ele>1201.7854</ele>
        <time>2011-08-11T14:21:48Z</time>
      </trkpt>
      <trkpt lat="42.95796" lon="-0.45017">
        <ele>1198.901367</ele>
        <time>2011-08-11T14:22:08Z</time>
      </trkpt>
      <trkpt lat="42.95793" lon="-0.45011">
        <ele>1195.536621</ele>
        <time>2011-08-11T14:22:26Z</time>
      </trkpt>
      <trkpt lat="42.95788" lon="-0.45014">
        <ele>1193.133301</ele>
        <time>2011-08-11T14:22:38Z</time>
      </trkpt>
      <trkpt lat="42.95781" lon="-0.45019">
        <ele>1189.288086</ele>
        <time>2011-08-11T14:22:52Z</time>
      </trkpt>
      <trkpt lat="42.95776" lon="-0.45012">
        <ele>1186.404297</ele>
        <time>2011-08-11T14:23:08Z</time>
      </trkpt>
      <trkpt lat="42.95778" lon="-0.44996">
        <ele>1184.000977</ele>
        <time>2011-08-11T14:23:27Z</time>
      </trkpt>
      <trkpt lat="42.95776" lon="-0.44985">
        <ele>1180.636475</ele>
        <time>2011-08-11T14:23:39Z</time>
      </trkpt>
      <trkpt lat="42.95773" lon="-0.44985">
        <ele>1180.155762</ele>
        <time>2011-08-11T14:23:45Z</time>
      </trkpt>
      <trkpt lat="42.95766" lon="-0.44993">
        <ele>1176.310303</ele>
        <time>2011-08-11T14:24:00Z</time>
      </trkpt>
      <trkpt lat="42.95762" lon="-0.44998">
        <ele>1173.426514</ele>
        <time>2011-08-11T14:24:10Z</time>
      </trkpt>
      <trkpt lat="42.95757" lon="-0.44993">
        <ele>1170.061768</ele>
        <time>2011-08-11T14:24:29Z</time>
      </trkpt>
      <trkpt lat="42.95753" lon="-0.45001">
        <ele>1167.177979</ele>
        <time>2011-08-11T14:24:48Z</time>
      </trkpt>
      <trkpt lat="42.95745" lon="-0.45011">
        <ele>1164.774658</ele>
        <time>2011-08-11T14:25:02Z</time>
      </trkpt>
      <trkpt lat="42.95734" lon="-0.45019">
        <ele>1160.929199</ele>
        <time>2011-08-11T14:25:23Z</time>
      </trkpt>
      <trkpt lat="42.95723" lon="-0.45032">
        <ele>1158.525879</ele>
        <time>2011-08-11T14:25:45Z</time>
      </trkpt>
      <trkpt lat="42.95719" lon="-0.45047">
        <ele>1155.161377</ele>
        <time>2011-08-11T14:26:09Z</time>
      </trkpt>
      <trkpt lat="42.95716" lon="-0.45052">
        <ele>1152.277344</ele>
        <time>2011-08-11T14:26:30Z</time>
      </trkpt>
      <trkpt lat="42.95709" lon="-0.4505">
        <ele>1148.912842</ele>
        <time>2011-08-11T14:26:54Z</time>
      </trkpt>
      <trkpt lat="42.95703" lon="-0.45055">
        <ele>1146.028809</ele>
        <time>2011-08-11T14:27:13Z</time>
      </trkpt>
      <trkpt lat="42.957" lon="-0.45063">
        <ele>1142.664307</ele>
        <time>2011-08-11T14:27:26Z</time>
      </trkpt>
      <trkpt lat="42.95694" lon="-0.45068">
        <ele>1139.299561</ele>
        <time>2011-08-11T14:27:43Z</time>
      </trkpt>
      <trkpt lat="42.95687" lon="-0.45066">
        <ele>1137.376953</ele>
        <time>2011-08-11T14:27:58Z</time>
      </trkpt>
      <trkpt lat="42.95679" lon="-0.45069">
        <ele>1134.493164</ele>
        <time>2011-08-11T14:28:17Z</time>
      </trkpt>
      <trkpt lat="42.95674" lon="-0.45077">
        <ele>1131.128418</ele>
        <time>2011-08-11T14:28:32Z</time>
      </trkpt>
      <trkpt lat="42.95666" lon="-0.45083">
        <ele>1127.763672</ele>
        <time>2011-08-11T14:28:47Z</time>
      </trkpt>
      <trkpt lat="42.95661" lon="-0.45093">
        <ele>1125.360352</ele>
        <time>2011-08-11T14:29:10Z</time>
      </trkpt>
      <trkpt lat="42.95657" lon="-0.45103">
        <ele>1122.957275</ele>
        <time>2011-08-11T14:29:27Z</time>
      </trkpt>
      <trkpt lat="42.95651" lon="-0.45111">
        <ele>1120.073242</ele>
        <time>2011-08-11T14:29:42Z</time>
      </trkpt>
      <trkpt lat="42.95644" lon="-0.45121">
        <ele>1118.631348</ele>
        <time>2011-08-11T14:29:53Z</time>
      </trkpt>
      <trkpt lat="42.9564" lon="-0.45133">
        <ele>1115.266602</ele>
        <time>2011-08-11T14:30:20Z</time>
      </trkpt>
      <trkpt lat="42.95635" lon="-0.45134">
        <ele>1111.9021</ele>
        <time>2011-08-11T14:30:39Z</time>
      </trkpt>
      <trkpt lat="42.95635" lon="-0.45128">
        <ele>1109.979248</ele>
        <time>2011-08-11T14:30:53Z</time>
      </trkpt>
      <trkpt lat="42.95629" lon="-0.45137">
        <ele>1106.614746</ele>
        <time>2011-08-11T14:31:09Z</time>
      </trkpt>
      <trkpt lat="42.95622" lon="-0.45145">
        <ele>1103.730957</ele>
        <time>2011-08-11T14:31:30Z</time>
      </trkpt>
      <trkpt lat="42.95622" lon="-0.45154">
        <ele>1100.366455</ele>
        <time>2011-08-11T14:31:45Z</time>
      </trkpt>
      <trkpt lat="42.95624" lon="-0.45165">
        <ele>1098.443359</ele>
        <time>2011-08-11T14:31:55Z</time>
      </trkpt>
      <trkpt lat="42.95623" lon="-0.45167">
        <ele>1097.482178</ele>
        <time>2011-08-11T14:31:59Z</time>
      </trkpt>
      <trkpt lat="42.95618" lon="-0.45176">
        <ele>1095.078857</ele>
        <time>2011-08-11T14:32:15Z</time>
      </trkpt>
      <trkpt lat="42.95614" lon="-0.45182">
        <ele>1092.195068</ele>
        <time>2011-08-11T14:32:31Z</time>
      </trkpt>
      <trkpt lat="42.95604" lon="-0.45185">
        <ele>1089.311035</ele>
        <time>2011-08-11T14:32:46Z</time>
      </trkpt>
      <trkpt lat="42.95602" lon="-0.45184">
        <ele>1088.349854</ele>
        <time>2011-08-11T14:32:49Z</time>
      </trkpt>
      <trkpt lat="42.95588" lon="-0.45188">
        <ele>1084.985352</ele>
        <time>2011-08-11T14:33:14Z</time>
      </trkpt>
      <trkpt lat="42.95579" lon="-0.4519">
        <ele>1081.620361</ele>
        <time>2011-08-11T14:33:48Z</time>
      </trkpt>
      <trkpt lat="42.95566" lon="-0.45184">
        <ele>1078.255859</ele>
        <time>2011-08-11T14:34:15Z</time>
      </trkpt>
      <trkpt lat="42.95558" lon="-0.45186">
        <ele>1074.891357</ele>
        <time>2011-08-11T14:34:40Z</time>
      </trkpt>
      <trkpt lat="42.95548" lon="-0.45192">
        <ele>1071.526611</ele>
        <time>2011-08-11T14:35:40Z</time>
      </trkpt>
      <trkpt lat="42.95541" lon="-0.45193">
        <ele>1068.162109</ele>
        <time>2011-08-11T14:36:05Z</time>
      </trkpt>
      <trkpt lat="42.95533" lon="-0.45184">
        <ele>1065.278076</ele>
        <time>2011-08-11T14:36:23Z</time>
      </trkpt>
      <trkpt lat="42.95522" lon="-0.45203">
        <ele>1062.394043</ele>
        <time>2011-08-11T14:37:11Z</time>
      </trkpt>
      <trkpt lat="42.9551" lon="-0.45216">
        <ele>1059.029541</ele>
        <time>2011-08-11T14:37:31Z</time>
      </trkpt>
      <trkpt lat="42.95509" lon="-0.45216">
        <ele>1058.548828</ele>
        <time>2011-08-11T14:37:33Z</time>
      </trkpt>
      <trkpt lat="42.95511" lon="-0.45204">
        <ele>1055.184326</ele>
        <time>2011-08-11T14:37:53Z</time>
      </trkpt>
      <trkpt lat="42.95505" lon="-0.45203">
        <ele>1051.81958</ele>
        <time>2011-08-11T14:38:24Z</time>
      </trkpt>
      <trkpt lat="42.95501" lon="-0.45211">
        <ele>1048.454834</ele>
        <time>2011-08-11T14:38:36Z</time>
      </trkpt>
      <trkpt lat="42.95499" lon="-0.45195">
        <ele>1045.090332</ele>
        <time>2011-08-11T14:39:05Z</time>
      </trkpt>
      <trkpt lat="42.95486" lon="-0.45198">
        <ele>1042.206543</ele>
        <time>2011-08-11T14:39:33Z</time>
      </trkpt>
      <trkpt lat="42.95476" lon="-0.45202">
        <ele>1038.361328</ele>
        <time>2011-08-11T14:39:54Z</time>
      </trkpt>
      <trkpt lat="42.95462" lon="-0.45206">
        <ele>1034.996582</ele>
        <time>2011-08-11T14:40:20Z</time>
      </trkpt>
      <trkpt lat="42.95454" lon="-0.4521">
        <ele>1031.631836</ele>
        <time>2011-08-11T14:41:07Z</time>
      </trkpt>
      <trkpt lat="42.95446" lon="-0.45223">
        <ele>1028.748047</ele>
        <time>2011-08-11T14:41:36Z</time>
      </trkpt>
      <trkpt lat="42.95438" lon="-0.45225">
        <ele>1025.383301</ele>
        <time>2011-08-11T14:41:57Z</time>
      </trkpt>
      <trkpt lat="42.95428" lon="-0.45226">
        <ele>1022.018799</ele>
        <time>2011-08-11T14:42:19Z</time>
      </trkpt>
      <trkpt lat="42.95413" lon="-0.45227">
        <ele>1018.654053</ele>
        <time>2011-08-11T14:42:47Z</time>
      </trkpt>
      <trkpt lat="42.95407" lon="-0.45229">
        <ele>1015.770264</ele>
        <time>2011-08-11T14:43:01Z</time>
      </trkpt>
      <trkpt lat="42.95398" lon="-0.4523">
        <ele>1012.405518</ele>
        <time>2011-08-11T14:43:22Z</time>
      </trkpt>
      <trkpt lat="42.95385" lon="-0.45231">
        <ele>1009.041016</ele>
        <time>2011-08-11T14:43:45Z</time>
      </trkpt>
      <trkpt lat="42.95376" lon="-0.4523">
        <ele>1006.156982</ele>
        <time>2011-08-11T14:44:00Z</time>
      </trkpt>
      <trkpt lat="42.95365" lon="-0.45229">
        <ele>1002.311523</ele>
        <time>2011-08-11T14:44:22Z</time>
      </trkpt>
      <trkpt lat="42.95353" lon="-0.4523">
        <ele>999.427734</ele>
        <time>2011-08-11T14:44:45Z</time>
      </trkpt>
      <trkpt lat="42.95346" lon="-0.4523">
        <ele>997.024414</ele>
        <time>2011-08-11T14:45:00Z</time>
      </trkpt>
      <trkpt lat="42.95335" lon="-0.45226">
        <ele>993.659912</ele>
        <time>2011-08-11T14:45:20Z</time>
      </trkpt>
      <trkpt lat="42.95326" lon="-0.45222">
        <ele>990.29541</ele>
        <time>2011-08-11T14:45:35Z</time>
      </trkpt>
      <trkpt lat="42.95312" lon="-0.45226">
        <ele>986.93042</ele>
        <time>2011-08-11T14:46:16Z</time>
      </trkpt>
      <trkpt lat="42.95297" lon="-0.45217">
        <ele>983.565918</ele>
        <time>2011-08-11T14:47:52Z</time>
      </trkpt>
      <trkpt lat="42.95284" lon="-0.45223">
        <ele>980.201416</ele>
        <time>2011-08-11T14:48:13Z</time>
      </trkpt>
      <trkpt lat="42.95281" lon="-0.45224">
        <ele>980.201416</ele>
        <time>2011-08-11T14:48:15Z</time>
      </trkpt>
      <trkpt lat="42.95271" lon="-0.45215">
        <ele>978.278809</ele>
        <time>2011-08-11T14:48:28Z</time>
      </trkpt>
      <trkpt lat="42.95271" lon="-0.45209">
        <ele>976.356201</ele>
        <time>2011-08-11T14:48:38Z</time>
      </trkpt>
      <trkpt lat="42.95263" lon="-0.45205">
        <ele>972.991699</ele>
        <time>2011-08-11T14:48:58Z</time>
      </trkpt>
      <trkpt lat="42.95248" lon="-0.45191">
        <ele>971.068848</ele>
        <time>2011-08-11T14:49:29Z</time>
      </trkpt>
      <trkpt lat="42.95244" lon="-0.45188">
        <ele>968.665527</ele>
        <time>2011-08-11T14:49:35Z</time>
      </trkpt>
      <trkpt lat="42.95239" lon="-0.45177">
        <ele>967.223633</ele>
        <time>2011-08-11T14:49:47Z</time>
      </trkpt>
      <trkpt lat="42.95234" lon="-0.45172">
        <ele>966.262207</ele>
        <time>2011-08-11T14:50:15Z</time>
      </trkpt>
      <trkpt lat="42.95225" lon="-0.45158">
        <ele>964.820312</ele>
        <time>2011-08-11T14:51:06Z</time>
      </trkpt>
      <trkpt lat="42.95218" lon="-0.45151">
        <ele>963.858887</ele>
        <time>2011-08-11T14:51:16Z</time>
      </trkpt>
      <trkpt lat="42.95215" lon="-0.45143">
        <ele>961.455811</ele>
        <time>2011-08-11T14:51:27Z</time>
      </trkpt>
      <trkpt lat="42.95213" lon="-0.45131">
        <ele>957.129883</ele>
        <time>2011-08-11T14:51:42Z</time>
      </trkpt>
      <trkpt lat="42.9521" lon="-0.45119">
        <ele>955.207031</ele>
        <time>2011-08-11T14:51:55Z</time>
      </trkpt>
      <trkpt lat="42.95214" lon="-0.45104">
        <ele>953.765137</ele>
        <time>2011-08-11T14:52:11Z</time>
      </trkpt>
      <trkpt lat="42.95212" lon="-0.45094">
        <ele>951.842529</ele>
        <time>2011-08-11T14:52:24Z</time>
      </trkpt>
      <trkpt lat="42.95204" lon="-0.45085">
        <ele>949.919922</ele>
        <time>2011-08-11T14:52:41Z</time>
      </trkpt>
      <trkpt lat="42.95202" lon="-0.45075">
        <ele>946.55542</ele>
        <time>2011-08-11T14:52:52Z</time>
      </trkpt>
      <trkpt lat="42.95201" lon="-0.4507">
        <ele>945.113281</ele>
        <time>2011-08-11T14:52:56Z</time>
      </trkpt>
      <trkpt lat="42.95199" lon="-0.45058">
        <ele>942.229492</ele>
        <time>2011-08-11T14:53:05Z</time>
      </trkpt>
      <trkpt lat="42.95197" lon="-0.45041">
        <ele>938.864746</ele>
        <time>2011-08-11T14:53:20Z</time>
      </trkpt>
      <trkpt lat="42.95194" lon="-0.45028">
        <ele>935.980713</ele>
        <time>2011-08-11T14:53:31Z</time>
      </trkpt>
      <trkpt lat="42.95192" lon="-0.45017">
        <ele>934.538818</ele>
        <time>2011-08-11T14:53:42Z</time>
      </trkpt>
      <trkpt lat="42.9519" lon="-0.45003">
        <ele>931.654785</ele>
        <time>2011-08-11T14:53:55Z</time>
      </trkpt>
      <trkpt lat="42.95186" lon="-0.44984">
        <ele>928.290283</ele>
        <time>2011-08-11T14:54:10Z</time>
      </trkpt>
      <trkpt lat="42.95183" lon="-0.44968">
        <ele>925.40625</ele>
        <time>2011-08-11T14:54:22Z</time>
      </trkpt>
      <trkpt lat="42.9518" lon="-0.44961">
        <ele>923.483643</ele>
        <time>2011-08-11T14:54:27Z</time>
      </trkpt>
      <trkpt lat="42.95177" lon="-0.44943">
        <ele>919.638428</ele>
        <time>2011-08-11T14:54:40Z</time>
      </trkpt>
      <trkpt lat="42.95174" lon="-0.44926">
        <ele>916.273682</ele>
        <time>2011-08-11T14:54:52Z</time>
      </trkpt>
      <trkpt lat="42.95171" lon="-0.44911">
        <ele>913.389893</ele>
        <time>2011-08-11T14:55:04Z</time>
      </trkpt>
      <trkpt lat="42.9517" lon="-0.44909">
        <ele>913.389893</ele>
        <time>2011-08-11T14:55:05Z</time>
      </trkpt>
      <trkpt lat="42.95169" lon="-0.44903">
        <ele>913.389893</ele>
        <time>2011-08-11T14:55:10Z</time>
      </trkpt>
      <trkpt lat="42.95168" lon="-0.44897">
        <ele>910.505859</ele>
        <time>2011-08-11T14:55:15Z</time>
      </trkpt>
      <trkpt lat="42.95159" lon="-0.44871">
        <ele>908.102783</ele>
        <time>2011-08-11T14:55:35Z</time>
      </trkpt>
      <trkpt lat="42.95154" lon="-0.44858">
        <ele>905.218506</ele>
        <time>2011-08-11T14:55:45Z</time>
      </trkpt>
      <trkpt lat="42.95146" lon="-0.44833">
        <ele>901.854004</ele>
        <time>2011-08-11T14:56:04Z</time>
      </trkpt>
      <trkpt lat="42.9514" lon="-0.44816">
        <ele>898.489258</ele>
        <time>2011-08-11T14:56:17Z</time>
      </trkpt>
      <trkpt lat="42.95137" lon="-0.44809">
        <ele>897.528076</ele>
        <time>2011-08-11T14:56:25Z</time>
      </trkpt>
    </trkseg>
  </trk>
</gpx>